<?xml version="1.0" encoding="UTF-8" standalone="no" ?>
<gpx xmlns="http://www.topografix.com/GPX/1/1" xmlns:xsi="http://www.w3.org/2001/XMLSchema-instance" xsi:schemaLocation="http://www.topografix.com/GPX/1/1 http://www.topografix.com/GPX/1/1/gpx.xsd" version="1.1" creator="VisuGPX - https://www.visugpx.com">
  <metadata>
    <name>Jour 3</name>
  </metadata>
  <trk>
    <name><![CDATA[J3]]></name>
    <extensions>
      <line xmlns="http://www.topografix.com/GPX/gpx_style/0/2">
        <color>0000FF</color>
        <width>4</width>
      </line>
    </extensions>
    <trkseg>
      <trkpt lat="42.17243" lon="1.32037">
        <ele>494.56</ele>
        <time>2021-08-01T06:53:25Z</time>
      </trkpt>
      <trkpt lat="42.17243" lon="1.32037">
        <ele>494.26</ele>
        <time>2021-08-01T06:53:26Z</time>
      </trkpt>
      <trkpt lat="42.17243" lon="1.32037">
        <ele>494.07</ele>
        <time>2021-08-01T06:53:27Z</time>
      </trkpt>
      <trkpt lat="42.17243" lon="1.32037">
        <ele>493.79</ele>
        <time>2021-08-01T06:53:28Z</time>
      </trkpt>
      <trkpt lat="42.17243" lon="1.32037">
        <ele>493.53</ele>
        <time>2021-08-01T06:53:29Z</time>
      </trkpt>
      <trkpt lat="42.17243" lon="1.32037">
        <ele>493.49</ele>
        <time>2021-08-01T06:53:30Z</time>
      </trkpt>
      <trkpt lat="42.17243" lon="1.32037">
        <ele>493.52</ele>
        <time>2021-08-01T06:53:31Z</time>
      </trkpt>
      <trkpt lat="42.17262" lon="1.31978">
        <ele>489.37</ele>
        <time>2021-08-01T08:56:44Z</time>
      </trkpt>
      <trkpt lat="42.1725" lon="1.32022">
        <ele>489.37</ele>
        <time>2021-08-01T08:57:32Z</time>
      </trkpt>
      <trkpt lat="42.17249" lon="1.32022">
        <ele>489.37</ele>
        <time>2021-08-01T08:58:13Z</time>
      </trkpt>
      <trkpt lat="42.17243" lon="1.32029">
        <ele>489.22</ele>
        <time>2021-08-01T08:58:27Z</time>
      </trkpt>
      <trkpt lat="42.17239" lon="1.31994">
        <ele>488.19</ele>
        <time>2021-08-01T08:58:34Z</time>
      </trkpt>
      <trkpt lat="42.17242" lon="1.31989">
        <ele>488.25</ele>
        <time>2021-08-01T08:58:35Z</time>
      </trkpt>
      <trkpt lat="42.17291" lon="1.31899">
        <ele>491.9</ele>
        <time>2021-08-01T08:58:45Z</time>
      </trkpt>
      <trkpt lat="42.17319" lon="1.31852">
        <ele>494.98</ele>
        <time>2021-08-01T08:58:50Z</time>
      </trkpt>
      <trkpt lat="42.17332" lon="1.31829">
        <ele>496.71</ele>
        <time>2021-08-01T08:58:53Z</time>
      </trkpt>
      <trkpt lat="42.17341" lon="1.31776">
        <ele>499.97</ele>
        <time>2021-08-01T08:58:59Z</time>
      </trkpt>
      <trkpt lat="42.1733" lon="1.31712">
        <ele>503.63</ele>
        <time>2021-08-01T08:59:06Z</time>
      </trkpt>
      <trkpt lat="42.17323" lon="1.31659">
        <ele>507.03</ele>
        <time>2021-08-01T08:59:13Z</time>
      </trkpt>
      <trkpt lat="42.1732" lon="1.31645">
        <ele>507.86</ele>
        <time>2021-08-01T08:59:15Z</time>
      </trkpt>
      <trkpt lat="42.17279" lon="1.31554">
        <ele>509.86</ele>
        <time>2021-08-01T08:59:27Z</time>
      </trkpt>
      <trkpt lat="42.17237" lon="1.31439">
        <ele>508.87</ele>
        <time>2021-08-01T08:59:39Z</time>
      </trkpt>
      <trkpt lat="42.17197" lon="1.31348">
        <ele>509.32</ele>
        <time>2021-08-01T08:59:49Z</time>
      </trkpt>
      <trkpt lat="42.17193" lon="1.3134">
        <ele>509.72</ele>
        <time>2021-08-01T08:59:54Z</time>
      </trkpt>
      <trkpt lat="42.17192" lon="1.31337">
        <ele>509.77</ele>
        <time>2021-08-01T08:59:56Z</time>
      </trkpt>
      <trkpt lat="42.1721" lon="1.31319">
        <ele>510.24</ele>
        <time>2021-08-01T09:00:02Z</time>
      </trkpt>
      <trkpt lat="42.1727" lon="1.31302">
        <ele>514</ele>
        <time>2021-08-01T09:00:11Z</time>
      </trkpt>
      <trkpt lat="42.17303" lon="1.31296">
        <ele>517.81</ele>
        <time>2021-08-01T09:00:16Z</time>
      </trkpt>
      <trkpt lat="42.17308" lon="1.31296">
        <ele>517.81</ele>
        <time>2021-08-01T09:00:17Z</time>
      </trkpt>
      <trkpt lat="42.17332" lon="1.31296">
        <ele>521.39</ele>
        <time>2021-08-01T09:00:21Z</time>
      </trkpt>
      <trkpt lat="42.17337" lon="1.31296">
        <ele>522.02</ele>
        <time>2021-08-01T09:00:22Z</time>
      </trkpt>
      <trkpt lat="42.1736" lon="1.31285">
        <ele>525.61</ele>
        <time>2021-08-01T09:00:28Z</time>
      </trkpt>
      <trkpt lat="42.17372" lon="1.31267">
        <ele>528.18</ele>
        <time>2021-08-01T09:00:32Z</time>
      </trkpt>
      <trkpt lat="42.17377" lon="1.31266">
        <ele>528.8</ele>
        <time>2021-08-01T09:00:33Z</time>
      </trkpt>
      <trkpt lat="42.17398" lon="1.31268">
        <ele>532.93</ele>
        <time>2021-08-01T09:00:39Z</time>
      </trkpt>
      <trkpt lat="42.174" lon="1.31273">
        <ele>533.63</ele>
        <time>2021-08-01T09:00:40Z</time>
      </trkpt>
      <trkpt lat="42.17403" lon="1.31279">
        <ele>534.32</ele>
        <time>2021-08-01T09:00:41Z</time>
      </trkpt>
      <trkpt lat="42.17406" lon="1.31285">
        <ele>534.96</ele>
        <time>2021-08-01T09:00:42Z</time>
      </trkpt>
      <trkpt lat="42.17409" lon="1.31291">
        <ele>535.49</ele>
        <time>2021-08-01T09:00:43Z</time>
      </trkpt>
      <trkpt lat="42.17439" lon="1.31336">
        <ele>539.02</ele>
        <time>2021-08-01T09:00:51Z</time>
      </trkpt>
      <trkpt lat="42.17469" lon="1.31373">
        <ele>541.74</ele>
        <time>2021-08-01T09:00:58Z</time>
      </trkpt>
      <trkpt lat="42.17523" lon="1.31418">
        <ele>545.38</ele>
        <time>2021-08-01T09:01:08Z</time>
      </trkpt>
      <trkpt lat="42.17556" lon="1.31451">
        <ele>548.9</ele>
        <time>2021-08-01T09:01:14Z</time>
      </trkpt>
      <trkpt lat="42.1758" lon="1.31468">
        <ele>551.62</ele>
        <time>2021-08-01T09:01:18Z</time>
      </trkpt>
      <trkpt lat="42.17585" lon="1.3147">
        <ele>552.37</ele>
        <time>2021-08-01T09:01:19Z</time>
      </trkpt>
      <trkpt lat="42.17603" lon="1.3146">
        <ele>555.45</ele>
        <time>2021-08-01T09:01:23Z</time>
      </trkpt>
      <trkpt lat="42.17602" lon="1.31454">
        <ele>556.18</ele>
        <time>2021-08-01T09:01:24Z</time>
      </trkpt>
      <trkpt lat="42.17599" lon="1.31449">
        <ele>557.01</ele>
        <time>2021-08-01T09:01:25Z</time>
      </trkpt>
      <trkpt lat="42.17578" lon="1.31423">
        <ele>562.1</ele>
        <time>2021-08-01T09:01:31Z</time>
      </trkpt>
      <trkpt lat="42.17555" lon="1.31398">
        <ele>565.73</ele>
        <time>2021-08-01T09:01:41Z</time>
      </trkpt>
      <trkpt lat="42.1755" lon="1.31389">
        <ele>566.64</ele>
        <time>2021-08-01T09:01:50Z</time>
      </trkpt>
      <trkpt lat="42.17541" lon="1.31377">
        <ele>566.66</ele>
        <time>2021-08-01T09:02:04Z</time>
      </trkpt>
      <trkpt lat="42.17538" lon="1.31367">
        <ele>566.61</ele>
        <time>2021-08-01T09:02:09Z</time>
      </trkpt>
      <trkpt lat="42.17503" lon="1.31293">
        <ele>566.74</ele>
        <time>2021-08-01T09:02:21Z</time>
      </trkpt>
      <trkpt lat="42.17495" lon="1.31233">
        <ele>567.93</ele>
        <time>2021-08-01T09:02:29Z</time>
      </trkpt>
      <trkpt lat="42.17501" lon="1.31207">
        <ele>569.05</ele>
        <time>2021-08-01T09:02:32Z</time>
      </trkpt>
      <trkpt lat="42.1751" lon="1.31149">
        <ele>573</ele>
        <time>2021-08-01T09:02:38Z</time>
      </trkpt>
      <trkpt lat="42.1751" lon="1.31109">
        <ele>576.88</ele>
        <time>2021-08-01T09:02:42Z</time>
      </trkpt>
      <trkpt lat="42.17505" lon="1.31085">
        <ele>579.53</ele>
        <time>2021-08-01T09:02:45Z</time>
      </trkpt>
      <trkpt lat="42.17513" lon="1.3104">
        <ele>583.61</ele>
        <time>2021-08-01T09:02:51Z</time>
      </trkpt>
      <trkpt lat="42.17529" lon="1.30996">
        <ele>587.39</ele>
        <time>2021-08-01T09:02:58Z</time>
      </trkpt>
      <trkpt lat="42.17542" lon="1.30946">
        <ele>590.63</ele>
        <time>2021-08-01T09:03:08Z</time>
      </trkpt>
      <trkpt lat="42.17553" lon="1.30882">
        <ele>593.53</ele>
        <time>2021-08-01T09:03:20Z</time>
      </trkpt>
      <trkpt lat="42.17566" lon="1.30813">
        <ele>596.61</ele>
        <time>2021-08-01T09:03:32Z</time>
      </trkpt>
      <trkpt lat="42.17573" lon="1.30774">
        <ele>599.23</ele>
        <time>2021-08-01T09:03:38Z</time>
      </trkpt>
      <trkpt lat="42.17583" lon="1.3075">
        <ele>600.97</ele>
        <time>2021-08-01T09:03:44Z</time>
      </trkpt>
      <trkpt lat="42.17591" lon="1.30742">
        <ele>601.22</ele>
        <time>2021-08-01T09:03:46Z</time>
      </trkpt>
      <trkpt lat="42.17634" lon="1.30669">
        <ele>600.4</ele>
        <time>2021-08-01T09:04:00Z</time>
      </trkpt>
      <trkpt lat="42.17673" lon="1.30612">
        <ele>602.95</ele>
        <time>2021-08-01T09:04:14Z</time>
      </trkpt>
      <trkpt lat="42.17691" lon="1.30586">
        <ele>606.06</ele>
        <time>2021-08-01T09:04:21Z</time>
      </trkpt>
      <trkpt lat="42.17705" lon="1.30572">
        <ele>609.37</ele>
        <time>2021-08-01T09:04:28Z</time>
      </trkpt>
      <trkpt lat="42.17723" lon="1.30552">
        <ele>611.56</ele>
        <time>2021-08-01T09:04:38Z</time>
      </trkpt>
      <trkpt lat="42.17725" lon="1.30544">
        <ele>612.78</ele>
        <time>2021-08-01T09:04:47Z</time>
      </trkpt>
      <trkpt lat="42.17725" lon="1.30544">
        <ele>615.79</ele>
        <time>2021-08-01T09:06:04Z</time>
      </trkpt>
      <trkpt lat="42.1773" lon="1.30512">
        <ele>616.62</ele>
        <time>2021-08-01T09:06:23Z</time>
      </trkpt>
      <trkpt lat="42.17731" lon="1.30496">
        <ele>616.76</ele>
        <time>2021-08-01T09:06:26Z</time>
      </trkpt>
      <trkpt lat="42.17733" lon="1.3049">
        <ele>616.8</ele>
        <time>2021-08-01T09:06:27Z</time>
      </trkpt>
      <trkpt lat="42.17749" lon="1.30436">
        <ele>618.27</ele>
        <time>2021-08-01T09:06:37Z</time>
      </trkpt>
      <trkpt lat="42.17765" lon="1.30413">
        <ele>619.04</ele>
        <time>2021-08-01T09:06:42Z</time>
      </trkpt>
      <trkpt lat="42.17792" lon="1.30345">
        <ele>619.31</ele>
        <time>2021-08-01T09:06:53Z</time>
      </trkpt>
      <trkpt lat="42.1781" lon="1.30314">
        <ele>619.17</ele>
        <time>2021-08-01T09:07:00Z</time>
      </trkpt>
      <trkpt lat="42.17832" lon="1.30287">
        <ele>619.01</ele>
        <time>2021-08-01T09:07:08Z</time>
      </trkpt>
      <trkpt lat="42.17854" lon="1.30247">
        <ele>620.22</ele>
        <time>2021-08-01T09:07:17Z</time>
      </trkpt>
      <trkpt lat="42.17859" lon="1.30209">
        <ele>621.91</ele>
        <time>2021-08-01T09:07:23Z</time>
      </trkpt>
      <trkpt lat="42.17855" lon="1.30178">
        <ele>624.06</ele>
        <time>2021-08-01T09:07:27Z</time>
      </trkpt>
      <trkpt lat="42.17857" lon="1.30136">
        <ele>628.05</ele>
        <time>2021-08-01T09:07:32Z</time>
      </trkpt>
      <trkpt lat="42.17862" lon="1.30101">
        <ele>631.55</ele>
        <time>2021-08-01T09:07:36Z</time>
      </trkpt>
      <trkpt lat="42.17869" lon="1.30078">
        <ele>634.02</ele>
        <time>2021-08-01T09:07:39Z</time>
      </trkpt>
      <trkpt lat="42.17875" lon="1.30037">
        <ele>638.52</ele>
        <time>2021-08-01T09:07:44Z</time>
      </trkpt>
      <trkpt lat="42.17877" lon="1.30011">
        <ele>641.42</ele>
        <time>2021-08-01T09:07:47Z</time>
      </trkpt>
      <trkpt lat="42.17893" lon="1.29979">
        <ele>645.43</ele>
        <time>2021-08-01T09:07:52Z</time>
      </trkpt>
      <trkpt lat="42.1788" lon="1.29942">
        <ele>649.07</ele>
        <time>2021-08-01T09:07:57Z</time>
      </trkpt>
      <trkpt lat="42.17876" lon="1.29917">
        <ele>651.1</ele>
        <time>2021-08-01T09:08:00Z</time>
      </trkpt>
      <trkpt lat="42.17875" lon="1.29878">
        <ele>654.18</ele>
        <time>2021-08-01T09:08:05Z</time>
      </trkpt>
      <trkpt lat="42.17858" lon="1.29829">
        <ele>657.99</ele>
        <time>2021-08-01T09:08:12Z</time>
      </trkpt>
      <trkpt lat="42.17851" lon="1.29809">
        <ele>659.74</ele>
        <time>2021-08-01T09:08:15Z</time>
      </trkpt>
      <trkpt lat="42.17849" lon="1.29774">
        <ele>663.47</ele>
        <time>2021-08-01T09:08:21Z</time>
      </trkpt>
      <trkpt lat="42.17845" lon="1.29754">
        <ele>665.3</ele>
        <time>2021-08-01T09:08:24Z</time>
      </trkpt>
      <trkpt lat="42.17847" lon="1.2971">
        <ele>669.82</ele>
        <time>2021-08-01T09:08:30Z</time>
      </trkpt>
      <trkpt lat="42.17853" lon="1.29683">
        <ele>673.07</ele>
        <time>2021-08-01T09:08:34Z</time>
      </trkpt>
      <trkpt lat="42.17853" lon="1.29676">
        <ele>674.76</ele>
        <time>2021-08-01T09:08:35Z</time>
      </trkpt>
      <trkpt lat="42.17854" lon="1.2966">
        <ele>676.33</ele>
        <time>2021-08-01T09:08:37Z</time>
      </trkpt>
      <trkpt lat="42.1787" lon="1.29638">
        <ele>680.32</ele>
        <time>2021-08-01T09:08:42Z</time>
      </trkpt>
      <trkpt lat="42.17879" lon="1.29611">
        <ele>684.26</ele>
        <time>2021-08-01T09:08:48Z</time>
      </trkpt>
      <trkpt lat="42.17873" lon="1.29599">
        <ele>685.56</ele>
        <time>2021-08-01T09:08:50Z</time>
      </trkpt>
      <trkpt lat="42.1786" lon="1.29573">
        <ele>689.62</ele>
        <time>2021-08-01T09:08:56Z</time>
      </trkpt>
      <trkpt lat="42.17884" lon="1.29582">
        <ele>693</ele>
        <time>2021-08-01T09:09:02Z</time>
      </trkpt>
      <trkpt lat="42.17907" lon="1.29594">
        <ele>696.08</ele>
        <time>2021-08-01T09:09:07Z</time>
      </trkpt>
      <trkpt lat="42.17916" lon="1.29591">
        <ele>697.15</ele>
        <time>2021-08-01T09:09:09Z</time>
      </trkpt>
      <trkpt lat="42.17927" lon="1.29585">
        <ele>698.43</ele>
        <time>2021-08-01T09:09:11Z</time>
      </trkpt>
      <trkpt lat="42.17958" lon="1.29582">
        <ele>701.98</ele>
        <time>2021-08-01T09:09:16Z</time>
      </trkpt>
      <trkpt lat="42.17978" lon="1.29582">
        <ele>705.92</ele>
        <time>2021-08-01T09:09:22Z</time>
      </trkpt>
      <trkpt lat="42.17966" lon="1.29568">
        <ele>708.96</ele>
        <time>2021-08-01T09:09:27Z</time>
      </trkpt>
      <trkpt lat="42.17924" lon="1.29558">
        <ele>713.49</ele>
        <time>2021-08-01T09:09:35Z</time>
      </trkpt>
      <trkpt lat="42.17919" lon="1.29557">
        <ele>714.02</ele>
        <time>2021-08-01T09:09:36Z</time>
      </trkpt>
      <trkpt lat="42.17895" lon="1.2952">
        <ele>717.84</ele>
        <time>2021-08-01T09:09:43Z</time>
      </trkpt>
      <trkpt lat="42.17891" lon="1.29505">
        <ele>719.04</ele>
        <time>2021-08-01T09:09:45Z</time>
      </trkpt>
      <trkpt lat="42.17888" lon="1.29473">
        <ele>722.87</ele>
        <time>2021-08-01T09:09:51Z</time>
      </trkpt>
      <trkpt lat="42.17873" lon="1.29424">
        <ele>727.59</ele>
        <time>2021-08-01T09:09:59Z</time>
      </trkpt>
      <trkpt lat="42.1786" lon="1.29409">
        <ele>729.39</ele>
        <time>2021-08-01T09:10:02Z</time>
      </trkpt>
      <trkpt lat="42.17832" lon="1.29376">
        <ele>733.14</ele>
        <time>2021-08-01T09:10:08Z</time>
      </trkpt>
      <trkpt lat="42.17821" lon="1.29345">
        <ele>737.18</ele>
        <time>2021-08-01T09:10:13Z</time>
      </trkpt>
      <trkpt lat="42.17821" lon="1.29334">
        <ele>738.49</ele>
        <time>2021-08-01T09:10:15Z</time>
      </trkpt>
      <trkpt lat="42.1782" lon="1.2932">
        <ele>740.64</ele>
        <time>2021-08-01T09:10:18Z</time>
      </trkpt>
      <trkpt lat="42.17829" lon="1.29284">
        <ele>743.73</ele>
        <time>2021-08-01T09:10:24Z</time>
      </trkpt>
      <trkpt lat="42.1785" lon="1.29265">
        <ele>745.62</ele>
        <time>2021-08-01T09:10:29Z</time>
      </trkpt>
      <trkpt lat="42.17873" lon="1.29253">
        <ele>747</ele>
        <time>2021-08-01T09:10:34Z</time>
      </trkpt>
      <trkpt lat="42.1788" lon="1.29222">
        <ele>748.23</ele>
        <time>2021-08-01T09:10:39Z</time>
      </trkpt>
      <trkpt lat="42.17876" lon="1.29206">
        <ele>748.48</ele>
        <time>2021-08-01T09:10:41Z</time>
      </trkpt>
      <trkpt lat="42.17878" lon="1.29182">
        <ele>749.26</ele>
        <time>2021-08-01T09:10:45Z</time>
      </trkpt>
      <trkpt lat="42.17884" lon="1.29152">
        <ele>750.76</ele>
        <time>2021-08-01T09:10:50Z</time>
      </trkpt>
      <trkpt lat="42.17902" lon="1.2912">
        <ele>752.81</ele>
        <time>2021-08-01T09:10:56Z</time>
      </trkpt>
      <trkpt lat="42.17916" lon="1.291">
        <ele>754.42</ele>
        <time>2021-08-01T09:11:00Z</time>
      </trkpt>
      <trkpt lat="42.17949" lon="1.29062">
        <ele>757.31</ele>
        <time>2021-08-01T09:11:10Z</time>
      </trkpt>
      <trkpt lat="42.17959" lon="1.29035">
        <ele>758.96</ele>
        <time>2021-08-01T09:11:15Z</time>
      </trkpt>
      <trkpt lat="42.17969" lon="1.29022">
        <ele>760.26</ele>
        <time>2021-08-01T09:11:18Z</time>
      </trkpt>
      <trkpt lat="42.17983" lon="1.2898">
        <ele>763.23</ele>
        <time>2021-08-01T09:11:26Z</time>
      </trkpt>
      <trkpt lat="42.17991" lon="1.28899">
        <ele>766.75</ele>
        <time>2021-08-01T09:11:38Z</time>
      </trkpt>
      <trkpt lat="42.17992" lon="1.2887">
        <ele>768.38</ele>
        <time>2021-08-01T09:11:47Z</time>
      </trkpt>
      <trkpt lat="42.18008" lon="1.2885">
        <ele>769.86</ele>
        <time>2021-08-01T09:11:58Z</time>
      </trkpt>
      <trkpt lat="42.18039" lon="1.28841">
        <ele>771.68</ele>
        <time>2021-08-01T09:12:07Z</time>
      </trkpt>
      <trkpt lat="42.18078" lon="1.28815">
        <ele>775.07</ele>
        <time>2021-08-01T09:12:17Z</time>
      </trkpt>
      <trkpt lat="42.18093" lon="1.28787">
        <ele>777.69</ele>
        <time>2021-08-01T09:12:24Z</time>
      </trkpt>
      <trkpt lat="42.18099" lon="1.28774">
        <ele>778.56</ele>
        <time>2021-08-01T09:12:26Z</time>
      </trkpt>
      <trkpt lat="42.18103" lon="1.28701">
        <ele>782.4</ele>
        <time>2021-08-01T09:12:34Z</time>
      </trkpt>
      <trkpt lat="42.18108" lon="1.28668">
        <ele>784.55</ele>
        <time>2021-08-01T09:12:38Z</time>
      </trkpt>
      <trkpt lat="42.18123" lon="1.28626">
        <ele>788.48</ele>
        <time>2021-08-01T09:12:45Z</time>
      </trkpt>
      <trkpt lat="42.18144" lon="1.28592">
        <ele>792.12</ele>
        <time>2021-08-01T09:12:53Z</time>
      </trkpt>
      <trkpt lat="42.1816" lon="1.28561">
        <ele>795.17</ele>
        <time>2021-08-01T09:12:59Z</time>
      </trkpt>
      <trkpt lat="42.18174" lon="1.2854">
        <ele>798.21</ele>
        <time>2021-08-01T09:13:06Z</time>
      </trkpt>
      <trkpt lat="42.18179" lon="1.28534">
        <ele>798.95</ele>
        <time>2021-08-01T09:13:08Z</time>
      </trkpt>
      <trkpt lat="42.18207" lon="1.28509">
        <ele>802.4</ele>
        <time>2021-08-01T09:13:19Z</time>
      </trkpt>
      <trkpt lat="42.18234" lon="1.28483">
        <ele>805.45</ele>
        <time>2021-08-01T09:13:31Z</time>
      </trkpt>
      <trkpt lat="42.1824" lon="1.28476">
        <ele>806.2</ele>
        <time>2021-08-01T09:13:33Z</time>
      </trkpt>
      <trkpt lat="42.18268" lon="1.28455">
        <ele>809.88</ele>
        <time>2021-08-01T09:13:43Z</time>
      </trkpt>
      <trkpt lat="42.18294" lon="1.28435">
        <ele>812.89</ele>
        <time>2021-08-01T09:13:52Z</time>
      </trkpt>
      <trkpt lat="42.18329" lon="1.28417">
        <ele>816.17</ele>
        <time>2021-08-01T09:14:01Z</time>
      </trkpt>
      <trkpt lat="42.1835" lon="1.28404">
        <ele>819.34</ele>
        <time>2021-08-01T09:14:07Z</time>
      </trkpt>
      <trkpt lat="42.18372" lon="1.28385">
        <ele>822.35</ele>
        <time>2021-08-01T09:14:13Z</time>
      </trkpt>
      <trkpt lat="42.18396" lon="1.28369">
        <ele>824.88</ele>
        <time>2021-08-01T09:14:18Z</time>
      </trkpt>
      <trkpt lat="42.18428" lon="1.28361">
        <ele>828.67</ele>
        <time>2021-08-01T09:14:24Z</time>
      </trkpt>
      <trkpt lat="42.18432" lon="1.2836">
        <ele>829.34</ele>
        <time>2021-08-01T09:14:25Z</time>
      </trkpt>
      <trkpt lat="42.18448" lon="1.28339">
        <ele>833.46</ele>
        <time>2021-08-01T09:14:31Z</time>
      </trkpt>
      <trkpt lat="42.18447" lon="1.28333">
        <ele>833.99</ele>
        <time>2021-08-01T09:14:32Z</time>
      </trkpt>
      <trkpt lat="42.18462" lon="1.28312">
        <ele>838.1</ele>
        <time>2021-08-01T09:14:39Z</time>
      </trkpt>
      <trkpt lat="42.18467" lon="1.28322">
        <ele>839.31</ele>
        <time>2021-08-01T09:14:41Z</time>
      </trkpt>
      <trkpt lat="42.18477" lon="1.28355">
        <ele>843.39</ele>
        <time>2021-08-01T09:14:48Z</time>
      </trkpt>
      <trkpt lat="42.18493" lon="1.28374">
        <ele>846.14</ele>
        <time>2021-08-01T09:14:54Z</time>
      </trkpt>
      <trkpt lat="42.18497" lon="1.28357">
        <ele>848.03</ele>
        <time>2021-08-01T09:14:58Z</time>
      </trkpt>
      <trkpt lat="42.18488" lon="1.28325">
        <ele>851.58</ele>
        <time>2021-08-01T09:15:05Z</time>
      </trkpt>
      <trkpt lat="42.18486" lon="1.28325">
        <ele>854.7</ele>
        <time>2021-08-01T09:15:14Z</time>
      </trkpt>
      <trkpt lat="42.18486" lon="1.28318">
        <ele>855.98</ele>
        <time>2021-08-01T09:16:13Z</time>
      </trkpt>
      <trkpt lat="42.18483" lon="1.28274">
        <ele>857.78</ele>
        <time>2021-08-01T09:16:21Z</time>
      </trkpt>
      <trkpt lat="42.18499" lon="1.28301">
        <ele>861.15</ele>
        <time>2021-08-01T09:16:26Z</time>
      </trkpt>
      <trkpt lat="42.18523" lon="1.28352">
        <ele>865.06</ele>
        <time>2021-08-01T09:16:33Z</time>
      </trkpt>
      <trkpt lat="42.18546" lon="1.28385">
        <ele>868.14</ele>
        <time>2021-08-01T09:16:39Z</time>
      </trkpt>
      <trkpt lat="42.18569" lon="1.28411">
        <ele>871.37</ele>
        <time>2021-08-01T09:16:45Z</time>
      </trkpt>
      <trkpt lat="42.18602" lon="1.28438">
        <ele>874.81</ele>
        <time>2021-08-01T09:16:51Z</time>
      </trkpt>
      <trkpt lat="42.18617" lon="1.28463">
        <ele>878.09</ele>
        <time>2021-08-01T09:16:57Z</time>
      </trkpt>
      <trkpt lat="42.18648" lon="1.28484">
        <ele>881.66</ele>
        <time>2021-08-01T09:17:03Z</time>
      </trkpt>
      <trkpt lat="42.18682" lon="1.28479">
        <ele>885.42</ele>
        <time>2021-08-01T09:17:08Z</time>
      </trkpt>
      <trkpt lat="42.18702" lon="1.28465">
        <ele>888</ele>
        <time>2021-08-01T09:17:11Z</time>
      </trkpt>
      <trkpt lat="42.18728" lon="1.28453">
        <ele>891.83</ele>
        <time>2021-08-01T09:17:16Z</time>
      </trkpt>
      <trkpt lat="42.18746" lon="1.28425">
        <ele>895.6</ele>
        <time>2021-08-01T09:17:21Z</time>
      </trkpt>
      <trkpt lat="42.18726" lon="1.28409">
        <ele>899.09</ele>
        <time>2021-08-01T09:17:26Z</time>
      </trkpt>
      <trkpt lat="42.1871" lon="1.28396">
        <ele>902.2</ele>
        <time>2021-08-01T09:17:30Z</time>
      </trkpt>
      <trkpt lat="42.18722" lon="1.28383">
        <ele>905.19</ele>
        <time>2021-08-01T09:17:34Z</time>
      </trkpt>
      <trkpt lat="42.18748" lon="1.28368">
        <ele>908.15</ele>
        <time>2021-08-01T09:17:39Z</time>
      </trkpt>
      <trkpt lat="42.18767" lon="1.2835">
        <ele>910</ele>
        <time>2021-08-01T09:17:42Z</time>
      </trkpt>
      <trkpt lat="42.18795" lon="1.28336">
        <ele>913.72</ele>
        <time>2021-08-01T09:17:47Z</time>
      </trkpt>
      <trkpt lat="42.18819" lon="1.28329">
        <ele>917.34</ele>
        <time>2021-08-01T09:17:52Z</time>
      </trkpt>
      <trkpt lat="42.18834" lon="1.28331">
        <ele>919.54</ele>
        <time>2021-08-01T09:17:55Z</time>
      </trkpt>
      <trkpt lat="42.18851" lon="1.28302">
        <ele>923.43</ele>
        <time>2021-08-01T09:18:01Z</time>
      </trkpt>
      <trkpt lat="42.18865" lon="1.28286">
        <ele>927.04</ele>
        <time>2021-08-01T09:18:06Z</time>
      </trkpt>
      <trkpt lat="42.18875" lon="1.28285">
        <ele>928.38</ele>
        <time>2021-08-01T09:18:08Z</time>
      </trkpt>
      <trkpt lat="42.18932" lon="1.28266">
        <ele>932.98</ele>
        <time>2021-08-01T09:18:16Z</time>
      </trkpt>
      <trkpt lat="42.18959" lon="1.28257">
        <ele>936.45</ele>
        <time>2021-08-01T09:18:21Z</time>
      </trkpt>
      <trkpt lat="42.18986" lon="1.28248">
        <ele>939.71</ele>
        <time>2021-08-01T09:18:29Z</time>
      </trkpt>
      <trkpt lat="42.19029" lon="1.28226">
        <ele>942.96</ele>
        <time>2021-08-01T09:18:36Z</time>
      </trkpt>
      <trkpt lat="42.19035" lon="1.28221">
        <ele>943.56</ele>
        <time>2021-08-01T09:18:37Z</time>
      </trkpt>
      <trkpt lat="42.19062" lon="1.28209">
        <ele>945.97</ele>
        <time>2021-08-01T09:18:41Z</time>
      </trkpt>
      <trkpt lat="42.19103" lon="1.28186">
        <ele>949.54</ele>
        <time>2021-08-01T09:18:47Z</time>
      </trkpt>
      <trkpt lat="42.19142" lon="1.28182">
        <ele>953.42</ele>
        <time>2021-08-01T09:18:53Z</time>
      </trkpt>
      <trkpt lat="42.19178" lon="1.2818">
        <ele>956.85</ele>
        <time>2021-08-01T09:18:59Z</time>
      </trkpt>
      <trkpt lat="42.19213" lon="1.28182">
        <ele>960.01</ele>
        <time>2021-08-01T09:19:05Z</time>
      </trkpt>
      <trkpt lat="42.1924" lon="1.28184">
        <ele>962.3</ele>
        <time>2021-08-01T09:19:10Z</time>
      </trkpt>
      <trkpt lat="42.19258" lon="1.28193">
        <ele>964.09</ele>
        <time>2021-08-01T09:19:14Z</time>
      </trkpt>
      <trkpt lat="42.19292" lon="1.28161">
        <ele>967.66</ele>
        <time>2021-08-01T09:19:22Z</time>
      </trkpt>
      <trkpt lat="42.19295" lon="1.28147">
        <ele>968.71</ele>
        <time>2021-08-01T09:19:24Z</time>
      </trkpt>
      <trkpt lat="42.19298" lon="1.28117">
        <ele>970.8</ele>
        <time>2021-08-01T09:19:28Z</time>
      </trkpt>
      <trkpt lat="42.1931" lon="1.28083">
        <ele>973.59</ele>
        <time>2021-08-01T09:19:34Z</time>
      </trkpt>
      <trkpt lat="42.19314" lon="1.28056">
        <ele>975.23</ele>
        <time>2021-08-01T09:19:38Z</time>
      </trkpt>
      <trkpt lat="42.19311" lon="1.27974">
        <ele>978.72</ele>
        <time>2021-08-01T09:19:49Z</time>
      </trkpt>
      <trkpt lat="42.19306" lon="1.27915">
        <ele>981.72</ele>
        <time>2021-08-01T09:19:58Z</time>
      </trkpt>
      <trkpt lat="42.19314" lon="1.27881">
        <ele>985.15</ele>
        <time>2021-08-01T09:20:06Z</time>
      </trkpt>
      <trkpt lat="42.19316" lon="1.27875">
        <ele>986.13</ele>
        <time>2021-08-01T09:20:08Z</time>
      </trkpt>
      <trkpt lat="42.19317" lon="1.27864">
        <ele>986.88</ele>
        <time>2021-08-01T09:20:10Z</time>
      </trkpt>
      <trkpt lat="42.19313" lon="1.27838">
        <ele>988.19</ele>
        <time>2021-08-01T09:20:14Z</time>
      </trkpt>
      <trkpt lat="42.19297" lon="1.27751">
        <ele>989.93</ele>
        <time>2021-08-01T09:20:28Z</time>
      </trkpt>
      <trkpt lat="42.19296" lon="1.27733">
        <ele>990.45</ele>
        <time>2021-08-01T09:20:30Z</time>
      </trkpt>
      <trkpt lat="42.19277" lon="1.27642">
        <ele>992.65</ele>
        <time>2021-08-01T09:20:42Z</time>
      </trkpt>
      <trkpt lat="42.1928" lon="1.27614">
        <ele>993.72</ele>
        <time>2021-08-01T09:20:46Z</time>
      </trkpt>
      <trkpt lat="42.19277" lon="1.27521">
        <ele>996.63</ele>
        <time>2021-08-01T09:20:58Z</time>
      </trkpt>
      <trkpt lat="42.19277" lon="1.27515">
        <ele>996.87</ele>
        <time>2021-08-01T09:20:59Z</time>
      </trkpt>
      <trkpt lat="42.19282" lon="1.2748">
        <ele>997.98</ele>
        <time>2021-08-01T09:21:04Z</time>
      </trkpt>
      <trkpt lat="42.19282" lon="1.27445">
        <ele>999.28</ele>
        <time>2021-08-01T09:21:09Z</time>
      </trkpt>
      <trkpt lat="42.19275" lon="1.27392">
        <ele>1001.34</ele>
        <time>2021-08-01T09:21:16Z</time>
      </trkpt>
      <trkpt lat="42.19266" lon="1.2737">
        <ele>1002.09</ele>
        <time>2021-08-01T09:21:19Z</time>
      </trkpt>
      <trkpt lat="42.19261" lon="1.2729">
        <ele>1004.29</ele>
        <time>2021-08-01T09:21:28Z</time>
      </trkpt>
      <trkpt lat="42.19266" lon="1.27234">
        <ele>1005.77</ele>
        <time>2021-08-01T09:21:34Z</time>
      </trkpt>
      <trkpt lat="42.19284" lon="1.27169">
        <ele>1008.88</ele>
        <time>2021-08-01T09:21:47Z</time>
      </trkpt>
      <trkpt lat="42.19274" lon="1.27125">
        <ele>1010.59</ele>
        <time>2021-08-01T09:21:57Z</time>
      </trkpt>
      <trkpt lat="42.19269" lon="1.27112">
        <ele>1010.72</ele>
        <time>2021-08-01T09:21:59Z</time>
      </trkpt>
      <trkpt lat="42.19266" lon="1.27074">
        <ele>1010.33</ele>
        <time>2021-08-01T09:22:04Z</time>
      </trkpt>
      <trkpt lat="42.19266" lon="1.2699">
        <ele>1007.13</ele>
        <time>2021-08-01T09:22:13Z</time>
      </trkpt>
      <trkpt lat="42.1927" lon="1.26945">
        <ele>1004.82</ele>
        <time>2021-08-01T09:22:18Z</time>
      </trkpt>
      <trkpt lat="42.1926" lon="1.26895">
        <ele>1000.94</ele>
        <time>2021-08-01T09:22:24Z</time>
      </trkpt>
      <trkpt lat="42.1925" lon="1.26867">
        <ele>998.51</ele>
        <time>2021-08-01T09:22:28Z</time>
      </trkpt>
      <trkpt lat="42.19253" lon="1.26823">
        <ele>996.05</ele>
        <time>2021-08-01T09:22:33Z</time>
      </trkpt>
      <trkpt lat="42.19279" lon="1.26767">
        <ele>992.78</ele>
        <time>2021-08-01T09:22:44Z</time>
      </trkpt>
      <trkpt lat="42.19284" lon="1.26761">
        <ele>992.54</ele>
        <time>2021-08-01T09:22:46Z</time>
      </trkpt>
      <trkpt lat="42.1929" lon="1.26734">
        <ele>991.66</ele>
        <time>2021-08-01T09:22:51Z</time>
      </trkpt>
      <trkpt lat="42.1929" lon="1.26654">
        <ele>988.31</ele>
        <time>2021-08-01T09:23:03Z</time>
      </trkpt>
      <trkpt lat="42.19292" lon="1.26587">
        <ele>985.13</ele>
        <time>2021-08-01T09:23:12Z</time>
      </trkpt>
      <trkpt lat="42.193" lon="1.26521">
        <ele>981.92</ele>
        <time>2021-08-01T09:23:21Z</time>
      </trkpt>
      <trkpt lat="42.19307" lon="1.26465">
        <ele>978.52</ele>
        <time>2021-08-01T09:23:28Z</time>
      </trkpt>
      <trkpt lat="42.19314" lon="1.26406">
        <ele>975.18</ele>
        <time>2021-08-01T09:23:35Z</time>
      </trkpt>
      <trkpt lat="42.19327" lon="1.26343">
        <ele>971.4</ele>
        <time>2021-08-01T09:23:42Z</time>
      </trkpt>
      <trkpt lat="42.19332" lon="1.26326">
        <ele>970.48</ele>
        <time>2021-08-01T09:23:44Z</time>
      </trkpt>
      <trkpt lat="42.19332" lon="1.26249">
        <ele>967.87</ele>
        <time>2021-08-01T09:23:54Z</time>
      </trkpt>
      <trkpt lat="42.19333" lon="1.26242">
        <ele>967.77</ele>
        <time>2021-08-01T09:23:55Z</time>
      </trkpt>
      <trkpt lat="42.19347" lon="1.26208">
        <ele>967.39</ele>
        <time>2021-08-01T09:24:00Z</time>
      </trkpt>
      <trkpt lat="42.19391" lon="1.26147">
        <ele>965.5</ele>
        <time>2021-08-01T09:24:10Z</time>
      </trkpt>
      <trkpt lat="42.19398" lon="1.26068">
        <ele>962.47</ele>
        <time>2021-08-01T09:24:19Z</time>
      </trkpt>
      <trkpt lat="42.19391" lon="1.26052">
        <ele>961.97</ele>
        <time>2021-08-01T09:24:21Z</time>
      </trkpt>
      <trkpt lat="42.1938" lon="1.26026">
        <ele>961.07</ele>
        <time>2021-08-01T09:24:25Z</time>
      </trkpt>
      <trkpt lat="42.19377" lon="1.25995">
        <ele>961.02</ele>
        <time>2021-08-01T09:24:29Z</time>
      </trkpt>
      <trkpt lat="42.1937" lon="1.25949">
        <ele>962.05</ele>
        <time>2021-08-01T09:24:35Z</time>
      </trkpt>
      <trkpt lat="42.19368" lon="1.25923">
        <ele>962.67</ele>
        <time>2021-08-01T09:24:38Z</time>
      </trkpt>
      <trkpt lat="42.19352" lon="1.25859">
        <ele>965.75</ele>
        <time>2021-08-01T09:24:48Z</time>
      </trkpt>
      <trkpt lat="42.19336" lon="1.25801">
        <ele>968.67</ele>
        <time>2021-08-01T09:25:00Z</time>
      </trkpt>
      <trkpt lat="42.19331" lon="1.25766">
        <ele>970.92</ele>
        <time>2021-08-01T09:25:06Z</time>
      </trkpt>
      <trkpt lat="42.19322" lon="1.25746">
        <ele>972.64</ele>
        <time>2021-08-01T09:25:10Z</time>
      </trkpt>
      <trkpt lat="42.19312" lon="1.25719">
        <ele>974.38</ele>
        <time>2021-08-01T09:25:15Z</time>
      </trkpt>
      <trkpt lat="42.19313" lon="1.25657">
        <ele>977.68</ele>
        <time>2021-08-01T09:25:24Z</time>
      </trkpt>
      <trkpt lat="42.1931" lon="1.25622">
        <ele>979.45</ele>
        <time>2021-08-01T09:25:30Z</time>
      </trkpt>
      <trkpt lat="42.1932" lon="1.2559">
        <ele>980.76</ele>
        <time>2021-08-01T09:25:36Z</time>
      </trkpt>
      <trkpt lat="42.19333" lon="1.25535">
        <ele>984.02</ele>
        <time>2021-08-01T09:25:47Z</time>
      </trkpt>
      <trkpt lat="42.19332" lon="1.25509">
        <ele>985.23</ele>
        <time>2021-08-01T09:25:51Z</time>
      </trkpt>
      <trkpt lat="42.19323" lon="1.25483">
        <ele>986.59</ele>
        <time>2021-08-01T09:25:56Z</time>
      </trkpt>
      <trkpt lat="42.19328" lon="1.25448">
        <ele>988.98</ele>
        <time>2021-08-01T09:26:04Z</time>
      </trkpt>
      <trkpt lat="42.1934" lon="1.25443">
        <ele>992.29</ele>
        <time>2021-08-01T09:26:16Z</time>
      </trkpt>
      <trkpt lat="42.19362" lon="1.25434">
        <ele>995.01</ele>
        <time>2021-08-01T09:28:26Z</time>
      </trkpt>
      <trkpt lat="42.19389" lon="1.25422">
        <ele>998.16</ele>
        <time>2021-08-01T09:28:38Z</time>
      </trkpt>
      <trkpt lat="42.19428" lon="1.25408">
        <ele>1001.12</ele>
        <time>2021-08-01T09:28:49Z</time>
      </trkpt>
      <trkpt lat="42.19442" lon="1.25407">
        <ele>1001.98</ele>
        <time>2021-08-01T09:28:52Z</time>
      </trkpt>
      <trkpt lat="42.19464" lon="1.25396">
        <ele>1003.12</ele>
        <time>2021-08-01T09:28:57Z</time>
      </trkpt>
      <trkpt lat="42.19474" lon="1.25387">
        <ele>1003.81</ele>
        <time>2021-08-01T09:28:59Z</time>
      </trkpt>
      <trkpt lat="42.1949" lon="1.2538">
        <ele>1004.68</ele>
        <time>2021-08-01T09:29:02Z</time>
      </trkpt>
      <trkpt lat="42.19504" lon="1.25369">
        <ele>1005.42</ele>
        <time>2021-08-01T09:29:05Z</time>
      </trkpt>
      <trkpt lat="42.19521" lon="1.2536">
        <ele>1006.63</ele>
        <time>2021-08-01T09:29:09Z</time>
      </trkpt>
      <trkpt lat="42.19554" lon="1.25344">
        <ele>1010.08</ele>
        <time>2021-08-01T09:29:17Z</time>
      </trkpt>
      <trkpt lat="42.19572" lon="1.25338">
        <ele>1012.99</ele>
        <time>2021-08-01T09:29:24Z</time>
      </trkpt>
      <trkpt lat="42.19572" lon="1.25365">
        <ele>1015.35</ele>
        <time>2021-08-01T09:29:29Z</time>
      </trkpt>
      <trkpt lat="42.19553" lon="1.25391">
        <ele>1019.31</ele>
        <time>2021-08-01T09:29:36Z</time>
      </trkpt>
      <trkpt lat="42.19549" lon="1.25395">
        <ele>1022.16</ele>
        <time>2021-08-01T09:29:50Z</time>
      </trkpt>
      <trkpt lat="42.19532" lon="1.25414">
        <ele>1023.83</ele>
        <time>2021-08-01T09:30:24Z</time>
      </trkpt>
      <trkpt lat="42.19512" lon="1.25455">
        <ele>1026.84</ele>
        <time>2021-08-01T09:30:37Z</time>
      </trkpt>
      <trkpt lat="42.19513" lon="1.25457">
        <ele>1027.04</ele>
        <time>2021-08-01T09:30:38Z</time>
      </trkpt>
      <trkpt lat="42.19535" lon="1.25439">
        <ele>1029.35</ele>
        <time>2021-08-01T09:30:46Z</time>
      </trkpt>
      <trkpt lat="42.19554" lon="1.25434">
        <ele>1030.31</ele>
        <time>2021-08-01T09:30:49Z</time>
      </trkpt>
      <trkpt lat="42.19575" lon="1.2543">
        <ele>1031.56</ele>
        <time>2021-08-01T09:30:52Z</time>
      </trkpt>
      <trkpt lat="42.19609" lon="1.25413">
        <ele>1035.44</ele>
        <time>2021-08-01T09:30:59Z</time>
      </trkpt>
      <trkpt lat="42.19633" lon="1.254">
        <ele>1039.74</ele>
        <time>2021-08-01T09:31:07Z</time>
      </trkpt>
      <trkpt lat="42.19631" lon="1.25401">
        <ele>1042.77</ele>
        <time>2021-08-01T09:31:26Z</time>
      </trkpt>
      <trkpt lat="42.19654" lon="1.25386">
        <ele>1043.64</ele>
        <time>2021-08-01T09:31:51Z</time>
      </trkpt>
      <trkpt lat="42.19686" lon="1.25376">
        <ele>1046.66</ele>
        <time>2021-08-01T09:32:00Z</time>
      </trkpt>
      <trkpt lat="42.19716" lon="1.25381">
        <ele>1049.84</ele>
        <time>2021-08-01T09:32:09Z</time>
      </trkpt>
      <trkpt lat="42.19731" lon="1.25379">
        <ele>1051.08</ele>
        <time>2021-08-01T09:32:13Z</time>
      </trkpt>
      <trkpt lat="42.19759" lon="1.25353">
        <ele>1054.36</ele>
        <time>2021-08-01T09:32:22Z</time>
      </trkpt>
      <trkpt lat="42.19783" lon="1.25343">
        <ele>1057.46</ele>
        <time>2021-08-01T09:32:29Z</time>
      </trkpt>
      <trkpt lat="42.19818" lon="1.25322">
        <ele>1060.7</ele>
        <time>2021-08-01T09:32:38Z</time>
      </trkpt>
      <trkpt lat="42.19822" lon="1.25319">
        <ele>1060.99</ele>
        <time>2021-08-01T09:32:39Z</time>
      </trkpt>
      <trkpt lat="42.19838" lon="1.25312">
        <ele>1061.57</ele>
        <time>2021-08-01T09:32:42Z</time>
      </trkpt>
      <trkpt lat="42.19858" lon="1.25291">
        <ele>1061.87</ele>
        <time>2021-08-01T09:32:46Z</time>
      </trkpt>
      <trkpt lat="42.19869" lon="1.25279">
        <ele>1061.89</ele>
        <time>2021-08-01T09:32:49Z</time>
      </trkpt>
      <trkpt lat="42.19907" lon="1.25257">
        <ele>1062.61</ele>
        <time>2021-08-01T09:33:00Z</time>
      </trkpt>
      <trkpt lat="42.19927" lon="1.25247">
        <ele>1063.17</ele>
        <time>2021-08-01T09:33:06Z</time>
      </trkpt>
      <trkpt lat="42.19933" lon="1.25246">
        <ele>1063.21</ele>
        <time>2021-08-01T09:33:07Z</time>
      </trkpt>
      <trkpt lat="42.19956" lon="1.25256">
        <ele>1063.64</ele>
        <time>2021-08-01T09:33:11Z</time>
      </trkpt>
      <trkpt lat="42.19978" lon="1.25267">
        <ele>1066.31</ele>
        <time>2021-08-01T09:33:21Z</time>
      </trkpt>
      <trkpt lat="42.20003" lon="1.25248">
        <ele>1069.51</ele>
        <time>2021-08-01T09:33:31Z</time>
      </trkpt>
      <trkpt lat="42.20037" lon="1.25253">
        <ele>1072.54</ele>
        <time>2021-08-01T09:33:39Z</time>
      </trkpt>
      <trkpt lat="42.20059" lon="1.25253">
        <ele>1074.27</ele>
        <time>2021-08-01T09:33:43Z</time>
      </trkpt>
      <trkpt lat="42.20081" lon="1.25257">
        <ele>1075.7</ele>
        <time>2021-08-01T09:33:46Z</time>
      </trkpt>
      <trkpt lat="42.20096" lon="1.25258">
        <ele>1076.96</ele>
        <time>2021-08-01T09:33:48Z</time>
      </trkpt>
      <trkpt lat="42.20109" lon="1.2526">
        <ele>1078.43</ele>
        <time>2021-08-01T09:33:50Z</time>
      </trkpt>
      <trkpt lat="42.20115" lon="1.25263">
        <ele>1079.14</ele>
        <time>2021-08-01T09:33:51Z</time>
      </trkpt>
      <trkpt lat="42.20139" lon="1.25278">
        <ele>1082.55</ele>
        <time>2021-08-01T09:33:56Z</time>
      </trkpt>
      <trkpt lat="42.2016" lon="1.25293">
        <ele>1085.17</ele>
        <time>2021-08-01T09:34:00Z</time>
      </trkpt>
      <trkpt lat="42.2018" lon="1.2531">
        <ele>1088.11</ele>
        <time>2021-08-01T09:34:04Z</time>
      </trkpt>
      <trkpt lat="42.20186" lon="1.25313">
        <ele>1088.71</ele>
        <time>2021-08-01T09:34:05Z</time>
      </trkpt>
      <trkpt lat="42.20191" lon="1.25315">
        <ele>1089.29</ele>
        <time>2021-08-01T09:34:06Z</time>
      </trkpt>
      <trkpt lat="42.20196" lon="1.25316">
        <ele>1089.85</ele>
        <time>2021-08-01T09:34:07Z</time>
      </trkpt>
      <trkpt lat="42.202" lon="1.25317">
        <ele>1090.35</ele>
        <time>2021-08-01T09:34:08Z</time>
      </trkpt>
      <trkpt lat="42.20204" lon="1.25318">
        <ele>1090.89</ele>
        <time>2021-08-01T09:34:09Z</time>
      </trkpt>
      <trkpt lat="42.20225" lon="1.25326">
        <ele>1094.36</ele>
        <time>2021-08-01T09:34:16Z</time>
      </trkpt>
      <trkpt lat="42.20258" lon="1.25337">
        <ele>1097.44</ele>
        <time>2021-08-01T09:34:23Z</time>
      </trkpt>
      <trkpt lat="42.20277" lon="1.25339">
        <ele>1098.91</ele>
        <time>2021-08-01T09:34:26Z</time>
      </trkpt>
      <trkpt lat="42.20318" lon="1.25325">
        <ele>1102.91</ele>
        <time>2021-08-01T09:34:33Z</time>
      </trkpt>
      <trkpt lat="42.20347" lon="1.25319">
        <ele>1106.24</ele>
        <time>2021-08-01T09:34:38Z</time>
      </trkpt>
      <trkpt lat="42.20377" lon="1.25319">
        <ele>1109.56</ele>
        <time>2021-08-01T09:34:44Z</time>
      </trkpt>
      <trkpt lat="42.20393" lon="1.25329">
        <ele>1111.86</ele>
        <time>2021-08-01T09:34:48Z</time>
      </trkpt>
      <trkpt lat="42.20414" lon="1.25334">
        <ele>1114.36</ele>
        <time>2021-08-01T09:34:53Z</time>
      </trkpt>
      <trkpt lat="42.20449" lon="1.25335">
        <ele>1118.51</ele>
        <time>2021-08-01T09:35:00Z</time>
      </trkpt>
      <trkpt lat="42.20475" lon="1.25341">
        <ele>1121.72</ele>
        <time>2021-08-01T09:35:06Z</time>
      </trkpt>
      <trkpt lat="42.20496" lon="1.25343">
        <ele>1124.25</ele>
        <time>2021-08-01T09:35:11Z</time>
      </trkpt>
      <trkpt lat="42.2053" lon="1.25359">
        <ele>1127.94</ele>
        <time>2021-08-01T09:35:18Z</time>
      </trkpt>
      <trkpt lat="42.20552" lon="1.25363">
        <ele>1130.97</ele>
        <time>2021-08-01T09:35:24Z</time>
      </trkpt>
      <trkpt lat="42.20572" lon="1.25361">
        <ele>1133.92</ele>
        <time>2021-08-01T09:35:33Z</time>
      </trkpt>
      <trkpt lat="42.20575" lon="1.25394">
        <ele>1135.55</ele>
        <time>2021-08-01T09:35:39Z</time>
      </trkpt>
      <trkpt lat="42.20556" lon="1.2547">
        <ele>1139.13</ele>
        <time>2021-08-01T09:35:48Z</time>
      </trkpt>
      <trkpt lat="42.20549" lon="1.2551">
        <ele>1142.6</ele>
        <time>2021-08-01T09:35:54Z</time>
      </trkpt>
      <trkpt lat="42.20543" lon="1.25546">
        <ele>1146.19</ele>
        <time>2021-08-01T09:36:00Z</time>
      </trkpt>
      <trkpt lat="42.20543" lon="1.25575">
        <ele>1149.27</ele>
        <time>2021-08-01T09:36:06Z</time>
      </trkpt>
      <trkpt lat="42.20546" lon="1.25629">
        <ele>1152.35</ele>
        <time>2021-08-01T09:36:13Z</time>
      </trkpt>
      <trkpt lat="42.20542" lon="1.25671">
        <ele>1155.64</ele>
        <time>2021-08-01T09:36:18Z</time>
      </trkpt>
      <trkpt lat="42.20536" lon="1.25712">
        <ele>1158.89</ele>
        <time>2021-08-01T09:36:23Z</time>
      </trkpt>
      <trkpt lat="42.20533" lon="1.25741">
        <ele>1161.98</ele>
        <time>2021-08-01T09:36:28Z</time>
      </trkpt>
      <trkpt lat="42.20532" lon="1.25753">
        <ele>1165.06</ele>
        <time>2021-08-01T09:36:34Z</time>
      </trkpt>
      <trkpt lat="42.20532" lon="1.25754">
        <ele>1165.83</ele>
        <time>2021-08-01T09:36:36Z</time>
      </trkpt>
      <trkpt lat="42.20549" lon="1.25758">
        <ele>1168.63</ele>
        <time>2021-08-01T09:36:45Z</time>
      </trkpt>
      <trkpt lat="42.20548" lon="1.25757">
        <ele>1170.59</ele>
        <time>2021-08-01T09:36:56Z</time>
      </trkpt>
      <trkpt lat="42.20549" lon="1.25755">
        <ele>1171.57</ele>
        <time>2021-08-01T09:37:39Z</time>
      </trkpt>
      <trkpt lat="42.20547" lon="1.25738">
        <ele>1172.56</ele>
        <time>2021-08-01T09:37:57Z</time>
      </trkpt>
      <trkpt lat="42.20551" lon="1.25708">
        <ele>1173.55</ele>
        <time>2021-08-01T09:38:15Z</time>
      </trkpt>
      <trkpt lat="42.20563" lon="1.2568">
        <ele>1175.81</ele>
        <time>2021-08-01T09:38:27Z</time>
      </trkpt>
      <trkpt lat="42.20574" lon="1.25645">
        <ele>1177.37</ele>
        <time>2021-08-01T09:38:55Z</time>
      </trkpt>
      <trkpt lat="42.20585" lon="1.256">
        <ele>1180.58</ele>
        <time>2021-08-01T09:39:03Z</time>
      </trkpt>
      <trkpt lat="42.20594" lon="1.25572">
        <ele>1183.83</ele>
        <time>2021-08-01T09:39:11Z</time>
      </trkpt>
      <trkpt lat="42.20597" lon="1.25548">
        <ele>1185.37</ele>
        <time>2021-08-01T09:39:16Z</time>
      </trkpt>
      <trkpt lat="42.20615" lon="1.25506">
        <ele>1188.87</ele>
        <time>2021-08-01T09:39:25Z</time>
      </trkpt>
      <trkpt lat="42.20631" lon="1.25471">
        <ele>1192.08</ele>
        <time>2021-08-01T09:39:33Z</time>
      </trkpt>
      <trkpt lat="42.20646" lon="1.25434">
        <ele>1195.34</ele>
        <time>2021-08-01T09:39:41Z</time>
      </trkpt>
      <trkpt lat="42.20652" lon="1.25396">
        <ele>1198.78</ele>
        <time>2021-08-01T09:39:49Z</time>
      </trkpt>
      <trkpt lat="42.20652" lon="1.25358">
        <ele>1202.67</ele>
        <time>2021-08-01T09:39:57Z</time>
      </trkpt>
      <trkpt lat="42.20654" lon="1.25316">
        <ele>1205.91</ele>
        <time>2021-08-01T09:40:05Z</time>
      </trkpt>
      <trkpt lat="42.20654" lon="1.25289">
        <ele>1208.95</ele>
        <time>2021-08-01T09:40:14Z</time>
      </trkpt>
      <trkpt lat="42.20654" lon="1.25274">
        <ele>1211.97</ele>
        <time>2021-08-01T09:40:54Z</time>
      </trkpt>
      <trkpt lat="42.2067" lon="1.25217">
        <ele>1214.1</ele>
        <time>2021-08-01T09:41:07Z</time>
      </trkpt>
      <trkpt lat="42.20675" lon="1.25194">
        <ele>1216.51</ele>
        <time>2021-08-01T09:41:19Z</time>
      </trkpt>
      <trkpt lat="42.20669" lon="1.2518">
        <ele>1217.23</ele>
        <time>2021-08-01T09:41:26Z</time>
      </trkpt>
      <trkpt lat="42.20656" lon="1.25169">
        <ele>1218.78</ele>
        <time>2021-08-01T09:41:36Z</time>
      </trkpt>
      <trkpt lat="42.20656" lon="1.25167">
        <ele>1219.96</ele>
        <time>2021-08-01T09:41:54Z</time>
      </trkpt>
      <trkpt lat="42.20654" lon="1.25168">
        <ele>1220.3</ele>
        <time>2021-08-01T09:42:24Z</time>
      </trkpt>
      <trkpt lat="42.2063" lon="1.2519">
        <ele>1221.1</ele>
        <time>2021-08-01T09:42:46Z</time>
      </trkpt>
      <trkpt lat="42.20598" lon="1.25215">
        <ele>1221.4</ele>
        <time>2021-08-01T09:42:53Z</time>
      </trkpt>
      <trkpt lat="42.20568" lon="1.25228">
        <ele>1221.97</ele>
        <time>2021-08-01T09:42:59Z</time>
      </trkpt>
      <trkpt lat="42.20557" lon="1.2521">
        <ele>1223.16</ele>
        <time>2021-08-01T09:43:05Z</time>
      </trkpt>
      <trkpt lat="42.20568" lon="1.25207">
        <ele>1223.53</ele>
        <time>2021-08-01T09:43:07Z</time>
      </trkpt>
      <trkpt lat="42.2059" lon="1.25194">
        <ele>1227.51</ele>
        <time>2021-08-01T09:43:17Z</time>
      </trkpt>
      <trkpt lat="42.20611" lon="1.25168">
        <ele>1229.5</ele>
        <time>2021-08-01T09:43:26Z</time>
      </trkpt>
      <trkpt lat="42.20632" lon="1.25138">
        <ele>1232.66</ele>
        <time>2021-08-01T09:43:36Z</time>
      </trkpt>
      <trkpt lat="42.20648" lon="1.2511">
        <ele>1235.9</ele>
        <time>2021-08-01T09:43:46Z</time>
      </trkpt>
      <trkpt lat="42.20654" lon="1.25105">
        <ele>1237.63</ele>
        <time>2021-08-01T09:43:52Z</time>
      </trkpt>
      <trkpt lat="42.20668" lon="1.25118">
        <ele>1239.03</ele>
        <time>2021-08-01T09:44:00Z</time>
      </trkpt>
      <trkpt lat="42.20698" lon="1.25141">
        <ele>1242.41</ele>
        <time>2021-08-01T09:44:13Z</time>
      </trkpt>
      <trkpt lat="42.20708" lon="1.25145">
        <ele>1243.49</ele>
        <time>2021-08-01T09:44:16Z</time>
      </trkpt>
      <trkpt lat="42.20719" lon="1.25127">
        <ele>1245.94</ele>
        <time>2021-08-01T09:44:22Z</time>
      </trkpt>
      <trkpt lat="42.20735" lon="1.2509">
        <ele>1249.57</ele>
        <time>2021-08-01T09:44:32Z</time>
      </trkpt>
      <trkpt lat="42.20738" lon="1.25054">
        <ele>1252.68</ele>
        <time>2021-08-01T09:44:40Z</time>
      </trkpt>
      <trkpt lat="42.2074" lon="1.25007">
        <ele>1255.96</ele>
        <time>2021-08-01T09:44:48Z</time>
      </trkpt>
      <trkpt lat="42.20743" lon="1.24973">
        <ele>1258.21</ele>
        <time>2021-08-01T09:44:53Z</time>
      </trkpt>
      <trkpt lat="42.20743" lon="1.2495">
        <ele>1261.25</ele>
        <time>2021-08-01T09:44:58Z</time>
      </trkpt>
      <trkpt lat="42.20741" lon="1.24921">
        <ele>1264.32</ele>
        <time>2021-08-01T09:45:06Z</time>
      </trkpt>
      <trkpt lat="42.20738" lon="1.24889">
        <ele>1267.49</ele>
        <time>2021-08-01T09:45:17Z</time>
      </trkpt>
      <trkpt lat="42.20736" lon="1.24843">
        <ele>1270.67</ele>
        <time>2021-08-01T09:45:28Z</time>
      </trkpt>
      <trkpt lat="42.20741" lon="1.24803">
        <ele>1273.86</ele>
        <time>2021-08-01T09:45:39Z</time>
      </trkpt>
      <trkpt lat="42.20762" lon="1.24787">
        <ele>1275.9</ele>
        <time>2021-08-01T09:45:48Z</time>
      </trkpt>
      <trkpt lat="42.20765" lon="1.2479">
        <ele>1276.06</ele>
        <time>2021-08-01T09:45:49Z</time>
      </trkpt>
      <trkpt lat="42.20776" lon="1.2485">
        <ele>1279.34</ele>
        <time>2021-08-01T09:46:02Z</time>
      </trkpt>
      <trkpt lat="42.20786" lon="1.24912">
        <ele>1282.49</ele>
        <time>2021-08-01T09:46:14Z</time>
      </trkpt>
      <trkpt lat="42.208" lon="1.24953">
        <ele>1285.63</ele>
        <time>2021-08-01T09:46:25Z</time>
      </trkpt>
      <trkpt lat="42.20817" lon="1.24996">
        <ele>1288.68</ele>
        <time>2021-08-01T09:46:35Z</time>
      </trkpt>
      <trkpt lat="42.20836" lon="1.25023">
        <ele>1290.99</ele>
        <time>2021-08-01T09:46:42Z</time>
      </trkpt>
      <trkpt lat="42.20871" lon="1.25055">
        <ele>1294.52</ele>
        <time>2021-08-01T09:46:51Z</time>
      </trkpt>
      <trkpt lat="42.20878" lon="1.25056">
        <ele>1295.2</ele>
        <time>2021-08-01T09:46:53Z</time>
      </trkpt>
      <trkpt lat="42.20884" lon="1.25027">
        <ele>1297.19</ele>
        <time>2021-08-01T09:46:59Z</time>
      </trkpt>
      <trkpt lat="42.20883" lon="1.24999">
        <ele>1298.5</ele>
        <time>2021-08-01T09:47:03Z</time>
      </trkpt>
      <trkpt lat="42.20857" lon="1.24979">
        <ele>1300.85</ele>
        <time>2021-08-01T09:47:10Z</time>
      </trkpt>
      <trkpt lat="42.2084" lon="1.24956">
        <ele>1302.91</ele>
        <time>2021-08-01T09:47:16Z</time>
      </trkpt>
      <trkpt lat="42.20838" lon="1.24889">
        <ele>1306.97</ele>
        <time>2021-08-01T09:47:28Z</time>
      </trkpt>
      <trkpt lat="42.20846" lon="1.2484">
        <ele>1310.29</ele>
        <time>2021-08-01T09:47:36Z</time>
      </trkpt>
      <trkpt lat="42.2085" lon="1.24805">
        <ele>1313.68</ele>
        <time>2021-08-01T09:47:43Z</time>
      </trkpt>
      <trkpt lat="42.20849" lon="1.24799">
        <ele>1316.55</ele>
        <time>2021-08-01T09:47:59Z</time>
      </trkpt>
      <trkpt lat="42.20846" lon="1.24766">
        <ele>1317.67</ele>
        <time>2021-08-01T09:48:07Z</time>
      </trkpt>
      <trkpt lat="42.20856" lon="1.24717">
        <ele>1320.88</ele>
        <time>2021-08-01T09:48:18Z</time>
      </trkpt>
      <trkpt lat="42.20863" lon="1.2467">
        <ele>1323.92</ele>
        <time>2021-08-01T09:48:28Z</time>
      </trkpt>
      <trkpt lat="42.20862" lon="1.24649">
        <ele>1324.89</ele>
        <time>2021-08-01T09:48:31Z</time>
      </trkpt>
      <trkpt lat="42.20854" lon="1.24626">
        <ele>1326.23</ele>
        <time>2021-08-01T09:48:34Z</time>
      </trkpt>
      <trkpt lat="42.20829" lon="1.24576">
        <ele>1329.69</ele>
        <time>2021-08-01T09:48:42Z</time>
      </trkpt>
      <trkpt lat="42.20802" lon="1.24491">
        <ele>1332.67</ele>
        <time>2021-08-01T09:48:55Z</time>
      </trkpt>
      <trkpt lat="42.20786" lon="1.24423">
        <ele>1335.95</ele>
        <time>2021-08-01T09:49:07Z</time>
      </trkpt>
      <trkpt lat="42.20785" lon="1.2437">
        <ele>1339.47</ele>
        <time>2021-08-01T09:49:13Z</time>
      </trkpt>
      <trkpt lat="42.20774" lon="1.24326">
        <ele>1342.76</ele>
        <time>2021-08-01T09:49:18Z</time>
      </trkpt>
      <trkpt lat="42.20772" lon="1.2431">
        <ele>1344.24</ele>
        <time>2021-08-01T09:49:20Z</time>
      </trkpt>
      <trkpt lat="42.20774" lon="1.24269">
        <ele>1348.35</ele>
        <time>2021-08-01T09:49:26Z</time>
      </trkpt>
      <trkpt lat="42.20775" lon="1.24262">
        <ele>1348.96</ele>
        <time>2021-08-01T09:49:27Z</time>
      </trkpt>
      <trkpt lat="42.20784" lon="1.24234">
        <ele>1351.34</ele>
        <time>2021-08-01T09:49:31Z</time>
      </trkpt>
      <trkpt lat="42.20782" lon="1.24194">
        <ele>1355.13</ele>
        <time>2021-08-01T09:49:38Z</time>
      </trkpt>
      <trkpt lat="42.20765" lon="1.24141">
        <ele>1358.95</ele>
        <time>2021-08-01T09:49:45Z</time>
      </trkpt>
      <trkpt lat="42.20755" lon="1.24104">
        <ele>1362.03</ele>
        <time>2021-08-01T09:49:50Z</time>
      </trkpt>
      <trkpt lat="42.20752" lon="1.24072">
        <ele>1365.11</ele>
        <time>2021-08-01T09:49:54Z</time>
      </trkpt>
      <trkpt lat="42.2074" lon="1.24018">
        <ele>1369.31</ele>
        <time>2021-08-01T09:50:01Z</time>
      </trkpt>
      <trkpt lat="42.20741" lon="1.23962">
        <ele>1373.3</ele>
        <time>2021-08-01T09:50:07Z</time>
      </trkpt>
      <trkpt lat="42.20738" lon="1.23924">
        <ele>1376.32</ele>
        <time>2021-08-01T09:50:12Z</time>
      </trkpt>
      <trkpt lat="42.20727" lon="1.23881">
        <ele>1379.82</ele>
        <time>2021-08-01T09:50:18Z</time>
      </trkpt>
      <trkpt lat="42.20712" lon="1.2384">
        <ele>1383.06</ele>
        <time>2021-08-01T09:50:23Z</time>
      </trkpt>
      <trkpt lat="42.20697" lon="1.23802">
        <ele>1386.41</ele>
        <time>2021-08-01T09:50:28Z</time>
      </trkpt>
      <trkpt lat="42.20688" lon="1.23773">
        <ele>1389.48</ele>
        <time>2021-08-01T09:50:33Z</time>
      </trkpt>
      <trkpt lat="42.20671" lon="1.23731">
        <ele>1392.81</ele>
        <time>2021-08-01T09:50:38Z</time>
      </trkpt>
      <trkpt lat="42.2066" lon="1.23698">
        <ele>1396.03</ele>
        <time>2021-08-01T09:50:42Z</time>
      </trkpt>
      <trkpt lat="42.20658" lon="1.23679">
        <ele>1397.53</ele>
        <time>2021-08-01T09:50:44Z</time>
      </trkpt>
      <trkpt lat="42.20639" lon="1.23639">
        <ele>1400.77</ele>
        <time>2021-08-01T09:50:49Z</time>
      </trkpt>
      <trkpt lat="42.20633" lon="1.23626">
        <ele>1402.35</ele>
        <time>2021-08-01T09:50:51Z</time>
      </trkpt>
      <trkpt lat="42.2063" lon="1.23604">
        <ele>1405.12</ele>
        <time>2021-08-01T09:50:55Z</time>
      </trkpt>
      <trkpt lat="42.20627" lon="1.23601">
        <ele>1408.82</ele>
        <time>2021-08-01T09:51:05Z</time>
      </trkpt>
      <trkpt lat="42.20627" lon="1.23601">
        <ele>1410.57</ele>
        <time>2021-08-01T09:51:39Z</time>
      </trkpt>
      <trkpt lat="42.20637" lon="1.23577">
        <ele>1409.58</ele>
        <time>2021-08-01T10:12:57Z</time>
      </trkpt>
      <trkpt lat="42.20637" lon="1.23577">
        <ele>1409.58</ele>
        <time>2021-08-01T10:12:58Z</time>
      </trkpt>
      <trkpt lat="42.20645" lon="1.2358">
        <ele>1409.58</ele>
        <time>2021-08-01T10:13:29Z</time>
      </trkpt>
      <trkpt lat="42.20635" lon="1.23589">
        <ele>1411.59</ele>
        <time>2021-08-01T10:46:03Z</time>
      </trkpt>
      <trkpt lat="42.20632" lon="1.23588">
        <ele>1409.94</ele>
        <time>2021-08-01T10:46:09Z</time>
      </trkpt>
      <trkpt lat="42.20631" lon="1.23587">
        <ele>1409.79</ele>
        <time>2021-08-01T10:46:10Z</time>
      </trkpt>
      <trkpt lat="42.20624" lon="1.23553">
        <ele>1411.13</ele>
        <time>2021-08-01T10:46:19Z</time>
      </trkpt>
      <trkpt lat="42.20617" lon="1.23499">
        <ele>1414.41</ele>
        <time>2021-08-01T10:46:29Z</time>
      </trkpt>
      <trkpt lat="42.20616" lon="1.23492">
        <ele>1414.85</ele>
        <time>2021-08-01T10:46:30Z</time>
      </trkpt>
      <trkpt lat="42.20612" lon="1.23451">
        <ele>1418.52</ele>
        <time>2021-08-01T10:46:38Z</time>
      </trkpt>
      <trkpt lat="42.20613" lon="1.23405">
        <ele>1421.77</ele>
        <time>2021-08-01T10:46:45Z</time>
      </trkpt>
      <trkpt lat="42.20611" lon="1.23358">
        <ele>1424.89</ele>
        <time>2021-08-01T10:46:51Z</time>
      </trkpt>
      <trkpt lat="42.20609" lon="1.23326">
        <ele>1427.93</ele>
        <time>2021-08-01T10:46:56Z</time>
      </trkpt>
      <trkpt lat="42.20614" lon="1.23293">
        <ele>1431.36</ele>
        <time>2021-08-01T10:47:02Z</time>
      </trkpt>
      <trkpt lat="42.20616" lon="1.23287">
        <ele>1431.92</ele>
        <time>2021-08-01T10:47:03Z</time>
      </trkpt>
      <trkpt lat="42.20627" lon="1.23261">
        <ele>1434.09</ele>
        <time>2021-08-01T10:47:07Z</time>
      </trkpt>
      <trkpt lat="42.20642" lon="1.23217">
        <ele>1438.05</ele>
        <time>2021-08-01T10:47:14Z</time>
      </trkpt>
      <trkpt lat="42.20655" lon="1.23179">
        <ele>1441.35</ele>
        <time>2021-08-01T10:47:20Z</time>
      </trkpt>
      <trkpt lat="42.20659" lon="1.23153">
        <ele>1444.52</ele>
        <time>2021-08-01T10:47:26Z</time>
      </trkpt>
      <trkpt lat="42.20659" lon="1.23135">
        <ele>1445.8</ele>
        <time>2021-08-01T10:47:29Z</time>
      </trkpt>
      <trkpt lat="42.20642" lon="1.23041">
        <ele>1449.37</ele>
        <time>2021-08-01T10:47:41Z</time>
      </trkpt>
      <trkpt lat="42.20625" lon="1.22968">
        <ele>1452.81</ele>
        <time>2021-08-01T10:47:50Z</time>
      </trkpt>
      <trkpt lat="42.20623" lon="1.22961">
        <ele>1453.27</ele>
        <time>2021-08-01T10:47:51Z</time>
      </trkpt>
      <trkpt lat="42.20613" lon="1.22891">
        <ele>1457.04</ele>
        <time>2021-08-01T10:48:00Z</time>
      </trkpt>
      <trkpt lat="42.20607" lon="1.22844">
        <ele>1460.2</ele>
        <time>2021-08-01T10:48:06Z</time>
      </trkpt>
      <trkpt lat="42.20598" lon="1.22795">
        <ele>1462.81</ele>
        <time>2021-08-01T10:48:11Z</time>
      </trkpt>
      <trkpt lat="42.20588" lon="1.22729">
        <ele>1466.8</ele>
        <time>2021-08-01T10:48:18Z</time>
      </trkpt>
      <trkpt lat="42.2058" lon="1.22681">
        <ele>1469.87</ele>
        <time>2021-08-01T10:48:24Z</time>
      </trkpt>
      <trkpt lat="42.20577" lon="1.22631">
        <ele>1473.12</ele>
        <time>2021-08-01T10:48:30Z</time>
      </trkpt>
      <trkpt lat="42.20569" lon="1.22582">
        <ele>1476.37</ele>
        <time>2021-08-01T10:48:36Z</time>
      </trkpt>
      <trkpt lat="42.20563" lon="1.2254">
        <ele>1479.42</ele>
        <time>2021-08-01T10:48:41Z</time>
      </trkpt>
      <trkpt lat="42.20556" lon="1.22487">
        <ele>1482.51</ele>
        <time>2021-08-01T10:48:46Z</time>
      </trkpt>
      <trkpt lat="42.20552" lon="1.22456">
        <ele>1484.45</ele>
        <time>2021-08-01T10:48:49Z</time>
      </trkpt>
      <trkpt lat="42.20549" lon="1.22403">
        <ele>1488.8</ele>
        <time>2021-08-01T10:48:55Z</time>
      </trkpt>
      <trkpt lat="42.2055" lon="1.22394">
        <ele>1489.43</ele>
        <time>2021-08-01T10:48:56Z</time>
      </trkpt>
      <trkpt lat="42.20555" lon="1.22359">
        <ele>1493.1</ele>
        <time>2021-08-01T10:49:02Z</time>
      </trkpt>
      <trkpt lat="42.20546" lon="1.22333">
        <ele>1496.26</ele>
        <time>2021-08-01T10:49:08Z</time>
      </trkpt>
      <trkpt lat="42.20542" lon="1.22332">
        <ele>1496.85</ele>
        <time>2021-08-01T10:49:09Z</time>
      </trkpt>
      <trkpt lat="42.20529" lon="1.22325">
        <ele>1498.62</ele>
        <time>2021-08-01T10:49:12Z</time>
      </trkpt>
      <trkpt lat="42.20507" lon="1.22299">
        <ele>1502.22</ele>
        <time>2021-08-01T10:49:19Z</time>
      </trkpt>
      <trkpt lat="42.20504" lon="1.22284">
        <ele>1503.22</ele>
        <time>2021-08-01T10:49:21Z</time>
      </trkpt>
      <trkpt lat="42.20502" lon="1.22259">
        <ele>1504.68</ele>
        <time>2021-08-01T10:49:24Z</time>
      </trkpt>
      <trkpt lat="42.20502" lon="1.22251">
        <ele>1505.19</ele>
        <time>2021-08-01T10:49:25Z</time>
      </trkpt>
      <trkpt lat="42.20504" lon="1.22244">
        <ele>1505.6</ele>
        <time>2021-08-01T10:49:26Z</time>
      </trkpt>
      <trkpt lat="42.20505" lon="1.22237">
        <ele>1506.07</ele>
        <time>2021-08-01T10:49:27Z</time>
      </trkpt>
      <trkpt lat="42.20506" lon="1.22231">
        <ele>1506.64</ele>
        <time>2021-08-01T10:49:28Z</time>
      </trkpt>
      <trkpt lat="42.20517" lon="1.22199">
        <ele>1509.24</ele>
        <time>2021-08-01T10:49:33Z</time>
      </trkpt>
      <trkpt lat="42.20519" lon="1.22193">
        <ele>1509.66</ele>
        <time>2021-08-01T10:49:34Z</time>
      </trkpt>
      <trkpt lat="42.20519" lon="1.22186">
        <ele>1510.14</ele>
        <time>2021-08-01T10:49:35Z</time>
      </trkpt>
      <trkpt lat="42.20518" lon="1.2214">
        <ele>1513.47</ele>
        <time>2021-08-01T10:49:41Z</time>
      </trkpt>
      <trkpt lat="42.20516" lon="1.22106">
        <ele>1516.6</ele>
        <time>2021-08-01T10:49:47Z</time>
      </trkpt>
      <trkpt lat="42.20512" lon="1.22072">
        <ele>1519.73</ele>
        <time>2021-08-01T10:49:54Z</time>
      </trkpt>
      <trkpt lat="42.20509" lon="1.22024">
        <ele>1523.03</ele>
        <time>2021-08-01T10:50:01Z</time>
      </trkpt>
      <trkpt lat="42.20495" lon="1.21993">
        <ele>1526.37</ele>
        <time>2021-08-01T10:50:08Z</time>
      </trkpt>
      <trkpt lat="42.20474" lon="1.21979">
        <ele>1529.5</ele>
        <time>2021-08-01T10:50:15Z</time>
      </trkpt>
      <trkpt lat="42.20467" lon="1.21971">
        <ele>1530.61</ele>
        <time>2021-08-01T10:50:18Z</time>
      </trkpt>
      <trkpt lat="42.20459" lon="1.21924">
        <ele>1534.23</ele>
        <time>2021-08-01T10:50:28Z</time>
      </trkpt>
      <trkpt lat="42.20451" lon="1.21873">
        <ele>1537.65</ele>
        <time>2021-08-01T10:50:35Z</time>
      </trkpt>
      <trkpt lat="42.20448" lon="1.21861">
        <ele>1538.56</ele>
        <time>2021-08-01T10:50:37Z</time>
      </trkpt>
      <trkpt lat="42.20446" lon="1.21819">
        <ele>1542.22</ele>
        <time>2021-08-01T10:50:45Z</time>
      </trkpt>
      <trkpt lat="42.20439" lon="1.21795">
        <ele>1544.67</ele>
        <time>2021-08-01T10:50:51Z</time>
      </trkpt>
      <trkpt lat="42.20425" lon="1.21813">
        <ele>1546.67</ele>
        <time>2021-08-01T10:50:55Z</time>
      </trkpt>
      <trkpt lat="42.20402" lon="1.21876">
        <ele>1550.24</ele>
        <time>2021-08-01T10:51:03Z</time>
      </trkpt>
      <trkpt lat="42.20385" lon="1.21925">
        <ele>1553.49</ele>
        <time>2021-08-01T10:51:09Z</time>
      </trkpt>
      <trkpt lat="42.20368" lon="1.21969">
        <ele>1556.9</ele>
        <time>2021-08-01T10:51:16Z</time>
      </trkpt>
      <trkpt lat="42.20347" lon="1.22012">
        <ele>1559.52</ele>
        <time>2021-08-01T10:51:22Z</time>
      </trkpt>
      <trkpt lat="42.2034" lon="1.22024">
        <ele>1562.47</ele>
        <time>2021-08-01T10:51:30Z</time>
      </trkpt>
      <trkpt lat="42.20342" lon="1.22019">
        <ele>1562.77</ele>
        <time>2021-08-01T10:51:31Z</time>
      </trkpt>
      <trkpt lat="42.20348" lon="1.22005">
        <ele>1563.62</ele>
        <time>2021-08-01T10:51:33Z</time>
      </trkpt>
      <trkpt lat="42.20358" lon="1.21922">
        <ele>1567.2</ele>
        <time>2021-08-01T10:51:41Z</time>
      </trkpt>
      <trkpt lat="42.20358" lon="1.2187">
        <ele>1570.38</ele>
        <time>2021-08-01T10:51:47Z</time>
      </trkpt>
      <trkpt lat="42.20353" lon="1.21812">
        <ele>1573.71</ele>
        <time>2021-08-01T10:51:53Z</time>
      </trkpt>
      <trkpt lat="42.20343" lon="1.21755">
        <ele>1577.23</ele>
        <time>2021-08-01T10:51:59Z</time>
      </trkpt>
      <trkpt lat="42.20341" lon="1.21713">
        <ele>1579.63</ele>
        <time>2021-08-01T10:52:03Z</time>
      </trkpt>
      <trkpt lat="42.20353" lon="1.21651">
        <ele>1583.31</ele>
        <time>2021-08-01T10:52:09Z</time>
      </trkpt>
      <trkpt lat="42.20357" lon="1.21604">
        <ele>1586.82</ele>
        <time>2021-08-01T10:52:14Z</time>
      </trkpt>
      <trkpt lat="42.20355" lon="1.21577">
        <ele>1588.75</ele>
        <time>2021-08-01T10:52:17Z</time>
      </trkpt>
      <trkpt lat="42.20347" lon="1.2152">
        <ele>1592.89</ele>
        <time>2021-08-01T10:52:23Z</time>
      </trkpt>
      <trkpt lat="42.20343" lon="1.21493">
        <ele>1594.99</ele>
        <time>2021-08-01T10:52:26Z</time>
      </trkpt>
      <trkpt lat="42.20351" lon="1.21452">
        <ele>1598.14</ele>
        <time>2021-08-01T10:52:31Z</time>
      </trkpt>
      <trkpt lat="42.20358" lon="1.21416">
        <ele>1602</ele>
        <time>2021-08-01T10:52:38Z</time>
      </trkpt>
      <trkpt lat="42.20359" lon="1.21403">
        <ele>1602.88</ele>
        <time>2021-08-01T10:52:40Z</time>
      </trkpt>
      <trkpt lat="42.20353" lon="1.21337">
        <ele>1606.64</ele>
        <time>2021-08-01T10:52:48Z</time>
      </trkpt>
      <trkpt lat="42.20352" lon="1.21316">
        <ele>1608.05</ele>
        <time>2021-08-01T10:52:51Z</time>
      </trkpt>
      <trkpt lat="42.20347" lon="1.2129">
        <ele>1609.86</ele>
        <time>2021-08-01T10:52:55Z</time>
      </trkpt>
      <trkpt lat="42.20332" lon="1.21262">
        <ele>1612.13</ele>
        <time>2021-08-01T10:53:00Z</time>
      </trkpt>
      <trkpt lat="42.20331" lon="1.21223">
        <ele>1615.34</ele>
        <time>2021-08-01T10:53:06Z</time>
      </trkpt>
      <trkpt lat="42.20333" lon="1.21212">
        <ele>1616.31</ele>
        <time>2021-08-01T10:53:08Z</time>
      </trkpt>
      <trkpt lat="42.20297" lon="1.21173">
        <ele>1618.59</ele>
        <time>2021-08-01T10:53:15Z</time>
      </trkpt>
      <trkpt lat="42.20276" lon="1.21165">
        <ele>1618.91</ele>
        <time>2021-08-01T10:53:18Z</time>
      </trkpt>
      <trkpt lat="42.20235" lon="1.21164">
        <ele>1617.85</ele>
        <time>2021-08-01T10:53:24Z</time>
      </trkpt>
      <trkpt lat="42.20206" lon="1.21153">
        <ele>1615.64</ele>
        <time>2021-08-01T10:53:29Z</time>
      </trkpt>
      <trkpt lat="42.20201" lon="1.21095">
        <ele>1612.54</ele>
        <time>2021-08-01T10:53:36Z</time>
      </trkpt>
      <trkpt lat="42.20214" lon="1.21022">
        <ele>1608.89</ele>
        <time>2021-08-01T10:53:43Z</time>
      </trkpt>
      <trkpt lat="42.20223" lon="1.20957">
        <ele>1605.49</ele>
        <time>2021-08-01T10:53:49Z</time>
      </trkpt>
      <trkpt lat="42.20226" lon="1.20904">
        <ele>1602.47</ele>
        <time>2021-08-01T10:53:54Z</time>
      </trkpt>
      <trkpt lat="42.20229" lon="1.2086">
        <ele>1599.96</ele>
        <time>2021-08-01T10:53:58Z</time>
      </trkpt>
      <trkpt lat="42.20224" lon="1.20797">
        <ele>1596.31</ele>
        <time>2021-08-01T10:54:04Z</time>
      </trkpt>
      <trkpt lat="42.20222" lon="1.20787">
        <ele>1595.5</ele>
        <time>2021-08-01T10:54:05Z</time>
      </trkpt>
      <trkpt lat="42.20204" lon="1.20744">
        <ele>1590.94</ele>
        <time>2021-08-01T10:54:11Z</time>
      </trkpt>
      <trkpt lat="42.20189" lon="1.20718">
        <ele>1587.46</ele>
        <time>2021-08-01T10:54:15Z</time>
      </trkpt>
      <trkpt lat="42.20173" lon="1.20681">
        <ele>1584.36</ele>
        <time>2021-08-01T10:54:20Z</time>
      </trkpt>
      <trkpt lat="42.20168" lon="1.20663">
        <ele>1583.23</ele>
        <time>2021-08-01T10:54:22Z</time>
      </trkpt>
      <trkpt lat="42.20164" lon="1.20624">
        <ele>1581.33</ele>
        <time>2021-08-01T10:54:26Z</time>
      </trkpt>
      <trkpt lat="42.20168" lon="1.20565">
        <ele>1577.38</ele>
        <time>2021-08-01T10:54:33Z</time>
      </trkpt>
      <trkpt lat="42.20174" lon="1.20517">
        <ele>1573.82</ele>
        <time>2021-08-01T10:54:39Z</time>
      </trkpt>
      <trkpt lat="42.20175" lon="1.20456">
        <ele>1570.12</ele>
        <time>2021-08-01T10:54:46Z</time>
      </trkpt>
      <trkpt lat="42.20186" lon="1.20407">
        <ele>1566.22</ele>
        <time>2021-08-01T10:54:53Z</time>
      </trkpt>
      <trkpt lat="42.20187" lon="1.20384">
        <ele>1564.03</ele>
        <time>2021-08-01T10:54:57Z</time>
      </trkpt>
      <trkpt lat="42.20191" lon="1.20314">
        <ele>1559.93</ele>
        <time>2021-08-01T10:55:05Z</time>
      </trkpt>
      <trkpt lat="42.20195" lon="1.20294">
        <ele>1556.51</ele>
        <time>2021-08-01T10:55:11Z</time>
      </trkpt>
      <trkpt lat="42.20209" lon="1.20297">
        <ele>1553.1</ele>
        <time>2021-08-01T10:55:21Z</time>
      </trkpt>
      <trkpt lat="42.20209" lon="1.203">
        <ele>1552.86</ele>
        <time>2021-08-01T10:55:22Z</time>
      </trkpt>
      <trkpt lat="42.20212" lon="1.2033">
        <ele>1549.47</ele>
        <time>2021-08-01T10:55:35Z</time>
      </trkpt>
      <trkpt lat="42.20211" lon="1.20341">
        <ele>1547.2</ele>
        <time>2021-08-01T10:56:08Z</time>
      </trkpt>
      <trkpt lat="42.20221" lon="1.20403">
        <ele>1545.09</ele>
        <time>2021-08-01T10:56:19Z</time>
      </trkpt>
      <trkpt lat="42.20222" lon="1.2041">
        <ele>1544.76</ele>
        <time>2021-08-01T10:56:20Z</time>
      </trkpt>
      <trkpt lat="42.20253" lon="1.2046">
        <ele>1542.35</ele>
        <time>2021-08-01T10:56:27Z</time>
      </trkpt>
      <trkpt lat="42.20253" lon="1.20502">
        <ele>1540.18</ele>
        <time>2021-08-01T10:56:32Z</time>
      </trkpt>
      <trkpt lat="42.20257" lon="1.20554">
        <ele>1536.22</ele>
        <time>2021-08-01T10:56:40Z</time>
      </trkpt>
      <trkpt lat="42.20266" lon="1.20565">
        <ele>1534.47</ele>
        <time>2021-08-01T10:56:43Z</time>
      </trkpt>
      <trkpt lat="42.20313" lon="1.20579">
        <ele>1530.73</ele>
        <time>2021-08-01T10:56:52Z</time>
      </trkpt>
      <trkpt lat="42.20317" lon="1.20577">
        <ele>1530.41</ele>
        <time>2021-08-01T10:56:53Z</time>
      </trkpt>
      <trkpt lat="42.20321" lon="1.20553">
        <ele>1528.39</ele>
        <time>2021-08-01T10:56:58Z</time>
      </trkpt>
      <trkpt lat="42.20341" lon="1.20504">
        <ele>1524.87</ele>
        <time>2021-08-01T10:57:07Z</time>
      </trkpt>
      <trkpt lat="42.20353" lon="1.20475">
        <ele>1523.21</ele>
        <time>2021-08-01T10:57:12Z</time>
      </trkpt>
      <trkpt lat="42.20366" lon="1.2043">
        <ele>1519.65</ele>
        <time>2021-08-01T10:57:19Z</time>
      </trkpt>
      <trkpt lat="42.20367" lon="1.20419">
        <ele>1518.83</ele>
        <time>2021-08-01T10:57:21Z</time>
      </trkpt>
      <trkpt lat="42.20376" lon="1.20367">
        <ele>1515.8</ele>
        <time>2021-08-01T10:57:28Z</time>
      </trkpt>
      <trkpt lat="42.20381" lon="1.20323">
        <ele>1512.6</ele>
        <time>2021-08-01T10:57:34Z</time>
      </trkpt>
      <trkpt lat="42.20381" lon="1.2031">
        <ele>1511.54</ele>
        <time>2021-08-01T10:57:36Z</time>
      </trkpt>
      <trkpt lat="42.2039" lon="1.20315">
        <ele>1508.49</ele>
        <time>2021-08-01T10:57:43Z</time>
      </trkpt>
      <trkpt lat="42.20392" lon="1.20364">
        <ele>1505.55</ele>
        <time>2021-08-01T10:57:50Z</time>
      </trkpt>
      <trkpt lat="42.20397" lon="1.20387">
        <ele>1504.09</ele>
        <time>2021-08-01T10:57:53Z</time>
      </trkpt>
      <trkpt lat="42.20397" lon="1.20408">
        <ele>1502.77</ele>
        <time>2021-08-01T10:57:56Z</time>
      </trkpt>
      <trkpt lat="42.20403" lon="1.20433">
        <ele>1500.87</ele>
        <time>2021-08-01T10:58:00Z</time>
      </trkpt>
      <trkpt lat="42.2043" lon="1.20475">
        <ele>1496.9</ele>
        <time>2021-08-01T10:58:08Z</time>
      </trkpt>
      <trkpt lat="42.20462" lon="1.20497">
        <ele>1493.42</ele>
        <time>2021-08-01T10:58:16Z</time>
      </trkpt>
      <trkpt lat="42.20472" lon="1.20499">
        <ele>1492.11</ele>
        <time>2021-08-01T10:58:19Z</time>
      </trkpt>
      <trkpt lat="42.20514" lon="1.20473">
        <ele>1489.53</ele>
        <time>2021-08-01T10:58:28Z</time>
      </trkpt>
      <trkpt lat="42.20515" lon="1.20468">
        <ele>1489.25</ele>
        <time>2021-08-01T10:58:29Z</time>
      </trkpt>
      <trkpt lat="42.20527" lon="1.20421">
        <ele>1487.13</ele>
        <time>2021-08-01T10:58:36Z</time>
      </trkpt>
      <trkpt lat="42.20518" lon="1.20353">
        <ele>1483.83</ele>
        <time>2021-08-01T10:58:46Z</time>
      </trkpt>
      <trkpt lat="42.20516" lon="1.20319">
        <ele>1482.41</ele>
        <time>2021-08-01T10:58:50Z</time>
      </trkpt>
      <trkpt lat="42.20524" lon="1.20286">
        <ele>1480.76</ele>
        <time>2021-08-01T10:58:54Z</time>
      </trkpt>
      <trkpt lat="42.20533" lon="1.20245">
        <ele>1478.21</ele>
        <time>2021-08-01T10:59:00Z</time>
      </trkpt>
      <trkpt lat="42.20533" lon="1.20231">
        <ele>1477.12</ele>
        <time>2021-08-01T10:59:02Z</time>
      </trkpt>
      <trkpt lat="42.20524" lon="1.20181">
        <ele>1473.18</ele>
        <time>2021-08-01T10:59:09Z</time>
      </trkpt>
      <trkpt lat="42.20517" lon="1.20147">
        <ele>1471.17</ele>
        <time>2021-08-01T10:59:13Z</time>
      </trkpt>
      <trkpt lat="42.20517" lon="1.20112">
        <ele>1469.13</ele>
        <time>2021-08-01T10:59:17Z</time>
      </trkpt>
      <trkpt lat="42.20521" lon="1.20079">
        <ele>1466.93</ele>
        <time>2021-08-01T10:59:21Z</time>
      </trkpt>
      <trkpt lat="42.20525" lon="1.20067">
        <ele>1465.81</ele>
        <time>2021-08-01T10:59:23Z</time>
      </trkpt>
      <trkpt lat="42.20546" lon="1.20056">
        <ele>1462.3</ele>
        <time>2021-08-01T10:59:29Z</time>
      </trkpt>
      <trkpt lat="42.20568" lon="1.20057">
        <ele>1459.53</ele>
        <time>2021-08-01T10:59:35Z</time>
      </trkpt>
      <trkpt lat="42.20608" lon="1.20049">
        <ele>1455.46</ele>
        <time>2021-08-01T10:59:45Z</time>
      </trkpt>
      <trkpt lat="42.20617" lon="1.20047">
        <ele>1454.72</ele>
        <time>2021-08-01T10:59:47Z</time>
      </trkpt>
      <trkpt lat="42.20637" lon="1.20044">
        <ele>1453.28</ele>
        <time>2021-08-01T10:59:51Z</time>
      </trkpt>
      <trkpt lat="42.20656" lon="1.20046">
        <ele>1451.96</ele>
        <time>2021-08-01T10:59:55Z</time>
      </trkpt>
      <trkpt lat="42.20677" lon="1.20034">
        <ele>1450.57</ele>
        <time>2021-08-01T10:59:59Z</time>
      </trkpt>
      <trkpt lat="42.20708" lon="1.20004">
        <ele>1447.76</ele>
        <time>2021-08-01T11:00:06Z</time>
      </trkpt>
      <trkpt lat="42.2074" lon="1.19991">
        <ele>1444.31</ele>
        <time>2021-08-01T11:00:15Z</time>
      </trkpt>
      <trkpt lat="42.20742" lon="1.19988">
        <ele>1443.92</ele>
        <time>2021-08-01T11:00:16Z</time>
      </trkpt>
      <trkpt lat="42.20742" lon="1.19968">
        <ele>1442.32</ele>
        <time>2021-08-01T11:00:20Z</time>
      </trkpt>
      <trkpt lat="42.20748" lon="1.19871">
        <ele>1438.93</ele>
        <time>2021-08-01T11:00:32Z</time>
      </trkpt>
      <trkpt lat="42.20748" lon="1.19863">
        <ele>1438.55</ele>
        <time>2021-08-01T11:00:33Z</time>
      </trkpt>
      <trkpt lat="42.2075" lon="1.1983">
        <ele>1437.21</ele>
        <time>2021-08-01T11:00:37Z</time>
      </trkpt>
      <trkpt lat="42.20778" lon="1.19776">
        <ele>1434.68</ele>
        <time>2021-08-01T11:00:45Z</time>
      </trkpt>
      <trkpt lat="42.20793" lon="1.19736">
        <ele>1433</ele>
        <time>2021-08-01T11:00:50Z</time>
      </trkpt>
      <trkpt lat="42.20795" lon="1.19719">
        <ele>1432.41</ele>
        <time>2021-08-01T11:00:52Z</time>
      </trkpt>
      <trkpt lat="42.20813" lon="1.19655">
        <ele>1429.63</ele>
        <time>2021-08-01T11:01:02Z</time>
      </trkpt>
      <trkpt lat="42.20824" lon="1.19617">
        <ele>1428.09</ele>
        <time>2021-08-01T11:01:10Z</time>
      </trkpt>
      <trkpt lat="42.20827" lon="1.19609">
        <ele>1427.98</ele>
        <time>2021-08-01T11:01:11Z</time>
      </trkpt>
      <trkpt lat="42.20831" lon="1.19577">
        <ele>1427.79</ele>
        <time>2021-08-01T11:01:15Z</time>
      </trkpt>
      <trkpt lat="42.20843" lon="1.19522">
        <ele>1427.82</ele>
        <time>2021-08-01T11:01:22Z</time>
      </trkpt>
      <trkpt lat="42.20843" lon="1.19442">
        <ele>1427.12</ele>
        <time>2021-08-01T11:01:30Z</time>
      </trkpt>
      <trkpt lat="42.20846" lon="1.19394">
        <ele>1424.67</ele>
        <time>2021-08-01T11:01:38Z</time>
      </trkpt>
      <trkpt lat="42.20822" lon="1.19345">
        <ele>1423.48</ele>
        <time>2021-08-01T11:01:45Z</time>
      </trkpt>
      <trkpt lat="42.20822" lon="1.19299">
        <ele>1423.57</ele>
        <time>2021-08-01T11:01:51Z</time>
      </trkpt>
      <trkpt lat="42.20829" lon="1.19249">
        <ele>1423.33</ele>
        <time>2021-08-01T11:02:01Z</time>
      </trkpt>
      <trkpt lat="42.20826" lon="1.19212">
        <ele>1423</ele>
        <time>2021-08-01T11:02:04Z</time>
      </trkpt>
      <trkpt lat="42.20813" lon="1.19159">
        <ele>1422.58</ele>
        <time>2021-08-01T11:02:09Z</time>
      </trkpt>
      <trkpt lat="42.20829" lon="1.19083">
        <ele>1423.86</ele>
        <time>2021-08-01T11:02:18Z</time>
      </trkpt>
      <trkpt lat="42.20831" lon="1.19076">
        <ele>1424.19</ele>
        <time>2021-08-01T11:02:19Z</time>
      </trkpt>
      <trkpt lat="42.20835" lon="1.18985">
        <ele>1426.82</ele>
        <time>2021-08-01T11:02:32Z</time>
      </trkpt>
      <trkpt lat="42.20836" lon="1.18978">
        <ele>1426.95</ele>
        <time>2021-08-01T11:02:33Z</time>
      </trkpt>
      <trkpt lat="42.20851" lon="1.1889">
        <ele>1428.51</ele>
        <time>2021-08-01T11:02:44Z</time>
      </trkpt>
      <trkpt lat="42.20853" lon="1.1885">
        <ele>1429.15</ele>
        <time>2021-08-01T11:02:48Z</time>
      </trkpt>
      <trkpt lat="42.20865" lon="1.18825">
        <ele>1429.41</ele>
        <time>2021-08-01T11:02:53Z</time>
      </trkpt>
      <trkpt lat="42.2088" lon="1.18777">
        <ele>1428.4</ele>
        <time>2021-08-01T11:03:04Z</time>
      </trkpt>
      <trkpt lat="42.20874" lon="1.18756">
        <ele>1428.51</ele>
        <time>2021-08-01T11:03:07Z</time>
      </trkpt>
      <trkpt lat="42.20861" lon="1.18737">
        <ele>1428.69</ele>
        <time>2021-08-01T11:03:10Z</time>
      </trkpt>
      <trkpt lat="42.2083" lon="1.18665">
        <ele>1429.48</ele>
        <time>2021-08-01T11:03:18Z</time>
      </trkpt>
      <trkpt lat="42.20816" lon="1.18581">
        <ele>1428.59</ele>
        <time>2021-08-01T11:03:26Z</time>
      </trkpt>
      <trkpt lat="42.208" lon="1.18543">
        <ele>1427.57</ele>
        <time>2021-08-01T11:03:31Z</time>
      </trkpt>
      <trkpt lat="42.20792" lon="1.18508">
        <ele>1425.86</ele>
        <time>2021-08-01T11:03:35Z</time>
      </trkpt>
      <trkpt lat="42.20774" lon="1.18496">
        <ele>1422.77</ele>
        <time>2021-08-01T11:03:40Z</time>
      </trkpt>
      <trkpt lat="42.20742" lon="1.18476">
        <ele>1420.51</ele>
        <time>2021-08-01T11:03:47Z</time>
      </trkpt>
      <trkpt lat="42.20741" lon="1.18467">
        <ele>1420.36</ele>
        <time>2021-08-01T11:03:48Z</time>
      </trkpt>
      <trkpt lat="42.20742" lon="1.18441">
        <ele>1420.07</ele>
        <time>2021-08-01T11:03:51Z</time>
      </trkpt>
      <trkpt lat="42.2073" lon="1.18395">
        <ele>1420.34</ele>
        <time>2021-08-01T11:03:58Z</time>
      </trkpt>
      <trkpt lat="42.2073" lon="1.18365">
        <ele>1420.76</ele>
        <time>2021-08-01T11:04:01Z</time>
      </trkpt>
      <trkpt lat="42.20745" lon="1.18275">
        <ele>1422.3</ele>
        <time>2021-08-01T11:04:09Z</time>
      </trkpt>
      <trkpt lat="42.20731" lon="1.18231">
        <ele>1423.15</ele>
        <time>2021-08-01T11:04:15Z</time>
      </trkpt>
      <trkpt lat="42.20693" lon="1.18222">
        <ele>1424.35</ele>
        <time>2021-08-01T11:04:20Z</time>
      </trkpt>
      <trkpt lat="42.20674" lon="1.18205">
        <ele>1424.73</ele>
        <time>2021-08-01T11:04:23Z</time>
      </trkpt>
      <trkpt lat="42.20633" lon="1.18185">
        <ele>1423.47</ele>
        <time>2021-08-01T11:04:30Z</time>
      </trkpt>
      <trkpt lat="42.20627" lon="1.18192">
        <ele>1423.19</ele>
        <time>2021-08-01T11:04:31Z</time>
      </trkpt>
      <trkpt lat="42.20595" lon="1.18202">
        <ele>1422.73</ele>
        <time>2021-08-01T11:04:36Z</time>
      </trkpt>
      <trkpt lat="42.20528" lon="1.18187">
        <ele>1422.06</ele>
        <time>2021-08-01T11:04:44Z</time>
      </trkpt>
      <trkpt lat="42.20511" lon="1.18184">
        <ele>1421.51</ele>
        <time>2021-08-01T11:04:46Z</time>
      </trkpt>
      <trkpt lat="42.20442" lon="1.18177">
        <ele>1417.97</ele>
        <time>2021-08-01T11:04:54Z</time>
      </trkpt>
      <trkpt lat="42.20425" lon="1.18174">
        <ele>1417.49</ele>
        <time>2021-08-01T11:04:56Z</time>
      </trkpt>
      <trkpt lat="42.20397" lon="1.18175">
        <ele>1417.01</ele>
        <time>2021-08-01T11:04:59Z</time>
      </trkpt>
      <trkpt lat="42.20321" lon="1.18163">
        <ele>1415.16</ele>
        <time>2021-08-01T11:05:08Z</time>
      </trkpt>
      <trkpt lat="42.20306" lon="1.18157">
        <ele>1414.29</ele>
        <time>2021-08-01T11:05:10Z</time>
      </trkpt>
      <trkpt lat="42.20282" lon="1.18158">
        <ele>1413.09</ele>
        <time>2021-08-01T11:05:13Z</time>
      </trkpt>
      <trkpt lat="42.20234" lon="1.18124">
        <ele>1411.14</ele>
        <time>2021-08-01T11:05:19Z</time>
      </trkpt>
      <trkpt lat="42.20216" lon="1.18117">
        <ele>1411.02</ele>
        <time>2021-08-01T11:05:21Z</time>
      </trkpt>
      <trkpt lat="42.20181" lon="1.18102">
        <ele>1409.85</ele>
        <time>2021-08-01T11:05:25Z</time>
      </trkpt>
      <trkpt lat="42.20135" lon="1.18126">
        <ele>1407.04</ele>
        <time>2021-08-01T11:05:31Z</time>
      </trkpt>
      <trkpt lat="42.2011" lon="1.1817">
        <ele>1404.2</ele>
        <time>2021-08-01T11:05:36Z</time>
      </trkpt>
      <trkpt lat="42.20087" lon="1.18146">
        <ele>1401.01</ele>
        <time>2021-08-01T11:05:42Z</time>
      </trkpt>
      <trkpt lat="42.20071" lon="1.18116">
        <ele>1397.78</ele>
        <time>2021-08-01T11:05:46Z</time>
      </trkpt>
      <trkpt lat="42.20071" lon="1.18083">
        <ele>1395.69</ele>
        <time>2021-08-01T11:05:49Z</time>
      </trkpt>
      <trkpt lat="42.20076" lon="1.18039">
        <ele>1392.83</ele>
        <time>2021-08-01T11:05:53Z</time>
      </trkpt>
      <trkpt lat="42.2005" lon="1.17992">
        <ele>1388.51</ele>
        <time>2021-08-01T11:05:59Z</time>
      </trkpt>
      <trkpt lat="42.20032" lon="1.17988">
        <ele>1387.05</ele>
        <time>2021-08-01T11:06:01Z</time>
      </trkpt>
      <trkpt lat="42.20002" lon="1.17982">
        <ele>1384.51</ele>
        <time>2021-08-01T11:06:05Z</time>
      </trkpt>
      <trkpt lat="42.19979" lon="1.17952">
        <ele>1380.49</ele>
        <time>2021-08-01T11:06:11Z</time>
      </trkpt>
      <trkpt lat="42.19982" lon="1.17941">
        <ele>1379.22</ele>
        <time>2021-08-01T11:06:13Z</time>
      </trkpt>
      <trkpt lat="42.19986" lon="1.17918">
        <ele>1376.92</ele>
        <time>2021-08-01T11:06:16Z</time>
      </trkpt>
      <trkpt lat="42.1998" lon="1.17899">
        <ele>1374.8</ele>
        <time>2021-08-01T11:06:19Z</time>
      </trkpt>
      <trkpt lat="42.19976" lon="1.17895">
        <ele>1374.01</ele>
        <time>2021-08-01T11:06:20Z</time>
      </trkpt>
      <trkpt lat="42.19972" lon="1.17892">
        <ele>1373.26</ele>
        <time>2021-08-01T11:06:21Z</time>
      </trkpt>
      <trkpt lat="42.19967" lon="1.17886">
        <ele>1372.64</ele>
        <time>2021-08-01T11:06:22Z</time>
      </trkpt>
      <trkpt lat="42.19963" lon="1.17879">
        <ele>1372.19</ele>
        <time>2021-08-01T11:06:23Z</time>
      </trkpt>
      <trkpt lat="42.1996" lon="1.1787">
        <ele>1371.89</ele>
        <time>2021-08-01T11:06:24Z</time>
      </trkpt>
      <trkpt lat="42.19958" lon="1.1786">
        <ele>1371.68</ele>
        <time>2021-08-01T11:06:25Z</time>
      </trkpt>
      <trkpt lat="42.19957" lon="1.17848">
        <ele>1371.5</ele>
        <time>2021-08-01T11:06:26Z</time>
      </trkpt>
      <trkpt lat="42.19957" lon="1.17835">
        <ele>1371.36</ele>
        <time>2021-08-01T11:06:27Z</time>
      </trkpt>
      <trkpt lat="42.19956" lon="1.17822">
        <ele>1371.29</ele>
        <time>2021-08-01T11:06:28Z</time>
      </trkpt>
      <trkpt lat="42.19946" lon="1.1777">
        <ele>1371.6</ele>
        <time>2021-08-01T11:06:32Z</time>
      </trkpt>
      <trkpt lat="42.19934" lon="1.17741">
        <ele>1371.96</ele>
        <time>2021-08-01T11:06:35Z</time>
      </trkpt>
      <trkpt lat="42.19933" lon="1.17704">
        <ele>1372.3</ele>
        <time>2021-08-01T11:06:39Z</time>
      </trkpt>
      <trkpt lat="42.19951" lon="1.17655">
        <ele>1372.85</ele>
        <time>2021-08-01T11:06:44Z</time>
      </trkpt>
      <trkpt lat="42.19938" lon="1.17602">
        <ele>1370.45</ele>
        <time>2021-08-01T11:06:52Z</time>
      </trkpt>
      <trkpt lat="42.19934" lon="1.17554">
        <ele>1369.19</ele>
        <time>2021-08-01T11:06:58Z</time>
      </trkpt>
      <trkpt lat="42.19911" lon="1.17492">
        <ele>1369.55</ele>
        <time>2021-08-01T11:07:06Z</time>
      </trkpt>
      <trkpt lat="42.19924" lon="1.17411">
        <ele>1370.11</ele>
        <time>2021-08-01T11:07:15Z</time>
      </trkpt>
      <trkpt lat="42.19909" lon="1.17389">
        <ele>1368.68</ele>
        <time>2021-08-01T11:07:20Z</time>
      </trkpt>
      <trkpt lat="42.19857" lon="1.17392">
        <ele>1367.54</ele>
        <time>2021-08-01T11:07:28Z</time>
      </trkpt>
      <trkpt lat="42.19812" lon="1.1734">
        <ele>1368.41</ele>
        <time>2021-08-01T11:07:35Z</time>
      </trkpt>
      <trkpt lat="42.19807" lon="1.17315">
        <ele>1368.26</ele>
        <time>2021-08-01T11:07:37Z</time>
      </trkpt>
      <trkpt lat="42.19802" lon="1.17254">
        <ele>1367.39</ele>
        <time>2021-08-01T11:07:42Z</time>
      </trkpt>
      <trkpt lat="42.19818" lon="1.17238">
        <ele>1366.28</ele>
        <time>2021-08-01T11:07:46Z</time>
      </trkpt>
      <trkpt lat="42.19838" lon="1.17226">
        <ele>1366.13</ele>
        <time>2021-08-01T11:07:49Z</time>
      </trkpt>
      <trkpt lat="42.19857" lon="1.17202">
        <ele>1366.78</ele>
        <time>2021-08-01T11:07:53Z</time>
      </trkpt>
      <trkpt lat="42.19928" lon="1.1714">
        <ele>1370.25</ele>
        <time>2021-08-01T11:08:02Z</time>
      </trkpt>
      <trkpt lat="42.19946" lon="1.17118">
        <ele>1371.83</ele>
        <time>2021-08-01T11:08:05Z</time>
      </trkpt>
      <trkpt lat="42.19922" lon="1.1706">
        <ele>1373.77</ele>
        <time>2021-08-01T11:08:12Z</time>
      </trkpt>
      <trkpt lat="42.19902" lon="1.17058">
        <ele>1374.8</ele>
        <time>2021-08-01T11:08:15Z</time>
      </trkpt>
      <trkpt lat="42.19853" lon="1.17066">
        <ele>1378.85</ele>
        <time>2021-08-01T11:08:23Z</time>
      </trkpt>
      <trkpt lat="42.19847" lon="1.17043">
        <ele>1380.48</ele>
        <time>2021-08-01T11:08:26Z</time>
      </trkpt>
      <trkpt lat="42.19846" lon="1.16967">
        <ele>1384.25</ele>
        <time>2021-08-01T11:08:34Z</time>
      </trkpt>
      <trkpt lat="42.19843" lon="1.16897">
        <ele>1387.47</ele>
        <time>2021-08-01T11:08:41Z</time>
      </trkpt>
      <trkpt lat="42.19842" lon="1.16874">
        <ele>1388.75</ele>
        <time>2021-08-01T11:08:43Z</time>
      </trkpt>
      <trkpt lat="42.19843" lon="1.16863">
        <ele>1389.31</ele>
        <time>2021-08-01T11:08:44Z</time>
      </trkpt>
      <trkpt lat="42.19845" lon="1.16852">
        <ele>1389.89</ele>
        <time>2021-08-01T11:08:45Z</time>
      </trkpt>
      <trkpt lat="42.19848" lon="1.16841">
        <ele>1390.54</ele>
        <time>2021-08-01T11:08:46Z</time>
      </trkpt>
      <trkpt lat="42.19854" lon="1.16831">
        <ele>1391.15</ele>
        <time>2021-08-01T11:08:47Z</time>
      </trkpt>
      <trkpt lat="42.19859" lon="1.16822">
        <ele>1391.74</ele>
        <time>2021-08-01T11:08:48Z</time>
      </trkpt>
      <trkpt lat="42.19865" lon="1.16814">
        <ele>1392.38</ele>
        <time>2021-08-01T11:08:49Z</time>
      </trkpt>
      <trkpt lat="42.19871" lon="1.16807">
        <ele>1392.96</ele>
        <time>2021-08-01T11:08:50Z</time>
      </trkpt>
      <trkpt lat="42.19879" lon="1.16801">
        <ele>1393.5</ele>
        <time>2021-08-01T11:08:51Z</time>
      </trkpt>
      <trkpt lat="42.1993" lon="1.16746">
        <ele>1397.64</ele>
        <time>2021-08-01T11:08:59Z</time>
      </trkpt>
      <trkpt lat="42.19924" lon="1.16718">
        <ele>1399.26</ele>
        <time>2021-08-01T11:09:02Z</time>
      </trkpt>
      <trkpt lat="42.19923" lon="1.16675">
        <ele>1401.61</ele>
        <time>2021-08-01T11:09:06Z</time>
      </trkpt>
      <trkpt lat="42.19916" lon="1.16614">
        <ele>1404.81</ele>
        <time>2021-08-01T11:09:12Z</time>
      </trkpt>
      <trkpt lat="42.19891" lon="1.16574">
        <ele>1408.12</ele>
        <time>2021-08-01T11:09:18Z</time>
      </trkpt>
      <trkpt lat="42.19881" lon="1.16551">
        <ele>1409.75</ele>
        <time>2021-08-01T11:09:21Z</time>
      </trkpt>
      <trkpt lat="42.19857" lon="1.16515">
        <ele>1413.47</ele>
        <time>2021-08-01T11:09:27Z</time>
      </trkpt>
      <trkpt lat="42.1983" lon="1.16474">
        <ele>1418.27</ele>
        <time>2021-08-01T11:09:33Z</time>
      </trkpt>
      <trkpt lat="42.19813" lon="1.16461">
        <ele>1420.74</ele>
        <time>2021-08-01T11:09:36Z</time>
      </trkpt>
      <trkpt lat="42.19794" lon="1.16421">
        <ele>1423.69</ele>
        <time>2021-08-01T11:09:42Z</time>
      </trkpt>
      <trkpt lat="42.19791" lon="1.16404">
        <ele>1424.38</ele>
        <time>2021-08-01T11:09:44Z</time>
      </trkpt>
      <trkpt lat="42.19751" lon="1.16363">
        <ele>1424.51</ele>
        <time>2021-08-01T11:09:52Z</time>
      </trkpt>
      <trkpt lat="42.19727" lon="1.16324">
        <ele>1423.72</ele>
        <time>2021-08-01T11:09:57Z</time>
      </trkpt>
      <trkpt lat="42.19692" lon="1.16205">
        <ele>1420.53</ele>
        <time>2021-08-01T11:10:10Z</time>
      </trkpt>
      <trkpt lat="42.19689" lon="1.16187">
        <ele>1419.56</ele>
        <time>2021-08-01T11:10:12Z</time>
      </trkpt>
      <trkpt lat="42.19694" lon="1.16123">
        <ele>1417.06</ele>
        <time>2021-08-01T11:10:18Z</time>
      </trkpt>
      <trkpt lat="42.19709" lon="1.16088">
        <ele>1415.39</ele>
        <time>2021-08-01T11:10:22Z</time>
      </trkpt>
      <trkpt lat="42.1973" lon="1.16057">
        <ele>1413.89</ele>
        <time>2021-08-01T11:10:26Z</time>
      </trkpt>
      <trkpt lat="42.19751" lon="1.16005">
        <ele>1410.99</ele>
        <time>2021-08-01T11:10:32Z</time>
      </trkpt>
      <trkpt lat="42.19775" lon="1.15996">
        <ele>1408.38</ele>
        <time>2021-08-01T11:10:36Z</time>
      </trkpt>
      <trkpt lat="42.19813" lon="1.1598">
        <ele>1404.6</ele>
        <time>2021-08-01T11:10:42Z</time>
      </trkpt>
      <trkpt lat="42.19831" lon="1.15952">
        <ele>1400.72</ele>
        <time>2021-08-01T11:10:48Z</time>
      </trkpt>
      <trkpt lat="42.19831" lon="1.15917">
        <ele>1397.42</ele>
        <time>2021-08-01T11:10:54Z</time>
      </trkpt>
      <trkpt lat="42.19845" lon="1.15928">
        <ele>1395.71</ele>
        <time>2021-08-01T11:10:58Z</time>
      </trkpt>
      <trkpt lat="42.19836" lon="1.15982">
        <ele>1392.26</ele>
        <time>2021-08-01T11:11:05Z</time>
      </trkpt>
      <trkpt lat="42.19827" lon="1.16001">
        <ele>1391.15</ele>
        <time>2021-08-01T11:11:07Z</time>
      </trkpt>
      <trkpt lat="42.19816" lon="1.16041">
        <ele>1388.58</ele>
        <time>2021-08-01T11:11:11Z</time>
      </trkpt>
      <trkpt lat="42.19807" lon="1.16099">
        <ele>1384.37</ele>
        <time>2021-08-01T11:11:17Z</time>
      </trkpt>
      <trkpt lat="42.1981" lon="1.16108">
        <ele>1383.72</ele>
        <time>2021-08-01T11:11:18Z</time>
      </trkpt>
      <trkpt lat="42.19813" lon="1.16124">
        <ele>1381.64</ele>
        <time>2021-08-01T11:11:21Z</time>
      </trkpt>
      <trkpt lat="42.19838" lon="1.16116">
        <ele>1378.11</ele>
        <time>2021-08-01T11:11:26Z</time>
      </trkpt>
      <trkpt lat="42.19851" lon="1.16095">
        <ele>1375.79</ele>
        <time>2021-08-01T11:11:29Z</time>
      </trkpt>
      <trkpt lat="42.19863" lon="1.16073">
        <ele>1374.01</ele>
        <time>2021-08-01T11:11:32Z</time>
      </trkpt>
      <trkpt lat="42.19876" lon="1.16056">
        <ele>1372.42</ele>
        <time>2021-08-01T11:11:35Z</time>
      </trkpt>
      <trkpt lat="42.19885" lon="1.16035">
        <ele>1371.1</ele>
        <time>2021-08-01T11:11:38Z</time>
      </trkpt>
      <trkpt lat="42.1989" lon="1.15999">
        <ele>1369.12</ele>
        <time>2021-08-01T11:11:42Z</time>
      </trkpt>
      <trkpt lat="42.19909" lon="1.15938">
        <ele>1367.08</ele>
        <time>2021-08-01T11:11:48Z</time>
      </trkpt>
      <trkpt lat="42.19951" lon="1.15858">
        <ele>1363.26</ele>
        <time>2021-08-01T11:11:57Z</time>
      </trkpt>
      <trkpt lat="42.19972" lon="1.15825">
        <ele>1361.43</ele>
        <time>2021-08-01T11:12:00Z</time>
      </trkpt>
      <trkpt lat="42.19985" lon="1.15792">
        <ele>1359.24</ele>
        <time>2021-08-01T11:12:03Z</time>
      </trkpt>
      <trkpt lat="42.19984" lon="1.15727">
        <ele>1355.11</ele>
        <time>2021-08-01T11:12:08Z</time>
      </trkpt>
      <trkpt lat="42.19982" lon="1.15716">
        <ele>1354.36</ele>
        <time>2021-08-01T11:12:09Z</time>
      </trkpt>
      <trkpt lat="42.19974" lon="1.15657">
        <ele>1350.45</ele>
        <time>2021-08-01T11:12:14Z</time>
      </trkpt>
      <trkpt lat="42.19961" lon="1.15605">
        <ele>1347.18</ele>
        <time>2021-08-01T11:12:19Z</time>
      </trkpt>
      <trkpt lat="42.19959" lon="1.15578">
        <ele>1344.62</ele>
        <time>2021-08-01T11:12:23Z</time>
      </trkpt>
      <trkpt lat="42.19954" lon="1.15566">
        <ele>1342.9</ele>
        <time>2021-08-01T11:12:25Z</time>
      </trkpt>
      <trkpt lat="42.19953" lon="1.15532">
        <ele>1340.64</ele>
        <time>2021-08-01T11:12:29Z</time>
      </trkpt>
      <trkpt lat="42.1998" lon="1.15412">
        <ele>1337.41</ele>
        <time>2021-08-01T11:12:38Z</time>
      </trkpt>
      <trkpt lat="42.2" lon="1.15334">
        <ele>1333.97</ele>
        <time>2021-08-01T11:12:44Z</time>
      </trkpt>
      <trkpt lat="42.20009" lon="1.15293">
        <ele>1332.02</ele>
        <time>2021-08-01T11:12:47Z</time>
      </trkpt>
      <trkpt lat="42.2001" lon="1.15274">
        <ele>1330.52</ele>
        <time>2021-08-01T11:12:49Z</time>
      </trkpt>
      <trkpt lat="42.20017" lon="1.15263">
        <ele>1328.16</ele>
        <time>2021-08-01T11:12:52Z</time>
      </trkpt>
      <trkpt lat="42.20019" lon="1.15305">
        <ele>1324.01</ele>
        <time>2021-08-01T11:12:58Z</time>
      </trkpt>
      <trkpt lat="42.20017" lon="1.1532">
        <ele>1322.84</ele>
        <time>2021-08-01T11:13:00Z</time>
      </trkpt>
      <trkpt lat="42.20038" lon="1.15339">
        <ele>1319.05</ele>
        <time>2021-08-01T11:13:06Z</time>
      </trkpt>
      <trkpt lat="42.20041" lon="1.15313">
        <ele>1317.1</ele>
        <time>2021-08-01T11:13:09Z</time>
      </trkpt>
      <trkpt lat="42.20045" lon="1.15274">
        <ele>1314.98</ele>
        <time>2021-08-01T11:13:13Z</time>
      </trkpt>
      <trkpt lat="42.20069" lon="1.15226">
        <ele>1311.96</ele>
        <time>2021-08-01T11:13:19Z</time>
      </trkpt>
      <trkpt lat="42.20081" lon="1.15185">
        <ele>1308.63</ele>
        <time>2021-08-01T11:13:24Z</time>
      </trkpt>
      <trkpt lat="42.20085" lon="1.15163">
        <ele>1306.9</ele>
        <time>2021-08-01T11:13:27Z</time>
      </trkpt>
      <trkpt lat="42.20085" lon="1.15133">
        <ele>1304.82</ele>
        <time>2021-08-01T11:13:31Z</time>
      </trkpt>
      <trkpt lat="42.20111" lon="1.15068">
        <ele>1302.47</ele>
        <time>2021-08-01T11:13:38Z</time>
      </trkpt>
      <trkpt lat="42.20109" lon="1.15033">
        <ele>1300.86</ele>
        <time>2021-08-01T11:13:42Z</time>
      </trkpt>
      <trkpt lat="42.20107" lon="1.15013">
        <ele>1299.76</ele>
        <time>2021-08-01T11:13:44Z</time>
      </trkpt>
      <trkpt lat="42.20093" lon="1.14944">
        <ele>1295.96</ele>
        <time>2021-08-01T11:13:51Z</time>
      </trkpt>
      <trkpt lat="42.20091" lon="1.14935">
        <ele>1295.36</ele>
        <time>2021-08-01T11:13:52Z</time>
      </trkpt>
      <trkpt lat="42.20065" lon="1.14868">
        <ele>1290.99</ele>
        <time>2021-08-01T11:13:58Z</time>
      </trkpt>
      <trkpt lat="42.2005" lon="1.1482">
        <ele>1286.68</ele>
        <time>2021-08-01T11:14:02Z</time>
      </trkpt>
      <trkpt lat="42.2004" lon="1.14787">
        <ele>1284.15</ele>
        <time>2021-08-01T11:14:05Z</time>
      </trkpt>
      <trkpt lat="42.20025" lon="1.14757">
        <ele>1281.49</ele>
        <time>2021-08-01T11:14:08Z</time>
      </trkpt>
      <trkpt lat="42.19999" lon="1.14734">
        <ele>1278.09</ele>
        <time>2021-08-01T11:14:12Z</time>
      </trkpt>
      <trkpt lat="42.19981" lon="1.14696">
        <ele>1274.79</ele>
        <time>2021-08-01T11:14:17Z</time>
      </trkpt>
      <trkpt lat="42.19973" lon="1.14668">
        <ele>1273.49</ele>
        <time>2021-08-01T11:14:20Z</time>
      </trkpt>
      <trkpt lat="42.19936" lon="1.14582">
        <ele>1269.93</ele>
        <time>2021-08-01T11:14:29Z</time>
      </trkpt>
      <trkpt lat="42.19922" lon="1.14551">
        <ele>1268.56</ele>
        <time>2021-08-01T11:14:32Z</time>
      </trkpt>
      <trkpt lat="42.19914" lon="1.14506">
        <ele>1266.85</ele>
        <time>2021-08-01T11:14:36Z</time>
      </trkpt>
      <trkpt lat="42.19901" lon="1.14444">
        <ele>1263.92</ele>
        <time>2021-08-01T11:14:43Z</time>
      </trkpt>
      <trkpt lat="42.19916" lon="1.14446">
        <ele>1261.27</ele>
        <time>2021-08-01T11:14:48Z</time>
      </trkpt>
      <trkpt lat="42.19918" lon="1.14451">
        <ele>1260.75</ele>
        <time>2021-08-01T11:14:49Z</time>
      </trkpt>
      <trkpt lat="42.19926" lon="1.14472">
        <ele>1258.64</ele>
        <time>2021-08-01T11:14:53Z</time>
      </trkpt>
      <trkpt lat="42.19929" lon="1.1449">
        <ele>1256.84</ele>
        <time>2021-08-01T11:14:56Z</time>
      </trkpt>
      <trkpt lat="42.19945" lon="1.14515">
        <ele>1254.62</ele>
        <time>2021-08-01T11:15:00Z</time>
      </trkpt>
      <trkpt lat="42.19969" lon="1.14546">
        <ele>1251.97</ele>
        <time>2021-08-01T11:15:05Z</time>
      </trkpt>
      <trkpt lat="42.20009" lon="1.14551">
        <ele>1247.97</ele>
        <time>2021-08-01T11:15:12Z</time>
      </trkpt>
      <trkpt lat="42.19998" lon="1.14517">
        <ele>1245.27</ele>
        <time>2021-08-01T11:15:17Z</time>
      </trkpt>
      <trkpt lat="42.19983" lon="1.1446">
        <ele>1242.87</ele>
        <time>2021-08-01T11:15:24Z</time>
      </trkpt>
      <trkpt lat="42.19981" lon="1.14376">
        <ele>1239.04</ele>
        <time>2021-08-01T11:15:33Z</time>
      </trkpt>
      <trkpt lat="42.19992" lon="1.1432">
        <ele>1235.71</ele>
        <time>2021-08-01T11:15:39Z</time>
      </trkpt>
      <trkpt lat="42.19993" lon="1.1431">
        <ele>1235.14</ele>
        <time>2021-08-01T11:15:40Z</time>
      </trkpt>
      <trkpt lat="42.19992" lon="1.14279">
        <ele>1233.29</ele>
        <time>2021-08-01T11:15:43Z</time>
      </trkpt>
      <trkpt lat="42.19995" lon="1.14249">
        <ele>1231.97</ele>
        <time>2021-08-01T11:15:46Z</time>
      </trkpt>
      <trkpt lat="42.19994" lon="1.14212">
        <ele>1229.85</ele>
        <time>2021-08-01T11:15:50Z</time>
      </trkpt>
      <trkpt lat="42.20001" lon="1.14188">
        <ele>1225.81</ele>
        <time>2021-08-01T11:15:57Z</time>
      </trkpt>
      <trkpt lat="42.20006" lon="1.14183">
        <ele>1224.88</ele>
        <time>2021-08-01T11:15:59Z</time>
      </trkpt>
      <trkpt lat="42.20021" lon="1.14168">
        <ele>1221.47</ele>
        <time>2021-08-01T11:16:06Z</time>
      </trkpt>
      <trkpt lat="42.2002" lon="1.14165">
        <ele>1218.46</ele>
        <time>2021-08-01T11:16:22Z</time>
      </trkpt>
      <trkpt lat="42.20054" lon="1.1415">
        <ele>1217.15</ele>
        <time>2021-08-01T11:16:30Z</time>
      </trkpt>
      <trkpt lat="42.2006" lon="1.14145">
        <ele>1216.75</ele>
        <time>2021-08-01T11:16:31Z</time>
      </trkpt>
      <trkpt lat="42.2007" lon="1.14135">
        <ele>1215.82</ele>
        <time>2021-08-01T11:16:33Z</time>
      </trkpt>
      <trkpt lat="42.20086" lon="1.14108">
        <ele>1214.12</ele>
        <time>2021-08-01T11:16:37Z</time>
      </trkpt>
      <trkpt lat="42.201" lon="1.14064">
        <ele>1212.58</ele>
        <time>2021-08-01T11:16:41Z</time>
      </trkpt>
      <trkpt lat="42.20107" lon="1.14002">
        <ele>1208.69</ele>
        <time>2021-08-01T11:16:47Z</time>
      </trkpt>
      <trkpt lat="42.20109" lon="1.1396">
        <ele>1205.26</ele>
        <time>2021-08-01T11:16:52Z</time>
      </trkpt>
      <trkpt lat="42.20117" lon="1.13912">
        <ele>1202.08</ele>
        <time>2021-08-01T11:16:57Z</time>
      </trkpt>
      <trkpt lat="42.20132" lon="1.13865">
        <ele>1198.86</ele>
        <time>2021-08-01T11:17:02Z</time>
      </trkpt>
      <trkpt lat="42.20154" lon="1.13808">
        <ele>1195.35</ele>
        <time>2021-08-01T11:17:09Z</time>
      </trkpt>
      <trkpt lat="42.20163" lon="1.13786">
        <ele>1193.09</ele>
        <time>2021-08-01T11:17:12Z</time>
      </trkpt>
      <trkpt lat="42.20169" lon="1.13777">
        <ele>1191.89</ele>
        <time>2021-08-01T11:17:14Z</time>
      </trkpt>
      <trkpt lat="42.20182" lon="1.13753">
        <ele>1188.03</ele>
        <time>2021-08-01T11:17:20Z</time>
      </trkpt>
      <trkpt lat="42.20198" lon="1.13733">
        <ele>1184.79</ele>
        <time>2021-08-01T11:17:25Z</time>
      </trkpt>
      <trkpt lat="42.20214" lon="1.13675">
        <ele>1181.74</ele>
        <time>2021-08-01T11:17:32Z</time>
      </trkpt>
      <trkpt lat="42.20201" lon="1.13634">
        <ele>1177.85</ele>
        <time>2021-08-01T11:17:39Z</time>
      </trkpt>
      <trkpt lat="42.20191" lon="1.13647">
        <ele>1176.18</ele>
        <time>2021-08-01T11:17:42Z</time>
      </trkpt>
      <trkpt lat="42.20145" lon="1.13712">
        <ele>1171.87</ele>
        <time>2021-08-01T11:17:52Z</time>
      </trkpt>
      <trkpt lat="42.2011" lon="1.13756">
        <ele>1169.26</ele>
        <time>2021-08-01T11:18:00Z</time>
      </trkpt>
      <trkpt lat="42.20109" lon="1.13738">
        <ele>1166.89</ele>
        <time>2021-08-01T11:18:05Z</time>
      </trkpt>
      <trkpt lat="42.20112" lon="1.13733">
        <ele>1166.45</ele>
        <time>2021-08-01T11:18:06Z</time>
      </trkpt>
      <trkpt lat="42.20129" lon="1.13695">
        <ele>1164.9</ele>
        <time>2021-08-01T11:18:12Z</time>
      </trkpt>
      <trkpt lat="42.20142" lon="1.13669">
        <ele>1164.27</ele>
        <time>2021-08-01T11:18:16Z</time>
      </trkpt>
      <trkpt lat="42.20145" lon="1.13594">
        <ele>1163.13</ele>
        <time>2021-08-01T11:18:25Z</time>
      </trkpt>
      <trkpt lat="42.20163" lon="1.13563">
        <ele>1162.12</ele>
        <time>2021-08-01T11:18:30Z</time>
      </trkpt>
      <trkpt lat="42.20182" lon="1.13513">
        <ele>1160.04</ele>
        <time>2021-08-01T11:18:39Z</time>
      </trkpt>
      <trkpt lat="42.20173" lon="1.13489">
        <ele>1158.76</ele>
        <time>2021-08-01T11:18:44Z</time>
      </trkpt>
      <trkpt lat="42.20171" lon="1.13478">
        <ele>1158.18</ele>
        <time>2021-08-01T11:18:46Z</time>
      </trkpt>
      <trkpt lat="42.20171" lon="1.13465">
        <ele>1157.76</ele>
        <time>2021-08-01T11:18:48Z</time>
      </trkpt>
      <trkpt lat="42.20181" lon="1.13424">
        <ele>1156.11</ele>
        <time>2021-08-01T11:18:54Z</time>
      </trkpt>
      <trkpt lat="42.20193" lon="1.13392">
        <ele>1154.14</ele>
        <time>2021-08-01T11:18:59Z</time>
      </trkpt>
      <trkpt lat="42.20191" lon="1.13358">
        <ele>1152.01</ele>
        <time>2021-08-01T11:19:03Z</time>
      </trkpt>
      <trkpt lat="42.20192" lon="1.13259">
        <ele>1148.62</ele>
        <time>2021-08-01T11:19:14Z</time>
      </trkpt>
      <trkpt lat="42.20194" lon="1.13226">
        <ele>1146.86</ele>
        <time>2021-08-01T11:19:18Z</time>
      </trkpt>
      <trkpt lat="42.20183" lon="1.13192">
        <ele>1144.46</ele>
        <time>2021-08-01T11:19:22Z</time>
      </trkpt>
      <trkpt lat="42.20185" lon="1.13169">
        <ele>1141.85</ele>
        <time>2021-08-01T11:19:26Z</time>
      </trkpt>
      <trkpt lat="42.20188" lon="1.13156">
        <ele>1140.42</ele>
        <time>2021-08-01T11:19:28Z</time>
      </trkpt>
      <trkpt lat="42.20194" lon="1.1313">
        <ele>1137.33</ele>
        <time>2021-08-01T11:19:32Z</time>
      </trkpt>
      <trkpt lat="42.20212" lon="1.13084">
        <ele>1132.85</ele>
        <time>2021-08-01T11:19:38Z</time>
      </trkpt>
      <trkpt lat="42.20225" lon="1.13042">
        <ele>1129.78</ele>
        <time>2021-08-01T11:19:43Z</time>
      </trkpt>
      <trkpt lat="42.20234" lon="1.13017">
        <ele>1128.28</ele>
        <time>2021-08-01T11:19:46Z</time>
      </trkpt>
      <trkpt lat="42.20239" lon="1.13001">
        <ele>1127.02</ele>
        <time>2021-08-01T11:19:48Z</time>
      </trkpt>
      <trkpt lat="42.20238" lon="1.12962">
        <ele>1124.13</ele>
        <time>2021-08-01T11:19:53Z</time>
      </trkpt>
      <trkpt lat="42.20235" lon="1.12952">
        <ele>1123.09</ele>
        <time>2021-08-01T11:19:55Z</time>
      </trkpt>
      <trkpt lat="42.20246" lon="1.12902">
        <ele>1119.6</ele>
        <time>2021-08-01T11:20:03Z</time>
      </trkpt>
      <trkpt lat="42.20256" lon="1.12896">
        <ele>1118.68</ele>
        <time>2021-08-01T11:20:05Z</time>
      </trkpt>
      <trkpt lat="42.20265" lon="1.12889">
        <ele>1117.67</ele>
        <time>2021-08-01T11:20:07Z</time>
      </trkpt>
      <trkpt lat="42.20292" lon="1.12874">
        <ele>1115.6</ele>
        <time>2021-08-01T11:20:12Z</time>
      </trkpt>
      <trkpt lat="42.20308" lon="1.12871">
        <ele>1114.11</ele>
        <time>2021-08-01T11:20:15Z</time>
      </trkpt>
      <trkpt lat="42.20324" lon="1.12826">
        <ele>1110.58</ele>
        <time>2021-08-01T11:20:23Z</time>
      </trkpt>
      <trkpt lat="42.20324" lon="1.12724">
        <ele>1106.88</ele>
        <time>2021-08-01T11:20:34Z</time>
      </trkpt>
      <trkpt lat="42.20324" lon="1.12657">
        <ele>1103.75</ele>
        <time>2021-08-01T11:20:41Z</time>
      </trkpt>
      <trkpt lat="42.20305" lon="1.12614">
        <ele>1101.77</ele>
        <time>2021-08-01T11:20:46Z</time>
      </trkpt>
      <trkpt lat="42.20303" lon="1.12598">
        <ele>1101.14</ele>
        <time>2021-08-01T11:20:48Z</time>
      </trkpt>
      <trkpt lat="42.2031" lon="1.12566">
        <ele>1099.56</ele>
        <time>2021-08-01T11:20:52Z</time>
      </trkpt>
      <trkpt lat="42.20316" lon="1.12543">
        <ele>1098.5</ele>
        <time>2021-08-01T11:20:55Z</time>
      </trkpt>
      <trkpt lat="42.20328" lon="1.12504">
        <ele>1096.1</ele>
        <time>2021-08-01T11:21:01Z</time>
      </trkpt>
      <trkpt lat="42.20317" lon="1.12478">
        <ele>1094.5</ele>
        <time>2021-08-01T11:21:05Z</time>
      </trkpt>
      <trkpt lat="42.20319" lon="1.12415">
        <ele>1091.8</ele>
        <time>2021-08-01T11:21:13Z</time>
      </trkpt>
      <trkpt lat="42.20323" lon="1.12408">
        <ele>1091.43</ele>
        <time>2021-08-01T11:21:14Z</time>
      </trkpt>
      <trkpt lat="42.20357" lon="1.12363">
        <ele>1088.31</ele>
        <time>2021-08-01T11:21:21Z</time>
      </trkpt>
      <trkpt lat="42.20383" lon="1.12358">
        <ele>1086.4</ele>
        <time>2021-08-01T11:21:25Z</time>
      </trkpt>
      <trkpt lat="42.20426" lon="1.12367">
        <ele>1082.55</ele>
        <time>2021-08-01T11:21:33Z</time>
      </trkpt>
      <trkpt lat="42.20447" lon="1.12377">
        <ele>1079.85</ele>
        <time>2021-08-01T11:21:39Z</time>
      </trkpt>
      <trkpt lat="42.20452" lon="1.12351">
        <ele>1077.04</ele>
        <time>2021-08-01T11:21:46Z</time>
      </trkpt>
      <trkpt lat="42.20399" lon="1.12285">
        <ele>1074.28</ele>
        <time>2021-08-01T11:21:56Z</time>
      </trkpt>
      <trkpt lat="42.20391" lon="1.12273">
        <ele>1073.76</ele>
        <time>2021-08-01T11:21:58Z</time>
      </trkpt>
      <trkpt lat="42.20384" lon="1.12255">
        <ele>1072.89</ele>
        <time>2021-08-01T11:22:01Z</time>
      </trkpt>
      <trkpt lat="42.20375" lon="1.12213">
        <ele>1070.86</ele>
        <time>2021-08-01T11:22:07Z</time>
      </trkpt>
      <trkpt lat="42.20393" lon="1.12152">
        <ele>1068.27</ele>
        <time>2021-08-01T11:22:15Z</time>
      </trkpt>
      <trkpt lat="42.204" lon="1.12118">
        <ele>1065.23</ele>
        <time>2021-08-01T11:22:23Z</time>
      </trkpt>
      <trkpt lat="42.20333" lon="1.12096">
        <ele>1063.61</ele>
        <time>2021-08-01T11:22:31Z</time>
      </trkpt>
      <trkpt lat="42.20303" lon="1.12055">
        <ele>1061.79</ele>
        <time>2021-08-01T11:22:37Z</time>
      </trkpt>
      <trkpt lat="42.20296" lon="1.12036">
        <ele>1061.16</ele>
        <time>2021-08-01T11:22:39Z</time>
      </trkpt>
      <trkpt lat="42.20298" lon="1.11998">
        <ele>1059.84</ele>
        <time>2021-08-01T11:22:43Z</time>
      </trkpt>
      <trkpt lat="42.20333" lon="1.11887">
        <ele>1056.63</ele>
        <time>2021-08-01T11:22:55Z</time>
      </trkpt>
      <trkpt lat="42.2036" lon="1.1179">
        <ele>1053.99</ele>
        <time>2021-08-01T11:23:05Z</time>
      </trkpt>
      <trkpt lat="42.20386" lon="1.11727">
        <ele>1051.99</ele>
        <time>2021-08-01T11:23:12Z</time>
      </trkpt>
      <trkpt lat="42.20388" lon="1.11701">
        <ele>1050.9</ele>
        <time>2021-08-01T11:23:15Z</time>
      </trkpt>
      <trkpt lat="42.20411" lon="1.11674">
        <ele>1049.12</ele>
        <time>2021-08-01T11:23:21Z</time>
      </trkpt>
      <trkpt lat="42.20419" lon="1.11666">
        <ele>1048.57</ele>
        <time>2021-08-01T11:23:23Z</time>
      </trkpt>
      <trkpt lat="42.20408" lon="1.11633">
        <ele>1047.66</ele>
        <time>2021-08-01T11:23:28Z</time>
      </trkpt>
      <trkpt lat="42.20391" lon="1.11581">
        <ele>1046.8</ele>
        <time>2021-08-01T11:23:34Z</time>
      </trkpt>
      <trkpt lat="42.2041" lon="1.11521">
        <ele>1045.79</ele>
        <time>2021-08-01T11:23:42Z</time>
      </trkpt>
      <trkpt lat="42.20416" lon="1.11518">
        <ele>1045.48</ele>
        <time>2021-08-01T11:23:43Z</time>
      </trkpt>
      <trkpt lat="42.20425" lon="1.11513">
        <ele>1044.99</ele>
        <time>2021-08-01T11:23:45Z</time>
      </trkpt>
      <trkpt lat="42.20419" lon="1.1149">
        <ele>1043.53</ele>
        <time>2021-08-01T11:23:51Z</time>
      </trkpt>
      <trkpt lat="42.20406" lon="1.11478">
        <ele>1043.2</ele>
        <time>2021-08-01T11:23:53Z</time>
      </trkpt>
      <trkpt lat="42.20392" lon="1.11442">
        <ele>1042.25</ele>
        <time>2021-08-01T11:23:58Z</time>
      </trkpt>
      <trkpt lat="42.20366" lon="1.11387">
        <ele>1040.96</ele>
        <time>2021-08-01T11:24:08Z</time>
      </trkpt>
      <trkpt lat="42.20368" lon="1.11372">
        <ele>1040.63</ele>
        <time>2021-08-01T11:24:10Z</time>
      </trkpt>
      <trkpt lat="42.20373" lon="1.11347">
        <ele>1040.26</ele>
        <time>2021-08-01T11:24:13Z</time>
      </trkpt>
      <trkpt lat="42.20388" lon="1.11327">
        <ele>1039.47</ele>
        <time>2021-08-01T11:24:17Z</time>
      </trkpt>
      <trkpt lat="42.20399" lon="1.11318">
        <ele>1039.05</ele>
        <time>2021-08-01T11:24:19Z</time>
      </trkpt>
      <trkpt lat="42.20425" lon="1.11263">
        <ele>1037.99</ele>
        <time>2021-08-01T11:24:26Z</time>
      </trkpt>
      <trkpt lat="42.20426" lon="1.11246">
        <ele>1037.61</ele>
        <time>2021-08-01T11:24:28Z</time>
      </trkpt>
      <trkpt lat="42.20479" lon="1.11219">
        <ele>1036.33</ele>
        <time>2021-08-01T11:24:36Z</time>
      </trkpt>
      <trkpt lat="42.20487" lon="1.11219">
        <ele>1035.98</ele>
        <time>2021-08-01T11:24:37Z</time>
      </trkpt>
      <trkpt lat="42.20536" lon="1.11201">
        <ele>1033.47</ele>
        <time>2021-08-01T11:24:44Z</time>
      </trkpt>
      <trkpt lat="42.20547" lon="1.11185">
        <ele>1032.76</ele>
        <time>2021-08-01T11:24:46Z</time>
      </trkpt>
      <trkpt lat="42.20575" lon="1.11111">
        <ele>1029</ele>
        <time>2021-08-01T11:24:55Z</time>
      </trkpt>
      <trkpt lat="42.20575" lon="1.11102">
        <ele>1027.87</ele>
        <time>2021-08-01T11:24:57Z</time>
      </trkpt>
      <trkpt lat="42.2055" lon="1.11083">
        <ele>1025.49</ele>
        <time>2021-08-01T11:25:03Z</time>
      </trkpt>
      <trkpt lat="42.20529" lon="1.11049">
        <ele>1023.26</ele>
        <time>2021-08-01T11:25:11Z</time>
      </trkpt>
      <trkpt lat="42.20526" lon="1.11041">
        <ele>1023.06</ele>
        <time>2021-08-01T11:25:12Z</time>
      </trkpt>
      <trkpt lat="42.20514" lon="1.1097">
        <ele>1022.05</ele>
        <time>2021-08-01T11:25:19Z</time>
      </trkpt>
      <trkpt lat="42.20488" lon="1.10963">
        <ele>1021.17</ele>
        <time>2021-08-01T11:25:24Z</time>
      </trkpt>
      <trkpt lat="42.2044" lon="1.10954">
        <ele>1020.07</ele>
        <time>2021-08-01T11:25:32Z</time>
      </trkpt>
      <trkpt lat="42.20433" lon="1.10952">
        <ele>1020</ele>
        <time>2021-08-01T11:25:33Z</time>
      </trkpt>
      <trkpt lat="42.20402" lon="1.10908">
        <ele>1019.12</ele>
        <time>2021-08-01T11:25:41Z</time>
      </trkpt>
      <trkpt lat="42.204" lon="1.109">
        <ele>1018.93</ele>
        <time>2021-08-01T11:25:42Z</time>
      </trkpt>
      <trkpt lat="42.20384" lon="1.1086">
        <ele>1017.37</ele>
        <time>2021-08-01T11:25:48Z</time>
      </trkpt>
      <trkpt lat="42.20382" lon="1.10825">
        <ele>1015.95</ele>
        <time>2021-08-01T11:25:53Z</time>
      </trkpt>
      <trkpt lat="42.20398" lon="1.10779">
        <ele>1012.4</ele>
        <time>2021-08-01T11:26:00Z</time>
      </trkpt>
      <trkpt lat="42.204" lon="1.10763">
        <ele>1010.72</ele>
        <time>2021-08-01T11:26:03Z</time>
      </trkpt>
      <trkpt lat="42.20399" lon="1.10728">
        <ele>1008.08</ele>
        <time>2021-08-01T11:26:11Z</time>
      </trkpt>
      <trkpt lat="42.2039" lon="1.1069">
        <ele>1006.02</ele>
        <time>2021-08-01T11:26:16Z</time>
      </trkpt>
      <trkpt lat="42.20395" lon="1.10658">
        <ele>1003.62</ele>
        <time>2021-08-01T11:26:20Z</time>
      </trkpt>
      <trkpt lat="42.204" lon="1.10641">
        <ele>1001.5</ele>
        <time>2021-08-01T11:26:23Z</time>
      </trkpt>
      <trkpt lat="42.20385" lon="1.10619">
        <ele>998.94</ele>
        <time>2021-08-01T11:26:27Z</time>
      </trkpt>
      <trkpt lat="42.20373" lon="1.1058">
        <ele>996.33</ele>
        <time>2021-08-01T11:26:32Z</time>
      </trkpt>
      <trkpt lat="42.20371" lon="1.10564">
        <ele>995.07</ele>
        <time>2021-08-01T11:26:34Z</time>
      </trkpt>
      <trkpt lat="42.20379" lon="1.10516">
        <ele>991.35</ele>
        <time>2021-08-01T11:26:40Z</time>
      </trkpt>
      <trkpt lat="42.20394" lon="1.10471">
        <ele>987.59</ele>
        <time>2021-08-01T11:26:46Z</time>
      </trkpt>
      <trkpt lat="42.20398" lon="1.10455">
        <ele>986.29</ele>
        <time>2021-08-01T11:26:48Z</time>
      </trkpt>
      <trkpt lat="42.20419" lon="1.10404">
        <ele>982.12</ele>
        <time>2021-08-01T11:26:55Z</time>
      </trkpt>
      <trkpt lat="42.20423" lon="1.10393">
        <ele>981</ele>
        <time>2021-08-01T11:26:57Z</time>
      </trkpt>
      <trkpt lat="42.20412" lon="1.10375">
        <ele>978.67</ele>
        <time>2021-08-01T11:27:01Z</time>
      </trkpt>
      <trkpt lat="42.20409" lon="1.1035">
        <ele>976.75</ele>
        <time>2021-08-01T11:27:05Z</time>
      </trkpt>
      <trkpt lat="42.20401" lon="1.10322">
        <ele>974.76</ele>
        <time>2021-08-01T11:27:10Z</time>
      </trkpt>
      <trkpt lat="42.2037" lon="1.10284">
        <ele>971.29</ele>
        <time>2021-08-01T11:27:20Z</time>
      </trkpt>
      <trkpt lat="42.20368" lon="1.10208">
        <ele>968.62</ele>
        <time>2021-08-01T11:27:32Z</time>
      </trkpt>
      <trkpt lat="42.20362" lon="1.10171">
        <ele>967.57</ele>
        <time>2021-08-01T11:27:37Z</time>
      </trkpt>
      <trkpt lat="42.20345" lon="1.10151">
        <ele>966.44</ele>
        <time>2021-08-01T11:27:41Z</time>
      </trkpt>
      <trkpt lat="42.20338" lon="1.10107">
        <ele>964.63</ele>
        <time>2021-08-01T11:27:47Z</time>
      </trkpt>
      <trkpt lat="42.20342" lon="1.10084">
        <ele>963.27</ele>
        <time>2021-08-01T11:27:50Z</time>
      </trkpt>
      <trkpt lat="42.20325" lon="1.10045">
        <ele>958.98</ele>
        <time>2021-08-01T11:27:56Z</time>
      </trkpt>
      <trkpt lat="42.20321" lon="1.10032">
        <ele>957.73</ele>
        <time>2021-08-01T11:27:58Z</time>
      </trkpt>
      <trkpt lat="42.20316" lon="1.10016">
        <ele>955.75</ele>
        <time>2021-08-01T11:28:01Z</time>
      </trkpt>
      <trkpt lat="42.20299" lon="1.10037">
        <ele>951.84</ele>
        <time>2021-08-01T11:28:07Z</time>
      </trkpt>
      <trkpt lat="42.20298" lon="1.10044">
        <ele>951.25</ele>
        <time>2021-08-01T11:28:08Z</time>
      </trkpt>
      <trkpt lat="42.20284" lon="1.10065">
        <ele>948.16</ele>
        <time>2021-08-01T11:28:14Z</time>
      </trkpt>
      <trkpt lat="42.20259" lon="1.10097">
        <ele>944.53</ele>
        <time>2021-08-01T11:28:22Z</time>
      </trkpt>
      <trkpt lat="42.20259" lon="1.10103">
        <ele>944</ele>
        <time>2021-08-01T11:28:23Z</time>
      </trkpt>
      <trkpt lat="42.20255" lon="1.10137">
        <ele>941.58</ele>
        <time>2021-08-01T11:28:28Z</time>
      </trkpt>
      <trkpt lat="42.20277" lon="1.10161">
        <ele>938.59</ele>
        <time>2021-08-01T11:28:35Z</time>
      </trkpt>
      <trkpt lat="42.20289" lon="1.10179">
        <ele>937.66</ele>
        <time>2021-08-01T11:28:38Z</time>
      </trkpt>
      <trkpt lat="42.20296" lon="1.10193">
        <ele>937.05</ele>
        <time>2021-08-01T11:28:40Z</time>
      </trkpt>
      <trkpt lat="42.20298" lon="1.10237">
        <ele>935.39</ele>
        <time>2021-08-01T11:28:46Z</time>
      </trkpt>
      <trkpt lat="42.2029" lon="1.10261">
        <ele>933.67</ele>
        <time>2021-08-01T11:28:51Z</time>
      </trkpt>
      <trkpt lat="42.20274" lon="1.10244">
        <ele>930.84</ele>
        <time>2021-08-01T11:28:58Z</time>
      </trkpt>
      <trkpt lat="42.20272" lon="1.10229">
        <ele>930.05</ele>
        <time>2021-08-01T11:29:00Z</time>
      </trkpt>
      <trkpt lat="42.20244" lon="1.10191">
        <ele>926.87</ele>
        <time>2021-08-01T11:29:06Z</time>
      </trkpt>
      <trkpt lat="42.2022" lon="1.10154">
        <ele>923.35</ele>
        <time>2021-08-01T11:29:12Z</time>
      </trkpt>
      <trkpt lat="42.20196" lon="1.10038">
        <ele>919.63</ele>
        <time>2021-08-01T11:29:23Z</time>
      </trkpt>
      <trkpt lat="42.20185" lon="1.09966">
        <ele>916.71</ele>
        <time>2021-08-01T11:29:31Z</time>
      </trkpt>
      <trkpt lat="42.20202" lon="1.09914">
        <ele>915.03</ele>
        <time>2021-08-01T11:29:36Z</time>
      </trkpt>
      <trkpt lat="42.20216" lon="1.09885">
        <ele>914.09</ele>
        <time>2021-08-01T11:29:39Z</time>
      </trkpt>
      <trkpt lat="42.20222" lon="1.09847">
        <ele>912.57</ele>
        <time>2021-08-01T11:29:43Z</time>
      </trkpt>
      <trkpt lat="42.20229" lon="1.09789">
        <ele>910.65</ele>
        <time>2021-08-01T11:29:49Z</time>
      </trkpt>
      <trkpt lat="42.20244" lon="1.09745">
        <ele>909.02</ele>
        <time>2021-08-01T11:29:54Z</time>
      </trkpt>
      <trkpt lat="42.20269" lon="1.09677">
        <ele>905.62</ele>
        <time>2021-08-01T11:30:03Z</time>
      </trkpt>
      <trkpt lat="42.20271" lon="1.09636">
        <ele>903.54</ele>
        <time>2021-08-01T11:30:08Z</time>
      </trkpt>
      <trkpt lat="42.20264" lon="1.09592">
        <ele>901.97</ele>
        <time>2021-08-01T11:30:13Z</time>
      </trkpt>
      <trkpt lat="42.20268" lon="1.09564">
        <ele>900.42</ele>
        <time>2021-08-01T11:30:17Z</time>
      </trkpt>
      <trkpt lat="42.2026" lon="1.0952">
        <ele>897.19</ele>
        <time>2021-08-01T11:30:27Z</time>
      </trkpt>
      <trkpt lat="42.2025" lon="1.09493">
        <ele>896.13</ele>
        <time>2021-08-01T11:30:32Z</time>
      </trkpt>
      <trkpt lat="42.20231" lon="1.09427">
        <ele>894.09</ele>
        <time>2021-08-01T11:30:41Z</time>
      </trkpt>
      <trkpt lat="42.20232" lon="1.09418">
        <ele>893.81</ele>
        <time>2021-08-01T11:30:42Z</time>
      </trkpt>
      <trkpt lat="42.20213" lon="1.09292">
        <ele>890.51</ele>
        <time>2021-08-01T11:30:55Z</time>
      </trkpt>
      <trkpt lat="42.20207" lon="1.09262">
        <ele>889.45</ele>
        <time>2021-08-01T11:30:58Z</time>
      </trkpt>
      <trkpt lat="42.2021" lon="1.09163">
        <ele>886.17</ele>
        <time>2021-08-01T11:31:09Z</time>
      </trkpt>
      <trkpt lat="42.20185" lon="1.0912">
        <ele>884.36</ele>
        <time>2021-08-01T11:31:15Z</time>
      </trkpt>
      <trkpt lat="42.20157" lon="1.09098">
        <ele>883.53</ele>
        <time>2021-08-01T11:31:20Z</time>
      </trkpt>
      <trkpt lat="42.20148" lon="1.09088">
        <ele>883.56</ele>
        <time>2021-08-01T11:31:22Z</time>
      </trkpt>
      <trkpt lat="42.20131" lon="1.09055">
        <ele>883.71</ele>
        <time>2021-08-01T11:31:27Z</time>
      </trkpt>
      <trkpt lat="42.20127" lon="1.09016">
        <ele>883.78</ele>
        <time>2021-08-01T11:31:31Z</time>
      </trkpt>
      <trkpt lat="42.20147" lon="1.08965">
        <ele>882.87</ele>
        <time>2021-08-01T11:31:37Z</time>
      </trkpt>
      <trkpt lat="42.20157" lon="1.08951">
        <ele>881.89</ele>
        <time>2021-08-01T11:31:39Z</time>
      </trkpt>
      <trkpt lat="42.20163" lon="1.08905">
        <ele>879.41</ele>
        <time>2021-08-01T11:31:44Z</time>
      </trkpt>
      <trkpt lat="42.2018" lon="1.08852">
        <ele>875.92</ele>
        <time>2021-08-01T11:31:51Z</time>
      </trkpt>
      <trkpt lat="42.20204" lon="1.08824">
        <ele>874.22</ele>
        <time>2021-08-01T11:31:55Z</time>
      </trkpt>
      <trkpt lat="42.20202" lon="1.08777">
        <ele>870.52</ele>
        <time>2021-08-01T11:32:01Z</time>
      </trkpt>
      <trkpt lat="42.20197" lon="1.08769">
        <ele>870.01</ele>
        <time>2021-08-01T11:32:02Z</time>
      </trkpt>
      <trkpt lat="42.20187" lon="1.08756">
        <ele>869.19</ele>
        <time>2021-08-01T11:32:04Z</time>
      </trkpt>
      <trkpt lat="42.20167" lon="1.08702">
        <ele>867.68</ele>
        <time>2021-08-01T11:32:11Z</time>
      </trkpt>
      <trkpt lat="42.20149" lon="1.08672">
        <ele>866.07</ele>
        <time>2021-08-01T11:32:15Z</time>
      </trkpt>
      <trkpt lat="42.20136" lon="1.08638">
        <ele>864.87</ele>
        <time>2021-08-01T11:32:19Z</time>
      </trkpt>
      <trkpt lat="42.20122" lon="1.08591">
        <ele>861.48</ele>
        <time>2021-08-01T11:32:27Z</time>
      </trkpt>
      <trkpt lat="42.20106" lon="1.08563">
        <ele>860.34</ele>
        <time>2021-08-01T11:32:34Z</time>
      </trkpt>
      <trkpt lat="42.20096" lon="1.08535">
        <ele>860.35</ele>
        <time>2021-08-01T11:32:38Z</time>
      </trkpt>
      <trkpt lat="42.2008" lon="1.08449">
        <ele>860.4</ele>
        <time>2021-08-01T11:32:47Z</time>
      </trkpt>
      <trkpt lat="42.20088" lon="1.08417">
        <ele>859.81</ele>
        <time>2021-08-01T11:32:51Z</time>
      </trkpt>
      <trkpt lat="42.2012" lon="1.08328">
        <ele>856.29</ele>
        <time>2021-08-01T11:33:00Z</time>
      </trkpt>
      <trkpt lat="42.20135" lon="1.08256">
        <ele>853.22</ele>
        <time>2021-08-01T11:33:07Z</time>
      </trkpt>
      <trkpt lat="42.20145" lon="1.08177">
        <ele>851.7</ele>
        <time>2021-08-01T11:33:14Z</time>
      </trkpt>
      <trkpt lat="42.20143" lon="1.08125">
        <ele>851.19</ele>
        <time>2021-08-01T11:33:19Z</time>
      </trkpt>
      <trkpt lat="42.20151" lon="1.08097">
        <ele>850.54</ele>
        <time>2021-08-01T11:33:23Z</time>
      </trkpt>
      <trkpt lat="42.20166" lon="1.08064">
        <ele>849.4</ele>
        <time>2021-08-01T11:33:28Z</time>
      </trkpt>
      <trkpt lat="42.20167" lon="1.08003">
        <ele>848.28</ele>
        <time>2021-08-01T11:33:36Z</time>
      </trkpt>
      <trkpt lat="42.2016" lon="1.07985">
        <ele>848.28</ele>
        <time>2021-08-01T11:33:38Z</time>
      </trkpt>
      <trkpt lat="42.20152" lon="1.07951">
        <ele>848.29</ele>
        <time>2021-08-01T11:33:42Z</time>
      </trkpt>
      <trkpt lat="42.20148" lon="1.07928">
        <ele>847.8</ele>
        <time>2021-08-01T11:33:45Z</time>
      </trkpt>
      <trkpt lat="42.20133" lon="1.0789">
        <ele>844.95</ele>
        <time>2021-08-01T11:33:52Z</time>
      </trkpt>
      <trkpt lat="42.20116" lon="1.07872">
        <ele>844.47</ele>
        <time>2021-08-01T11:33:55Z</time>
      </trkpt>
      <trkpt lat="42.20104" lon="1.07795">
        <ele>844.39</ele>
        <time>2021-08-01T11:34:04Z</time>
      </trkpt>
      <trkpt lat="42.20112" lon="1.0777">
        <ele>844.33</ele>
        <time>2021-08-01T11:34:07Z</time>
      </trkpt>
      <trkpt lat="42.20135" lon="1.07698">
        <ele>841.15</ele>
        <time>2021-08-01T11:34:18Z</time>
      </trkpt>
      <trkpt lat="42.20139" lon="1.07679">
        <ele>839.75</ele>
        <time>2021-08-01T11:34:21Z</time>
      </trkpt>
      <trkpt lat="42.2017" lon="1.07623">
        <ele>836.21</ele>
        <time>2021-08-01T11:34:28Z</time>
      </trkpt>
      <trkpt lat="42.20214" lon="1.07576">
        <ele>832.82</ele>
        <time>2021-08-01T11:34:35Z</time>
      </trkpt>
      <trkpt lat="42.20219" lon="1.0757">
        <ele>832.43</ele>
        <time>2021-08-01T11:34:36Z</time>
      </trkpt>
      <trkpt lat="42.20234" lon="1.07541">
        <ele>831.3</ele>
        <time>2021-08-01T11:34:40Z</time>
      </trkpt>
      <trkpt lat="42.20212" lon="1.07471">
        <ele>830.35</ele>
        <time>2021-08-01T11:34:49Z</time>
      </trkpt>
      <trkpt lat="42.20209" lon="1.074">
        <ele>829.37</ele>
        <time>2021-08-01T11:34:55Z</time>
      </trkpt>
      <trkpt lat="42.20238" lon="1.07275">
        <ele>828.2</ele>
        <time>2021-08-01T11:35:06Z</time>
      </trkpt>
      <trkpt lat="42.20236" lon="1.07204">
        <ele>827.78</ele>
        <time>2021-08-01T11:35:14Z</time>
      </trkpt>
      <trkpt lat="42.20253" lon="1.07114">
        <ele>826.33</ele>
        <time>2021-08-01T11:35:24Z</time>
      </trkpt>
      <trkpt lat="42.20244" lon="1.07092">
        <ele>825.89</ele>
        <time>2021-08-01T11:35:29Z</time>
      </trkpt>
      <trkpt lat="42.20256" lon="1.07052">
        <ele>824.91</ele>
        <time>2021-08-01T11:35:35Z</time>
      </trkpt>
      <trkpt lat="42.20293" lon="1.0701">
        <ele>821.96</ele>
        <time>2021-08-01T11:35:43Z</time>
      </trkpt>
      <trkpt lat="42.20283" lon="1.06984">
        <ele>820.78</ele>
        <time>2021-08-01T11:35:49Z</time>
      </trkpt>
      <trkpt lat="42.20268" lon="1.06958">
        <ele>820.51</ele>
        <time>2021-08-01T11:35:53Z</time>
      </trkpt>
      <trkpt lat="42.20262" lon="1.06941">
        <ele>820.72</ele>
        <time>2021-08-01T11:35:55Z</time>
      </trkpt>
      <trkpt lat="42.20244" lon="1.06922">
        <ele>821.55</ele>
        <time>2021-08-01T11:35:59Z</time>
      </trkpt>
      <trkpt lat="42.20238" lon="1.06892">
        <ele>823.33</ele>
        <time>2021-08-01T11:36:04Z</time>
      </trkpt>
      <trkpt lat="42.2026" lon="1.06824">
        <ele>826.48</ele>
        <time>2021-08-01T11:36:13Z</time>
      </trkpt>
      <trkpt lat="42.20282" lon="1.06817">
        <ele>827.48</ele>
        <time>2021-08-01T11:36:18Z</time>
      </trkpt>
      <trkpt lat="42.20311" lon="1.06832">
        <ele>827.84</ele>
        <time>2021-08-01T11:36:24Z</time>
      </trkpt>
      <trkpt lat="42.20327" lon="1.06849">
        <ele>827.95</ele>
        <time>2021-08-01T11:36:28Z</time>
      </trkpt>
      <trkpt lat="42.20356" lon="1.06841">
        <ele>828.16</ele>
        <time>2021-08-01T11:36:36Z</time>
      </trkpt>
      <trkpt lat="42.20358" lon="1.06839">
        <ele>828.15</ele>
        <time>2021-08-01T11:36:37Z</time>
      </trkpt>
      <trkpt lat="42.20363" lon="1.06825">
        <ele>827.88</ele>
        <time>2021-08-01T11:36:44Z</time>
      </trkpt>
      <trkpt lat="42.20347" lon="1.06795">
        <ele>827.53</ele>
        <time>2021-08-01T11:36:56Z</time>
      </trkpt>
      <trkpt lat="42.20333" lon="1.06767">
        <ele>827.68</ele>
        <time>2021-08-01T11:37:00Z</time>
      </trkpt>
      <trkpt lat="42.20325" lon="1.06724">
        <ele>828.26</ele>
        <time>2021-08-01T11:37:04Z</time>
      </trkpt>
      <trkpt lat="42.20327" lon="1.06659">
        <ele>828.84</ele>
        <time>2021-08-01T11:37:11Z</time>
      </trkpt>
      <trkpt lat="42.20294" lon="1.06552">
        <ele>828.15</ele>
        <time>2021-08-01T11:37:24Z</time>
      </trkpt>
      <trkpt lat="42.20287" lon="1.06536">
        <ele>827.68</ele>
        <time>2021-08-01T11:37:26Z</time>
      </trkpt>
      <trkpt lat="42.20283" lon="1.0652">
        <ele>827.17</ele>
        <time>2021-08-01T11:37:28Z</time>
      </trkpt>
      <trkpt lat="42.20277" lon="1.06482">
        <ele>826.25</ele>
        <time>2021-08-01T11:37:32Z</time>
      </trkpt>
      <trkpt lat="42.20263" lon="1.06456">
        <ele>825.22</ele>
        <time>2021-08-01T11:37:36Z</time>
      </trkpt>
      <trkpt lat="42.20242" lon="1.06434">
        <ele>824.44</ele>
        <time>2021-08-01T11:37:49Z</time>
      </trkpt>
      <trkpt lat="42.20241" lon="1.06434">
        <ele>825.42</ele>
        <time>2021-08-01T11:38:52Z</time>
      </trkpt>
      <trkpt lat="42.2024" lon="1.06424">
        <ele>825.58</ele>
        <time>2021-08-01T11:39:03Z</time>
      </trkpt>
      <trkpt lat="42.2024" lon="1.06424">
        <ele>825.58</ele>
        <time>2021-08-01T11:40:22Z</time>
      </trkpt>
      <trkpt lat="42.20245" lon="1.06402">
        <ele>826.05</ele>
        <time>2021-08-01T11:42:07Z</time>
      </trkpt>
      <trkpt lat="42.20246" lon="1.064">
        <ele>826.84</ele>
        <time>2021-08-01T11:42:17Z</time>
      </trkpt>
      <trkpt lat="42.20253" lon="1.06376">
        <ele>827.11</ele>
        <time>2021-08-01T11:42:46Z</time>
      </trkpt>
      <trkpt lat="42.20265" lon="1.06328">
        <ele>827.51</ele>
        <time>2021-08-01T11:42:50Z</time>
      </trkpt>
      <trkpt lat="42.2026" lon="1.0626">
        <ele>827.1</ele>
        <time>2021-08-01T11:42:55Z</time>
      </trkpt>
      <trkpt lat="42.20246" lon="1.06143">
        <ele>827.53</ele>
        <time>2021-08-01T11:43:03Z</time>
      </trkpt>
      <trkpt lat="42.20221" lon="1.06074">
        <ele>828.07</ele>
        <time>2021-08-01T11:43:09Z</time>
      </trkpt>
      <trkpt lat="42.20186" lon="1.06004">
        <ele>828.36</ele>
        <time>2021-08-01T11:43:15Z</time>
      </trkpt>
      <trkpt lat="42.2017" lon="1.05963">
        <ele>828.07</ele>
        <time>2021-08-01T11:43:20Z</time>
      </trkpt>
      <trkpt lat="42.20172" lon="1.05939">
        <ele>828.16</ele>
        <time>2021-08-01T11:43:22Z</time>
      </trkpt>
      <trkpt lat="42.20172" lon="1.05917">
        <ele>828.3</ele>
        <time>2021-08-01T11:43:24Z</time>
      </trkpt>
      <trkpt lat="42.20184" lon="1.05851">
        <ele>829.56</ele>
        <time>2021-08-01T11:43:30Z</time>
      </trkpt>
      <trkpt lat="42.20219" lon="1.05792">
        <ele>830.53</ele>
        <time>2021-08-01T11:43:37Z</time>
      </trkpt>
      <trkpt lat="42.20252" lon="1.05762">
        <ele>831.41</ele>
        <time>2021-08-01T11:43:43Z</time>
      </trkpt>
      <trkpt lat="42.2025" lon="1.05765">
        <ele>832.01</ele>
        <time>2021-08-01T11:43:59Z</time>
      </trkpt>
      <trkpt lat="42.20277" lon="1.05754">
        <ele>832.13</ele>
        <time>2021-08-01T11:45:07Z</time>
      </trkpt>
      <trkpt lat="42.20281" lon="1.05753">
        <ele>832.28</ele>
        <time>2021-08-01T11:45:08Z</time>
      </trkpt>
      <trkpt lat="42.20303" lon="1.05759">
        <ele>833.51</ele>
        <time>2021-08-01T11:45:13Z</time>
      </trkpt>
      <trkpt lat="42.20314" lon="1.05765">
        <ele>833.98</ele>
        <time>2021-08-01T11:45:15Z</time>
      </trkpt>
      <trkpt lat="42.20352" lon="1.05741">
        <ele>835.65</ele>
        <time>2021-08-01T11:45:23Z</time>
      </trkpt>
      <trkpt lat="42.20361" lon="1.05708">
        <ele>836.05</ele>
        <time>2021-08-01T11:45:26Z</time>
      </trkpt>
      <trkpt lat="42.20398" lon="1.05631">
        <ele>836.92</ele>
        <time>2021-08-01T11:45:34Z</time>
      </trkpt>
      <trkpt lat="42.2042" lon="1.05615">
        <ele>836.94</ele>
        <time>2021-08-01T11:45:37Z</time>
      </trkpt>
      <trkpt lat="42.20439" lon="1.05589">
        <ele>836.83</ele>
        <time>2021-08-01T11:45:41Z</time>
      </trkpt>
      <trkpt lat="42.20449" lon="1.05545">
        <ele>837.18</ele>
        <time>2021-08-01T11:45:49Z</time>
      </trkpt>
      <trkpt lat="42.20416" lon="1.05536">
        <ele>837.44</ele>
        <time>2021-08-01T11:45:55Z</time>
      </trkpt>
      <trkpt lat="42.20378" lon="1.05515">
        <ele>838.7</ele>
        <time>2021-08-01T11:46:04Z</time>
      </trkpt>
      <trkpt lat="42.20374" lon="1.05461">
        <ele>838.68</ele>
        <time>2021-08-01T11:46:13Z</time>
      </trkpt>
      <trkpt lat="42.20375" lon="1.05428">
        <ele>838.9</ele>
        <time>2021-08-01T11:46:18Z</time>
      </trkpt>
      <trkpt lat="42.20383" lon="1.05397">
        <ele>839.36</ele>
        <time>2021-08-01T11:46:23Z</time>
      </trkpt>
      <trkpt lat="42.20376" lon="1.05361">
        <ele>839.82</ele>
        <time>2021-08-01T11:46:28Z</time>
      </trkpt>
      <trkpt lat="42.20366" lon="1.05324">
        <ele>839.88</ele>
        <time>2021-08-01T11:46:33Z</time>
      </trkpt>
      <trkpt lat="42.20372" lon="1.05235">
        <ele>840.13</ele>
        <time>2021-08-01T11:46:42Z</time>
      </trkpt>
      <trkpt lat="42.20392" lon="1.0519">
        <ele>840</ele>
        <time>2021-08-01T11:46:47Z</time>
      </trkpt>
      <trkpt lat="42.20397" lon="1.05156">
        <ele>840.07</ele>
        <time>2021-08-01T11:46:51Z</time>
      </trkpt>
      <trkpt lat="42.2041" lon="1.05122">
        <ele>839.93</ele>
        <time>2021-08-01T11:46:56Z</time>
      </trkpt>
      <trkpt lat="42.20418" lon="1.05088">
        <ele>838.95</ele>
        <time>2021-08-01T11:47:02Z</time>
      </trkpt>
      <trkpt lat="42.20409" lon="1.05074">
        <ele>838.75</ele>
        <time>2021-08-01T11:47:04Z</time>
      </trkpt>
      <trkpt lat="42.20398" lon="1.04993">
        <ele>837.93</ele>
        <time>2021-08-01T11:47:13Z</time>
      </trkpt>
      <trkpt lat="42.20401" lon="1.04985">
        <ele>837.82</ele>
        <time>2021-08-01T11:47:14Z</time>
      </trkpt>
      <trkpt lat="42.20417" lon="1.04935">
        <ele>837.13</ele>
        <time>2021-08-01T11:47:20Z</time>
      </trkpt>
      <trkpt lat="42.2046" lon="1.04902">
        <ele>835.38</ele>
        <time>2021-08-01T11:47:27Z</time>
      </trkpt>
      <trkpt lat="42.20465" lon="1.04893">
        <ele>835.16</ele>
        <time>2021-08-01T11:47:28Z</time>
      </trkpt>
      <trkpt lat="42.20473" lon="1.04874">
        <ele>834.58</ele>
        <time>2021-08-01T11:47:30Z</time>
      </trkpt>
      <trkpt lat="42.20465" lon="1.04845">
        <ele>833.28</ele>
        <time>2021-08-01T11:47:34Z</time>
      </trkpt>
      <trkpt lat="42.20463" lon="1.04819">
        <ele>832.17</ele>
        <time>2021-08-01T11:47:38Z</time>
      </trkpt>
      <trkpt lat="42.20463" lon="1.04811">
        <ele>830.02</ele>
        <time>2021-08-01T11:47:49Z</time>
      </trkpt>
      <trkpt lat="42.20458" lon="1.04793">
        <ele>829.55</ele>
        <time>2021-08-01T11:48:23Z</time>
      </trkpt>
      <trkpt lat="42.2043" lon="1.04777">
        <ele>829.66</ele>
        <time>2021-08-01T11:48:29Z</time>
      </trkpt>
      <trkpt lat="42.20407" lon="1.04774">
        <ele>829.45</ele>
        <time>2021-08-01T11:48:34Z</time>
      </trkpt>
      <trkpt lat="42.20406" lon="1.04773">
        <ele>826.92</ele>
        <time>2021-08-01T11:48:56Z</time>
      </trkpt>
      <trkpt lat="42.20381" lon="1.04753">
        <ele>826.36</ele>
        <time>2021-08-01T11:49:33Z</time>
      </trkpt>
      <trkpt lat="42.20352" lon="1.04734">
        <ele>826.39</ele>
        <time>2021-08-01T11:49:37Z</time>
      </trkpt>
      <trkpt lat="42.2032" lon="1.04699">
        <ele>826.03</ele>
        <time>2021-08-01T11:49:42Z</time>
      </trkpt>
      <trkpt lat="42.20303" lon="1.0466">
        <ele>825.43</ele>
        <time>2021-08-01T11:49:46Z</time>
      </trkpt>
      <trkpt lat="42.20296" lon="1.0462">
        <ele>824.59</ele>
        <time>2021-08-01T11:49:50Z</time>
      </trkpt>
      <trkpt lat="42.20325" lon="1.04548">
        <ele>822.63</ele>
        <time>2021-08-01T11:49:58Z</time>
      </trkpt>
      <trkpt lat="42.2037" lon="1.04535">
        <ele>823.15</ele>
        <time>2021-08-01T11:50:05Z</time>
      </trkpt>
      <trkpt lat="42.20381" lon="1.04531">
        <ele>823.47</ele>
        <time>2021-08-01T11:50:07Z</time>
      </trkpt>
      <trkpt lat="42.20393" lon="1.04492">
        <ele>824.84</ele>
        <time>2021-08-01T11:50:13Z</time>
      </trkpt>
      <trkpt lat="42.20392" lon="1.04476">
        <ele>825.35</ele>
        <time>2021-08-01T11:50:15Z</time>
      </trkpt>
      <trkpt lat="42.20393" lon="1.04461">
        <ele>826.01</ele>
        <time>2021-08-01T11:50:17Z</time>
      </trkpt>
      <trkpt lat="42.20372" lon="1.04436">
        <ele>828.16</ele>
        <time>2021-08-01T11:50:23Z</time>
      </trkpt>
      <trkpt lat="42.2036" lon="1.04431">
        <ele>829.02</ele>
        <time>2021-08-01T11:50:25Z</time>
      </trkpt>
      <trkpt lat="42.20343" lon="1.04378">
        <ele>830.6</ele>
        <time>2021-08-01T11:50:33Z</time>
      </trkpt>
      <trkpt lat="42.20363" lon="1.04356">
        <ele>831.31</ele>
        <time>2021-08-01T11:50:36Z</time>
      </trkpt>
      <trkpt lat="42.20418" lon="1.04307">
        <ele>834.91</ele>
        <time>2021-08-01T11:50:46Z</time>
      </trkpt>
      <trkpt lat="42.20462" lon="1.0428">
        <ele>838.15</ele>
        <time>2021-08-01T11:50:53Z</time>
      </trkpt>
      <trkpt lat="42.20468" lon="1.04277">
        <ele>838.64</ele>
        <time>2021-08-01T11:50:54Z</time>
      </trkpt>
      <trkpt lat="42.20509" lon="1.04279">
        <ele>842.28</ele>
        <time>2021-08-01T11:51:01Z</time>
      </trkpt>
      <trkpt lat="42.20534" lon="1.04289">
        <ele>845.71</ele>
        <time>2021-08-01T11:51:08Z</time>
      </trkpt>
      <trkpt lat="42.20532" lon="1.0429">
        <ele>848.42</ele>
        <time>2021-08-01T11:51:21Z</time>
      </trkpt>
      <trkpt lat="42.20563" lon="1.04319">
        <ele>850.08</ele>
        <time>2021-08-01T11:51:33Z</time>
      </trkpt>
      <trkpt lat="42.20591" lon="1.04328">
        <ele>851.62</ele>
        <time>2021-08-01T11:51:40Z</time>
      </trkpt>
      <trkpt lat="42.20614" lon="1.04319">
        <ele>852.91</ele>
        <time>2021-08-01T11:51:45Z</time>
      </trkpt>
      <trkpt lat="42.20631" lon="1.04304">
        <ele>853.64</ele>
        <time>2021-08-01T11:51:48Z</time>
      </trkpt>
      <trkpt lat="42.20639" lon="1.04261">
        <ele>855.24</ele>
        <time>2021-08-01T11:51:53Z</time>
      </trkpt>
      <trkpt lat="42.20633" lon="1.04156">
        <ele>859.52</ele>
        <time>2021-08-01T11:52:01Z</time>
      </trkpt>
      <trkpt lat="42.20633" lon="1.04147">
        <ele>860.16</ele>
        <time>2021-08-01T11:52:02Z</time>
      </trkpt>
      <trkpt lat="42.20616" lon="1.04115">
        <ele>862.93</ele>
        <time>2021-08-01T11:52:06Z</time>
      </trkpt>
      <trkpt lat="42.20619" lon="1.04052">
        <ele>865.75</ele>
        <time>2021-08-01T11:52:13Z</time>
      </trkpt>
      <trkpt lat="42.20627" lon="1.04046">
        <ele>866.08</ele>
        <time>2021-08-01T11:52:14Z</time>
      </trkpt>
      <trkpt lat="42.20669" lon="1.03987">
        <ele>867.88</ele>
        <time>2021-08-01T11:52:20Z</time>
      </trkpt>
      <trkpt lat="42.20693" lon="1.03892">
        <ele>870.14</ele>
        <time>2021-08-01T11:52:27Z</time>
      </trkpt>
      <trkpt lat="42.20681" lon="1.03842">
        <ele>871.44</ele>
        <time>2021-08-01T11:52:31Z</time>
      </trkpt>
      <trkpt lat="42.20661" lon="1.03737">
        <ele>873.56</ele>
        <time>2021-08-01T11:52:38Z</time>
      </trkpt>
      <trkpt lat="42.2067" lon="1.03638">
        <ele>874.86</ele>
        <time>2021-08-01T11:52:44Z</time>
      </trkpt>
      <trkpt lat="42.20682" lon="1.03608">
        <ele>875.47</ele>
        <time>2021-08-01T11:52:47Z</time>
      </trkpt>
      <trkpt lat="42.20669" lon="1.03541">
        <ele>876.8</ele>
        <time>2021-08-01T11:52:53Z</time>
      </trkpt>
      <trkpt lat="42.20661" lon="1.03517">
        <ele>877.29</ele>
        <time>2021-08-01T11:52:55Z</time>
      </trkpt>
      <trkpt lat="42.20652" lon="1.03487">
        <ele>878.51</ele>
        <time>2021-08-01T11:52:58Z</time>
      </trkpt>
      <trkpt lat="42.20666" lon="1.03405">
        <ele>881.26</ele>
        <time>2021-08-01T11:53:06Z</time>
      </trkpt>
      <trkpt lat="42.20685" lon="1.03373">
        <ele>882.49</ele>
        <time>2021-08-01T11:53:09Z</time>
      </trkpt>
      <trkpt lat="42.20709" lon="1.03272">
        <ele>885.15</ele>
        <time>2021-08-01T11:53:16Z</time>
      </trkpt>
      <trkpt lat="42.20707" lon="1.03204">
        <ele>885.17</ele>
        <time>2021-08-01T11:53:22Z</time>
      </trkpt>
      <trkpt lat="42.20718" lon="1.03176">
        <ele>883.62</ele>
        <time>2021-08-01T11:53:27Z</time>
      </trkpt>
      <trkpt lat="42.20722" lon="1.03171">
        <ele>880.18</ele>
        <time>2021-08-01T11:53:41Z</time>
      </trkpt>
      <trkpt lat="42.2072" lon="1.03174">
        <ele>879.44</ele>
        <time>2021-08-01T11:53:51Z</time>
      </trkpt>
      <trkpt lat="42.2072" lon="1.03174">
        <ele>879.65</ele>
        <time>2021-08-01T11:55:00Z</time>
      </trkpt>
      <trkpt lat="42.20728" lon="1.03164">
        <ele>879.78</ele>
        <time>2021-08-01T11:56:06Z</time>
      </trkpt>
      <trkpt lat="42.20763" lon="1.03154">
        <ele>879.22</ele>
        <time>2021-08-01T11:56:13Z</time>
      </trkpt>
      <trkpt lat="42.20767" lon="1.03137">
        <ele>878.82</ele>
        <time>2021-08-01T11:56:15Z</time>
      </trkpt>
      <trkpt lat="42.20785" lon="1.03091">
        <ele>877.93</ele>
        <time>2021-08-01T11:56:20Z</time>
      </trkpt>
      <trkpt lat="42.20829" lon="1.03025">
        <ele>874.32</ele>
        <time>2021-08-01T11:56:28Z</time>
      </trkpt>
      <trkpt lat="42.20854" lon="1.02987">
        <ele>872.21</ele>
        <time>2021-08-01T11:56:32Z</time>
      </trkpt>
      <trkpt lat="42.20861" lon="1.02983">
        <ele>871.71</ele>
        <time>2021-08-01T11:56:33Z</time>
      </trkpt>
      <trkpt lat="42.20868" lon="1.02981">
        <ele>871.14</ele>
        <time>2021-08-01T11:56:34Z</time>
      </trkpt>
      <trkpt lat="42.20878" lon="1.02984">
        <ele>870.6</ele>
        <time>2021-08-01T11:56:35Z</time>
      </trkpt>
      <trkpt lat="42.20896" lon="1.02989">
        <ele>869.81</ele>
        <time>2021-08-01T11:56:37Z</time>
      </trkpt>
      <trkpt lat="42.20938" lon="1.02954">
        <ele>868.74</ele>
        <time>2021-08-01T11:56:43Z</time>
      </trkpt>
      <trkpt lat="42.2097" lon="1.02923">
        <ele>868.43</ele>
        <time>2021-08-01T11:56:48Z</time>
      </trkpt>
      <trkpt lat="42.20986" lon="1.02893">
        <ele>868.42</ele>
        <time>2021-08-01T11:56:51Z</time>
      </trkpt>
      <trkpt lat="42.20981" lon="1.02846">
        <ele>869.27</ele>
        <time>2021-08-01T11:56:56Z</time>
      </trkpt>
      <trkpt lat="42.20965" lon="1.02829">
        <ele>869.36</ele>
        <time>2021-08-01T11:56:58Z</time>
      </trkpt>
      <trkpt lat="42.20948" lon="1.02795">
        <ele>869.48</ele>
        <time>2021-08-01T11:57:01Z</time>
      </trkpt>
      <trkpt lat="42.20947" lon="1.02781">
        <ele>869.57</ele>
        <time>2021-08-01T11:57:02Z</time>
      </trkpt>
      <trkpt lat="42.20947" lon="1.02767">
        <ele>869.79</ele>
        <time>2021-08-01T11:57:03Z</time>
      </trkpt>
      <trkpt lat="42.20973" lon="1.027">
        <ele>870.51</ele>
        <time>2021-08-01T11:57:09Z</time>
      </trkpt>
      <trkpt lat="42.21024" lon="1.02657">
        <ele>869.82</ele>
        <time>2021-08-01T11:57:14Z</time>
      </trkpt>
      <trkpt lat="42.2105" lon="1.02638">
        <ele>869.32</ele>
        <time>2021-08-01T11:57:17Z</time>
      </trkpt>
      <trkpt lat="42.21106" lon="1.02578">
        <ele>867.67</ele>
        <time>2021-08-01T11:57:25Z</time>
      </trkpt>
      <trkpt lat="42.2114" lon="1.02566">
        <ele>866.3</ele>
        <time>2021-08-01T11:57:29Z</time>
      </trkpt>
      <trkpt lat="42.21163" lon="1.02567">
        <ele>864.82</ele>
        <time>2021-08-01T11:57:32Z</time>
      </trkpt>
      <trkpt lat="42.21174" lon="1.02569">
        <ele>862.13</ele>
        <time>2021-08-01T11:57:38Z</time>
      </trkpt>
      <trkpt lat="42.21179" lon="1.02566">
        <ele>860.24</ele>
        <time>2021-08-01T11:57:54Z</time>
      </trkpt>
      <trkpt lat="42.21204" lon="1.02542">
        <ele>860.68</ele>
        <time>2021-08-01T11:58:05Z</time>
      </trkpt>
      <trkpt lat="42.2124" lon="1.02493">
        <ele>862.67</ele>
        <time>2021-08-01T11:58:11Z</time>
      </trkpt>
      <trkpt lat="42.21291" lon="1.02443">
        <ele>864.4</ele>
        <time>2021-08-01T11:58:21Z</time>
      </trkpt>
      <trkpt lat="42.21303" lon="1.02424">
        <ele>864.37</ele>
        <time>2021-08-01T11:58:24Z</time>
      </trkpt>
      <trkpt lat="42.21356" lon="1.02352">
        <ele>865.02</ele>
        <time>2021-08-01T11:58:33Z</time>
      </trkpt>
      <trkpt lat="42.21367" lon="1.02337">
        <ele>865.82</ele>
        <time>2021-08-01T11:58:35Z</time>
      </trkpt>
      <trkpt lat="42.21394" lon="1.02327">
        <ele>866.42</ele>
        <time>2021-08-01T11:58:39Z</time>
      </trkpt>
      <trkpt lat="42.2142" lon="1.02328">
        <ele>867.12</ele>
        <time>2021-08-01T11:58:42Z</time>
      </trkpt>
      <trkpt lat="42.21473" lon="1.02275">
        <ele>867.97</ele>
        <time>2021-08-01T11:58:50Z</time>
      </trkpt>
      <trkpt lat="42.21492" lon="1.02231">
        <ele>867.78</ele>
        <time>2021-08-01T11:58:54Z</time>
      </trkpt>
      <trkpt lat="42.21502" lon="1.02209">
        <ele>866.67</ele>
        <time>2021-08-01T11:58:58Z</time>
      </trkpt>
      <trkpt lat="42.21502" lon="1.02185">
        <ele>863.07</ele>
        <time>2021-08-01T11:59:06Z</time>
      </trkpt>
      <trkpt lat="42.21504" lon="1.02183">
        <ele>861.38</ele>
        <time>2021-08-01T11:59:15Z</time>
      </trkpt>
      <trkpt lat="42.21506" lon="1.02182">
        <ele>861.3</ele>
        <time>2021-08-01T11:59:16Z</time>
      </trkpt>
      <trkpt lat="42.2151" lon="1.02181">
        <ele>861.22</ele>
        <time>2021-08-01T11:59:17Z</time>
      </trkpt>
      <trkpt lat="42.21568" lon="1.02155">
        <ele>861.6</ele>
        <time>2021-08-01T11:59:24Z</time>
      </trkpt>
      <trkpt lat="42.21579" lon="1.02147">
        <ele>861.8</ele>
        <time>2021-08-01T11:59:25Z</time>
      </trkpt>
      <trkpt lat="42.21621" lon="1.02077">
        <ele>862.49</ele>
        <time>2021-08-01T11:59:30Z</time>
      </trkpt>
      <trkpt lat="42.21675" lon="1.01945">
        <ele>861.27</ele>
        <time>2021-08-01T11:59:37Z</time>
      </trkpt>
      <trkpt lat="42.21684" lon="1.01878">
        <ele>857.84</ele>
        <time>2021-08-01T11:59:41Z</time>
      </trkpt>
      <trkpt lat="42.2168" lon="1.01809">
        <ele>853.73</ele>
        <time>2021-08-01T11:59:45Z</time>
      </trkpt>
      <trkpt lat="42.21679" lon="1.01762">
        <ele>850.74</ele>
        <time>2021-08-01T11:59:48Z</time>
      </trkpt>
      <trkpt lat="42.21698" lon="1.01722">
        <ele>846.04</ele>
        <time>2021-08-01T11:59:52Z</time>
      </trkpt>
      <trkpt lat="42.21716" lon="1.0172">
        <ele>843.72</ele>
        <time>2021-08-01T11:59:54Z</time>
      </trkpt>
      <trkpt lat="42.21752" lon="1.01698">
        <ele>840.27</ele>
        <time>2021-08-01T11:59:58Z</time>
      </trkpt>
      <trkpt lat="42.21744" lon="1.016">
        <ele>836.15</ele>
        <time>2021-08-01T12:00:04Z</time>
      </trkpt>
      <trkpt lat="42.21729" lon="1.0157">
        <ele>835.17</ele>
        <time>2021-08-01T12:00:06Z</time>
      </trkpt>
      <trkpt lat="42.21722" lon="1.01499">
        <ele>831.47</ele>
        <time>2021-08-01T12:00:11Z</time>
      </trkpt>
      <trkpt lat="42.21736" lon="1.01434">
        <ele>828.27</ele>
        <time>2021-08-01T12:00:15Z</time>
      </trkpt>
      <trkpt lat="42.21736" lon="1.01418">
        <ele>827.34</ele>
        <time>2021-08-01T12:00:16Z</time>
      </trkpt>
      <trkpt lat="42.21734" lon="1.01374">
        <ele>822.94</ele>
        <time>2021-08-01T12:00:19Z</time>
      </trkpt>
      <trkpt lat="42.21735" lon="1.01362">
        <ele>821.91</ele>
        <time>2021-08-01T12:00:20Z</time>
      </trkpt>
      <trkpt lat="42.21753" lon="1.01332">
        <ele>817.84</ele>
        <time>2021-08-01T12:00:24Z</time>
      </trkpt>
      <trkpt lat="42.21771" lon="1.01322">
        <ele>815.97</ele>
        <time>2021-08-01T12:00:26Z</time>
      </trkpt>
      <trkpt lat="42.21789" lon="1.01311">
        <ele>814.45</ele>
        <time>2021-08-01T12:00:28Z</time>
      </trkpt>
      <trkpt lat="42.21835" lon="1.0129">
        <ele>810.01</ele>
        <time>2021-08-01T12:00:33Z</time>
      </trkpt>
      <trkpt lat="42.21848" lon="1.01268">
        <ele>808.28</ele>
        <time>2021-08-01T12:00:35Z</time>
      </trkpt>
      <trkpt lat="42.21865" lon="1.01231">
        <ele>805.95</ele>
        <time>2021-08-01T12:00:38Z</time>
      </trkpt>
      <trkpt lat="42.21873" lon="1.01181">
        <ele>803.01</ele>
        <time>2021-08-01T12:00:42Z</time>
      </trkpt>
      <trkpt lat="42.21901" lon="1.01106">
        <ele>799.19</ele>
        <time>2021-08-01T12:00:49Z</time>
      </trkpt>
      <trkpt lat="42.21951" lon="1.01095">
        <ele>797.2</ele>
        <time>2021-08-01T12:00:54Z</time>
      </trkpt>
      <trkpt lat="42.21982" lon="1.01097">
        <ele>794.89</ele>
        <time>2021-08-01T12:00:59Z</time>
      </trkpt>
      <trkpt lat="42.21968" lon="1.01046">
        <ele>793.03</ele>
        <time>2021-08-01T12:01:03Z</time>
      </trkpt>
      <trkpt lat="42.21963" lon="1.0101">
        <ele>792.75</ele>
        <time>2021-08-01T12:01:05Z</time>
      </trkpt>
      <trkpt lat="42.21977" lon="1.00955">
        <ele>792.58</ele>
        <time>2021-08-01T12:01:09Z</time>
      </trkpt>
      <trkpt lat="42.21997" lon="1.0094">
        <ele>792.39</ele>
        <time>2021-08-01T12:01:11Z</time>
      </trkpt>
      <trkpt lat="42.22026" lon="1.00911">
        <ele>791.69</ele>
        <time>2021-08-01T12:01:14Z</time>
      </trkpt>
      <trkpt lat="42.22094" lon="1.00839">
        <ele>788.75</ele>
        <time>2021-08-01T12:01:21Z</time>
      </trkpt>
      <trkpt lat="42.22131" lon="1.00759">
        <ele>784.63</ele>
        <time>2021-08-01T12:01:27Z</time>
      </trkpt>
      <trkpt lat="42.22145" lon="1.00734">
        <ele>783.26</ele>
        <time>2021-08-01T12:01:29Z</time>
      </trkpt>
      <trkpt lat="42.22198" lon="1.00689">
        <ele>779.81</ele>
        <time>2021-08-01T12:01:34Z</time>
      </trkpt>
      <trkpt lat="42.22236" lon="1.00636">
        <ele>777.44</ele>
        <time>2021-08-01T12:01:38Z</time>
      </trkpt>
      <trkpt lat="42.22264" lon="1.00571">
        <ele>774.6</ele>
        <time>2021-08-01T12:01:43Z</time>
      </trkpt>
      <trkpt lat="42.22244" lon="1.00553">
        <ele>770.49</ele>
        <time>2021-08-01T12:01:48Z</time>
      </trkpt>
      <trkpt lat="42.22212" lon="1.00603">
        <ele>767.3</ele>
        <time>2021-08-01T12:01:52Z</time>
      </trkpt>
      <trkpt lat="42.22155" lon="1.00619">
        <ele>765.25</ele>
        <time>2021-08-01T12:01:56Z</time>
      </trkpt>
      <trkpt lat="42.221" lon="1.00607">
        <ele>762.34</ele>
        <time>2021-08-01T12:02:01Z</time>
      </trkpt>
      <trkpt lat="42.22069" lon="1.00653">
        <ele>758.99</ele>
        <time>2021-08-01T12:02:05Z</time>
      </trkpt>
      <trkpt lat="42.22036" lon="1.00661">
        <ele>755.53</ele>
        <time>2021-08-01T12:02:09Z</time>
      </trkpt>
      <trkpt lat="42.22016" lon="1.00609">
        <ele>752.51</ele>
        <time>2021-08-01T12:02:13Z</time>
      </trkpt>
      <trkpt lat="42.21985" lon="1.00586">
        <ele>749.33</ele>
        <time>2021-08-01T12:02:17Z</time>
      </trkpt>
      <trkpt lat="42.21995" lon="1.0056">
        <ele>746.56</ele>
        <time>2021-08-01T12:02:20Z</time>
      </trkpt>
      <trkpt lat="42.22066" lon="1.00484">
        <ele>742.99</ele>
        <time>2021-08-01T12:02:26Z</time>
      </trkpt>
      <trkpt lat="42.22162" lon="1.00375">
        <ele>739.58</ele>
        <time>2021-08-01T12:02:33Z</time>
      </trkpt>
      <trkpt lat="42.22175" lon="1.00363">
        <ele>738.82</ele>
        <time>2021-08-01T12:02:34Z</time>
      </trkpt>
      <trkpt lat="42.22236" lon="1.00264">
        <ele>734.56</ele>
        <time>2021-08-01T12:02:40Z</time>
      </trkpt>
      <trkpt lat="42.22254" lon="1.0023">
        <ele>732.84</ele>
        <time>2021-08-01T12:02:42Z</time>
      </trkpt>
      <trkpt lat="42.223" lon="1.00205">
        <ele>727.96</ele>
        <time>2021-08-01T12:02:46Z</time>
      </trkpt>
      <trkpt lat="42.22332" lon="1.00194">
        <ele>723.98</ele>
        <time>2021-08-01T12:02:49Z</time>
      </trkpt>
      <trkpt lat="42.22341" lon="1.00165">
        <ele>719.96</ele>
        <time>2021-08-01T12:02:52Z</time>
      </trkpt>
      <trkpt lat="42.22303" lon="1.00116">
        <ele>716.64</ele>
        <time>2021-08-01T12:02:55Z</time>
      </trkpt>
      <trkpt lat="42.22272" lon="1.0009">
        <ele>714.94</ele>
        <time>2021-08-01T12:02:57Z</time>
      </trkpt>
      <trkpt lat="42.22247" lon="1.0007">
        <ele>713.53</ele>
        <time>2021-08-01T12:02:59Z</time>
      </trkpt>
      <trkpt lat="42.22242" lon="1.00016">
        <ele>708.88</ele>
        <time>2021-08-01T12:03:04Z</time>
      </trkpt>
      <trkpt lat="42.22269" lon="0.99984">
        <ele>705.85</ele>
        <time>2021-08-01T12:03:07Z</time>
      </trkpt>
      <trkpt lat="42.22326" lon="0.99959">
        <ele>702.26</ele>
        <time>2021-08-01T12:03:11Z</time>
      </trkpt>
      <trkpt lat="42.22341" lon="0.99957">
        <ele>701.69</ele>
        <time>2021-08-01T12:03:12Z</time>
      </trkpt>
      <trkpt lat="42.22367" lon="0.99955">
        <ele>700.47</ele>
        <time>2021-08-01T12:03:14Z</time>
      </trkpt>
      <trkpt lat="42.22385" lon="0.9993">
        <ele>696.28</ele>
        <time>2021-08-01T12:03:18Z</time>
      </trkpt>
      <trkpt lat="42.22326" lon="0.99902">
        <ele>691.32</ele>
        <time>2021-08-01T12:03:24Z</time>
      </trkpt>
      <trkpt lat="42.22341" lon="0.99849">
        <ele>689.05</ele>
        <time>2021-08-01T12:03:30Z</time>
      </trkpt>
      <trkpt lat="42.22373" lon="0.99887">
        <ele>687</ele>
        <time>2021-08-01T12:03:34Z</time>
      </trkpt>
      <trkpt lat="42.22399" lon="0.99879">
        <ele>683.92</ele>
        <time>2021-08-01T12:03:37Z</time>
      </trkpt>
      <trkpt lat="42.22416" lon="0.99808">
        <ele>682.15</ele>
        <time>2021-08-01T12:03:41Z</time>
      </trkpt>
      <trkpt lat="42.2241" lon="0.99784">
        <ele>681.7</ele>
        <time>2021-08-01T12:03:42Z</time>
      </trkpt>
      <trkpt lat="42.22441" lon="0.99674">
        <ele>678.01</ele>
        <time>2021-08-01T12:03:49Z</time>
      </trkpt>
      <trkpt lat="42.22465" lon="0.99657">
        <ele>676.31</ele>
        <time>2021-08-01T12:03:51Z</time>
      </trkpt>
      <trkpt lat="42.22494" lon="0.99644">
        <ele>674.79</ele>
        <time>2021-08-01T12:03:53Z</time>
      </trkpt>
      <trkpt lat="42.22565" lon="0.99558">
        <ele>671.08</ele>
        <time>2021-08-01T12:03:59Z</time>
      </trkpt>
      <trkpt lat="42.22606" lon="0.99534">
        <ele>668.32</ele>
        <time>2021-08-01T12:04:02Z</time>
      </trkpt>
      <trkpt lat="42.22664" lon="0.99535">
        <ele>664.97</ele>
        <time>2021-08-01T12:04:06Z</time>
      </trkpt>
      <trkpt lat="42.22743" lon="0.99511">
        <ele>661.32</ele>
        <time>2021-08-01T12:04:11Z</time>
      </trkpt>
      <trkpt lat="42.22813" lon="0.99508">
        <ele>657.43</ele>
        <time>2021-08-01T12:04:17Z</time>
      </trkpt>
      <trkpt lat="42.22824" lon="0.9952">
        <ele>656.94</ele>
        <time>2021-08-01T12:04:18Z</time>
      </trkpt>
      <trkpt lat="42.22853" lon="0.99565">
        <ele>655.86</ele>
        <time>2021-08-01T12:04:21Z</time>
      </trkpt>
      <trkpt lat="42.22892" lon="0.99581">
        <ele>653.22</ele>
        <time>2021-08-01T12:04:26Z</time>
      </trkpt>
      <trkpt lat="42.22907" lon="0.99526">
        <ele>649.94</ele>
        <time>2021-08-01T12:04:31Z</time>
      </trkpt>
      <trkpt lat="42.22904" lon="0.99513">
        <ele>649.64</ele>
        <time>2021-08-01T12:04:32Z</time>
      </trkpt>
      <trkpt lat="42.22859" lon="0.99443">
        <ele>648.13</ele>
        <time>2021-08-01T12:04:36Z</time>
      </trkpt>
      <trkpt lat="42.22768" lon="0.99335">
        <ele>645.46</ele>
        <time>2021-08-01T12:04:42Z</time>
      </trkpt>
      <trkpt lat="42.2272" lon="0.99228">
        <ele>641.02</ele>
        <time>2021-08-01T12:04:48Z</time>
      </trkpt>
      <trkpt lat="42.22683" lon="0.99213">
        <ele>638.01</ele>
        <time>2021-08-01T12:04:51Z</time>
      </trkpt>
      <trkpt lat="42.22656" lon="0.99208">
        <ele>636.83</ele>
        <time>2021-08-01T12:04:53Z</time>
      </trkpt>
      <trkpt lat="42.22634" lon="0.99194">
        <ele>635.99</ele>
        <time>2021-08-01T12:04:55Z</time>
      </trkpt>
      <trkpt lat="42.22628" lon="0.99182">
        <ele>635.4</ele>
        <time>2021-08-01T12:04:56Z</time>
      </trkpt>
      <trkpt lat="42.22624" lon="0.99169">
        <ele>634.72</ele>
        <time>2021-08-01T12:04:57Z</time>
      </trkpt>
      <trkpt lat="42.22623" lon="0.99157">
        <ele>633.98</ele>
        <time>2021-08-01T12:04:58Z</time>
      </trkpt>
      <trkpt lat="42.22619" lon="0.99135">
        <ele>632.27</ele>
        <time>2021-08-01T12:05:00Z</time>
      </trkpt>
      <trkpt lat="42.22603" lon="0.991">
        <ele>627.23</ele>
        <time>2021-08-01T12:05:05Z</time>
      </trkpt>
      <trkpt lat="42.22602" lon="0.99096">
        <ele>626.18</ele>
        <time>2021-08-01T12:05:06Z</time>
      </trkpt>
      <trkpt lat="42.2262" lon="0.99078">
        <ele>621.43</ele>
        <time>2021-08-01T12:05:11Z</time>
      </trkpt>
      <trkpt lat="42.22644" lon="0.99069">
        <ele>619.89</ele>
        <time>2021-08-01T12:05:14Z</time>
      </trkpt>
      <trkpt lat="42.22669" lon="0.99038">
        <ele>617.99</ele>
        <time>2021-08-01T12:05:18Z</time>
      </trkpt>
      <trkpt lat="42.22681" lon="0.9901">
        <ele>617.08</ele>
        <time>2021-08-01T12:05:21Z</time>
      </trkpt>
      <trkpt lat="42.22717" lon="0.99028">
        <ele>615.42</ele>
        <time>2021-08-01T12:05:26Z</time>
      </trkpt>
      <trkpt lat="42.22791" lon="0.99089">
        <ele>613.53</ele>
        <time>2021-08-01T12:05:32Z</time>
      </trkpt>
      <trkpt lat="42.22834" lon="0.99091">
        <ele>611.4</ele>
        <time>2021-08-01T12:05:36Z</time>
      </trkpt>
      <trkpt lat="42.2286" lon="0.9908">
        <ele>609.33</ele>
        <time>2021-08-01T12:05:39Z</time>
      </trkpt>
      <trkpt lat="42.22842" lon="0.99032">
        <ele>605.34</ele>
        <time>2021-08-01T12:05:44Z</time>
      </trkpt>
      <trkpt lat="42.22834" lon="0.99016">
        <ele>604.79</ele>
        <time>2021-08-01T12:05:45Z</time>
      </trkpt>
      <trkpt lat="42.2279" lon="0.98925">
        <ele>603.34</ele>
        <time>2021-08-01T12:05:50Z</time>
      </trkpt>
      <trkpt lat="42.22769" lon="0.98874">
        <ele>602.03</ele>
        <time>2021-08-01T12:05:53Z</time>
      </trkpt>
      <trkpt lat="42.22714" lon="0.98821">
        <ele>597.38</ele>
        <time>2021-08-01T12:05:58Z</time>
      </trkpt>
      <trkpt lat="42.22689" lon="0.98817">
        <ele>595.41</ele>
        <time>2021-08-01T12:06:00Z</time>
      </trkpt>
      <trkpt lat="42.22666" lon="0.98779">
        <ele>592.24</ele>
        <time>2021-08-01T12:06:04Z</time>
      </trkpt>
      <trkpt lat="42.22641" lon="0.98691">
        <ele>589.71</ele>
        <time>2021-08-01T12:06:09Z</time>
      </trkpt>
      <trkpt lat="42.2261" lon="0.98637">
        <ele>588.24</ele>
        <time>2021-08-01T12:06:12Z</time>
      </trkpt>
      <trkpt lat="42.22563" lon="0.98598">
        <ele>585.75</ele>
        <time>2021-08-01T12:06:16Z</time>
      </trkpt>
      <trkpt lat="42.22524" lon="0.98546">
        <ele>583.68</ele>
        <time>2021-08-01T12:06:20Z</time>
      </trkpt>
      <trkpt lat="42.22481" lon="0.98432">
        <ele>579.59</ele>
        <time>2021-08-01T12:06:26Z</time>
      </trkpt>
      <trkpt lat="42.22445" lon="0.98358">
        <ele>575.82</ele>
        <time>2021-08-01T12:06:30Z</time>
      </trkpt>
      <trkpt lat="42.22425" lon="0.98254">
        <ele>571.5</ele>
        <time>2021-08-01T12:06:35Z</time>
      </trkpt>
      <trkpt lat="42.22422" lon="0.98221">
        <ele>568.45</ele>
        <time>2021-08-01T12:06:37Z</time>
      </trkpt>
      <trkpt lat="42.22417" lon="0.98189">
        <ele>564.63</ele>
        <time>2021-08-01T12:06:39Z</time>
      </trkpt>
      <trkpt lat="42.22409" lon="0.9816">
        <ele>561.19</ele>
        <time>2021-08-01T12:06:41Z</time>
      </trkpt>
      <trkpt lat="42.22397" lon="0.98131">
        <ele>556.54</ele>
        <time>2021-08-01T12:06:44Z</time>
      </trkpt>
      <trkpt lat="42.2239" lon="0.98119">
        <ele>552.28</ele>
        <time>2021-08-01T12:06:47Z</time>
      </trkpt>
      <trkpt lat="42.22387" lon="0.98113">
        <ele>548.51</ele>
        <time>2021-08-01T12:06:50Z</time>
      </trkpt>
      <trkpt lat="42.22382" lon="0.98106">
        <ele>544.16</ele>
        <time>2021-08-01T12:06:54Z</time>
      </trkpt>
      <trkpt lat="42.22351" lon="0.98061">
        <ele>541.21</ele>
        <time>2021-08-01T12:07:01Z</time>
      </trkpt>
      <trkpt lat="42.22302" lon="0.9799">
        <ele>538.81</ele>
        <time>2021-08-01T12:07:08Z</time>
      </trkpt>
      <trkpt lat="42.22306" lon="0.9793">
        <ele>535.1</ele>
        <time>2021-08-01T12:07:13Z</time>
      </trkpt>
      <trkpt lat="42.22313" lon="0.97919">
        <ele>534.31</ele>
        <time>2021-08-01T12:07:14Z</time>
      </trkpt>
      <trkpt lat="42.22349" lon="0.9786">
        <ele>529.74</ele>
        <time>2021-08-01T12:07:20Z</time>
      </trkpt>
      <trkpt lat="42.22364" lon="0.97831">
        <ele>526.72</ele>
        <time>2021-08-01T12:07:24Z</time>
      </trkpt>
      <trkpt lat="42.22368" lon="0.97825">
        <ele>523.36</ele>
        <time>2021-08-01T12:07:30Z</time>
      </trkpt>
      <trkpt lat="42.22397" lon="0.978">
        <ele>521.37</ele>
        <time>2021-08-01T12:07:42Z</time>
      </trkpt>
      <trkpt lat="42.22431" lon="0.97777">
        <ele>520.68</ele>
        <time>2021-08-01T12:07:46Z</time>
      </trkpt>
      <trkpt lat="42.2244" lon="0.97773">
        <ele>520.5</ele>
        <time>2021-08-01T12:07:47Z</time>
      </trkpt>
      <trkpt lat="42.22451" lon="0.97771">
        <ele>520.29</ele>
        <time>2021-08-01T12:07:48Z</time>
      </trkpt>
      <trkpt lat="42.22471" lon="0.97772">
        <ele>519.89</ele>
        <time>2021-08-01T12:07:50Z</time>
      </trkpt>
      <trkpt lat="42.22503" lon="0.97778">
        <ele>518.67</ele>
        <time>2021-08-01T12:07:54Z</time>
      </trkpt>
      <trkpt lat="42.22519" lon="0.97738">
        <ele>515.41</ele>
        <time>2021-08-01T12:08:01Z</time>
      </trkpt>
      <trkpt lat="42.22516" lon="0.97727">
        <ele>515.04</ele>
        <time>2021-08-01T12:08:02Z</time>
      </trkpt>
      <trkpt lat="42.22497" lon="0.97681">
        <ele>513.78</ele>
        <time>2021-08-01T12:08:06Z</time>
      </trkpt>
      <trkpt lat="42.22461" lon="0.97648">
        <ele>511.38</ele>
        <time>2021-08-01T12:08:11Z</time>
      </trkpt>
      <trkpt lat="42.22421" lon="0.97619">
        <ele>508.8</ele>
        <time>2021-08-01T12:08:16Z</time>
      </trkpt>
      <trkpt lat="42.2242" lon="0.97577">
        <ele>504.69</ele>
        <time>2021-08-01T12:08:22Z</time>
      </trkpt>
      <trkpt lat="42.22433" lon="0.97583">
        <ele>502.84</ele>
        <time>2021-08-01T12:08:24Z</time>
      </trkpt>
      <trkpt lat="42.22489" lon="0.97605">
        <ele>497.65</ele>
        <time>2021-08-01T12:08:31Z</time>
      </trkpt>
      <trkpt lat="42.2252" lon="0.97621">
        <ele>495.55</ele>
        <time>2021-08-01T12:08:34Z</time>
      </trkpt>
      <trkpt lat="42.22564" lon="0.9761">
        <ele>491.37</ele>
        <time>2021-08-01T12:08:40Z</time>
      </trkpt>
      <trkpt lat="42.2257" lon="0.97597">
        <ele>488.24</ele>
        <time>2021-08-01T12:08:44Z</time>
      </trkpt>
      <trkpt lat="42.22549" lon="0.97575">
        <ele>485.74</ele>
        <time>2021-08-01T12:08:49Z</time>
      </trkpt>
      <trkpt lat="42.22419" lon="0.97518">
        <ele>483.78</ele>
        <time>2021-08-01T12:09:01Z</time>
      </trkpt>
      <trkpt lat="42.22269" lon="0.97481">
        <ele>483.2</ele>
        <time>2021-08-01T12:09:12Z</time>
      </trkpt>
      <trkpt lat="42.2221" lon="0.97464">
        <ele>481.87</ele>
        <time>2021-08-01T12:09:19Z</time>
      </trkpt>
      <trkpt lat="42.22108" lon="0.97481">
        <ele>481.52</ele>
        <time>2021-08-01T12:09:29Z</time>
      </trkpt>
      <trkpt lat="42.22011" lon="0.975">
        <ele>484.53</ele>
        <time>2021-08-01T12:09:36Z</time>
      </trkpt>
      <trkpt lat="42.21929" lon="0.97518">
        <ele>487.64</ele>
        <time>2021-08-01T12:09:41Z</time>
      </trkpt>
      <trkpt lat="42.21843" lon="0.97539">
        <ele>490.68</ele>
        <time>2021-08-01T12:09:46Z</time>
      </trkpt>
      <trkpt lat="42.21785" lon="0.97566">
        <ele>491.78</ele>
        <time>2021-08-01T12:09:50Z</time>
      </trkpt>
      <trkpt lat="42.2173" lon="0.97574">
        <ele>492</ele>
        <time>2021-08-01T12:09:54Z</time>
      </trkpt>
      <trkpt lat="42.21675" lon="0.97571">
        <ele>492.78</ele>
        <time>2021-08-01T12:09:58Z</time>
      </trkpt>
      <trkpt lat="42.21584" lon="0.97599">
        <ele>496.82</ele>
        <time>2021-08-01T12:10:04Z</time>
      </trkpt>
      <trkpt lat="42.21561" lon="0.97613">
        <ele>498.67</ele>
        <time>2021-08-01T12:10:06Z</time>
      </trkpt>
      <trkpt lat="42.2155" lon="0.97676">
        <ele>501.95</ele>
        <time>2021-08-01T12:10:11Z</time>
      </trkpt>
      <trkpt lat="42.21551" lon="0.97768">
        <ele>505.2</ele>
        <time>2021-08-01T12:10:16Z</time>
      </trkpt>
      <trkpt lat="42.21527" lon="0.97835">
        <ele>508.1</ele>
        <time>2021-08-01T12:10:20Z</time>
      </trkpt>
      <trkpt lat="42.21467" lon="0.97884">
        <ele>511.43</ele>
        <time>2021-08-01T12:10:26Z</time>
      </trkpt>
      <trkpt lat="42.21454" lon="0.9788">
        <ele>512.06</ele>
        <time>2021-08-01T12:10:27Z</time>
      </trkpt>
      <trkpt lat="42.21431" lon="0.97872">
        <ele>513.3</ele>
        <time>2021-08-01T12:10:29Z</time>
      </trkpt>
      <trkpt lat="42.21383" lon="0.97886">
        <ele>514.94</ele>
        <time>2021-08-01T12:10:34Z</time>
      </trkpt>
      <trkpt lat="42.21277" lon="0.97979">
        <ele>518.72</ele>
        <time>2021-08-01T12:10:43Z</time>
      </trkpt>
      <trkpt lat="42.21223" lon="0.98035">
        <ele>522.13</ele>
        <time>2021-08-01T12:10:47Z</time>
      </trkpt>
      <trkpt lat="42.2115" lon="0.98108">
        <ele>523.32</ele>
        <time>2021-08-01T12:10:53Z</time>
      </trkpt>
      <trkpt lat="42.21104" lon="0.98195">
        <ele>523.91</ele>
        <time>2021-08-01T12:10:58Z</time>
      </trkpt>
      <trkpt lat="42.21091" lon="0.98233">
        <ele>524.32</ele>
        <time>2021-08-01T12:11:00Z</time>
      </trkpt>
      <trkpt lat="42.21013" lon="0.98284">
        <ele>524.84</ele>
        <time>2021-08-01T12:11:06Z</time>
      </trkpt>
      <trkpt lat="42.20985" lon="0.98302">
        <ele>525.27</ele>
        <time>2021-08-01T12:11:08Z</time>
      </trkpt>
      <trkpt lat="42.20883" lon="0.98402">
        <ele>528.84</ele>
        <time>2021-08-01T12:11:16Z</time>
      </trkpt>
      <trkpt lat="42.20795" lon="0.98458">
        <ele>532.27</ele>
        <time>2021-08-01T12:11:22Z</time>
      </trkpt>
      <trkpt lat="42.20662" lon="0.98554">
        <ele>532.65</ele>
        <time>2021-08-01T12:11:32Z</time>
      </trkpt>
      <trkpt lat="42.20553" lon="0.98682">
        <ele>530.44</ele>
        <time>2021-08-01T12:11:41Z</time>
      </trkpt>
      <trkpt lat="42.20481" lon="0.9876">
        <ele>530.53</ele>
        <time>2021-08-01T12:11:48Z</time>
      </trkpt>
      <trkpt lat="42.20443" lon="0.98779">
        <ele>530.58</ele>
        <time>2021-08-01T12:11:52Z</time>
      </trkpt>
      <trkpt lat="42.20405" lon="0.98785">
        <ele>529.72</ele>
        <time>2021-08-01T12:12:00Z</time>
      </trkpt>
      <trkpt lat="42.20379" lon="0.98754">
        <ele>530.27</ele>
        <time>2021-08-01T12:12:06Z</time>
      </trkpt>
      <trkpt lat="42.20372" lon="0.98734">
        <ele>530.45</ele>
        <time>2021-08-01T12:12:08Z</time>
      </trkpt>
      <trkpt lat="42.20347" lon="0.98705">
        <ele>530.07</ele>
        <time>2021-08-01T12:12:12Z</time>
      </trkpt>
      <trkpt lat="42.20298" lon="0.98668">
        <ele>527.33</ele>
        <time>2021-08-01T12:12:20Z</time>
      </trkpt>
      <trkpt lat="42.20296" lon="0.98668">
        <ele>526.75</ele>
        <time>2021-08-01T12:12:21Z</time>
      </trkpt>
      <trkpt lat="42.20293" lon="0.9867">
        <ele>526.2</ele>
        <time>2021-08-01T12:12:22Z</time>
      </trkpt>
      <trkpt lat="42.20288" lon="0.98681">
        <ele>525.24</ele>
        <time>2021-08-01T12:12:24Z</time>
      </trkpt>
      <trkpt lat="42.20287" lon="0.9869">
        <ele>524.73</ele>
        <time>2021-08-01T12:12:25Z</time>
      </trkpt>
      <trkpt lat="42.20286" lon="0.98699">
        <ele>524.17</ele>
        <time>2021-08-01T12:12:26Z</time>
      </trkpt>
      <trkpt lat="42.20282" lon="0.98717">
        <ele>523.29</ele>
        <time>2021-08-01T12:12:28Z</time>
      </trkpt>
      <trkpt lat="42.20265" lon="0.98751">
        <ele>521.44</ele>
        <time>2021-08-01T12:12:32Z</time>
      </trkpt>
      <trkpt lat="42.2023" lon="0.98785">
        <ele>519.48</ele>
        <time>2021-08-01T12:12:41Z</time>
      </trkpt>
      <trkpt lat="42.20216" lon="0.98792">
        <ele>518.37</ele>
        <time>2021-08-01T12:12:54Z</time>
      </trkpt>
      <trkpt lat="42.2021" lon="0.98785">
        <ele>518.34</ele>
        <time>2021-08-01T12:12:56Z</time>
      </trkpt>
      <trkpt lat="42.20204" lon="0.98777">
        <ele>518.25</ele>
        <time>2021-08-01T12:12:58Z</time>
      </trkpt>
      <trkpt lat="42.20197" lon="0.98769">
        <ele>518.04</ele>
        <time>2021-08-01T12:13:00Z</time>
      </trkpt>
      <trkpt lat="42.20195" lon="0.98763">
        <ele>517.91</ele>
        <time>2021-08-01T12:13:01Z</time>
      </trkpt>
      <trkpt lat="42.20194" lon="0.98755">
        <ele>517.8</ele>
        <time>2021-08-01T12:13:02Z</time>
      </trkpt>
      <trkpt lat="42.20194" lon="0.98745">
        <ele>517.69</ele>
        <time>2021-08-01T12:13:03Z</time>
      </trkpt>
      <trkpt lat="42.20194" lon="0.98734">
        <ele>517.55</ele>
        <time>2021-08-01T12:13:04Z</time>
      </trkpt>
      <trkpt lat="42.20195" lon="0.98723">
        <ele>517.41</ele>
        <time>2021-08-01T12:13:05Z</time>
      </trkpt>
      <trkpt lat="42.20195" lon="0.98711">
        <ele>517.25</ele>
        <time>2021-08-01T12:13:06Z</time>
      </trkpt>
      <trkpt lat="42.20196" lon="0.98618">
        <ele>514.17</ele>
        <time>2021-08-01T12:13:13Z</time>
      </trkpt>
      <trkpt lat="42.20191" lon="0.98547">
        <ele>510.94</ele>
        <time>2021-08-01T12:13:18Z</time>
      </trkpt>
      <trkpt lat="42.2019" lon="0.98535">
        <ele>510.02</ele>
        <time>2021-08-01T12:13:19Z</time>
      </trkpt>
      <trkpt lat="42.20196" lon="0.98494">
        <ele>505.92</ele>
        <time>2021-08-01T12:13:23Z</time>
      </trkpt>
      <trkpt lat="42.20201" lon="0.98485">
        <ele>504.21</ele>
        <time>2021-08-01T12:13:24Z</time>
      </trkpt>
      <trkpt lat="42.20193" lon="0.98435">
        <ele>499.75</ele>
        <time>2021-08-01T12:13:30Z</time>
      </trkpt>
      <trkpt lat="42.20171" lon="0.9839">
        <ele>497.25</ele>
        <time>2021-08-01T12:13:35Z</time>
      </trkpt>
      <trkpt lat="42.20149" lon="0.98388">
        <ele>493.61</ele>
        <time>2021-08-01T12:13:41Z</time>
      </trkpt>
      <trkpt lat="42.20137" lon="0.98404">
        <ele>492.11</ele>
        <time>2021-08-01T12:13:43Z</time>
      </trkpt>
      <trkpt lat="42.20114" lon="0.98427">
        <ele>487.94</ele>
        <time>2021-08-01T12:13:49Z</time>
      </trkpt>
      <trkpt lat="42.20107" lon="0.9843">
        <ele>484.86</ele>
        <time>2021-08-01T12:13:58Z</time>
      </trkpt>
      <trkpt lat="42.20089" lon="0.98445">
        <ele>484.3</ele>
        <time>2021-08-01T12:14:05Z</time>
      </trkpt>
      <trkpt lat="42.20055" lon="0.98449">
        <ele>484.48</ele>
        <time>2021-08-01T12:14:10Z</time>
      </trkpt>
      <trkpt lat="42.19992" lon="0.98403">
        <ele>486.52</ele>
        <time>2021-08-01T12:14:17Z</time>
      </trkpt>
      <trkpt lat="42.19983" lon="0.9837">
        <ele>487.24</ele>
        <time>2021-08-01T12:14:19Z</time>
      </trkpt>
      <trkpt lat="42.19966" lon="0.98286">
        <ele>489.87</ele>
        <time>2021-08-01T12:14:24Z</time>
      </trkpt>
      <trkpt lat="42.19958" lon="0.98256">
        <ele>490.07</ele>
        <time>2021-08-01T12:14:26Z</time>
      </trkpt>
      <trkpt lat="42.19939" lon="0.98223">
        <ele>488.79</ele>
        <time>2021-08-01T12:14:30Z</time>
      </trkpt>
      <trkpt lat="42.19934" lon="0.98212">
        <ele>487.59</ele>
        <time>2021-08-01T12:14:32Z</time>
      </trkpt>
      <trkpt lat="42.19935" lon="0.98175">
        <ele>483.52</ele>
        <time>2021-08-01T12:14:39Z</time>
      </trkpt>
      <trkpt lat="42.19938" lon="0.9817">
        <ele>483.19</ele>
        <time>2021-08-01T12:14:40Z</time>
      </trkpt>
      <trkpt lat="42.19963" lon="0.98116">
        <ele>482.01</ele>
        <time>2021-08-01T12:14:48Z</time>
      </trkpt>
      <trkpt lat="42.19963" lon="0.98067">
        <ele>481.54</ele>
        <time>2021-08-01T12:14:53Z</time>
      </trkpt>
      <trkpt lat="42.1994" lon="0.97914">
        <ele>480.92</ele>
        <time>2021-08-01T12:15:04Z</time>
      </trkpt>
      <trkpt lat="42.19917" lon="0.97827">
        <ele>480.44</ele>
        <time>2021-08-01T12:15:11Z</time>
      </trkpt>
      <trkpt lat="42.19917" lon="0.97779">
        <ele>480.23</ele>
        <time>2021-08-01T12:15:15Z</time>
      </trkpt>
      <trkpt lat="42.19905" lon="0.97719">
        <ele>479.52</ele>
        <time>2021-08-01T12:15:23Z</time>
      </trkpt>
      <trkpt lat="42.19907" lon="0.97705">
        <ele>479.29</ele>
        <time>2021-08-01T12:15:25Z</time>
      </trkpt>
      <trkpt lat="42.19921" lon="0.97626">
        <ele>479.65</ele>
        <time>2021-08-01T12:15:34Z</time>
      </trkpt>
      <trkpt lat="42.19931" lon="0.97499">
        <ele>481.06</ele>
        <time>2021-08-01T12:15:43Z</time>
      </trkpt>
      <trkpt lat="42.1993" lon="0.9745">
        <ele>481.09</ele>
        <time>2021-08-01T12:15:47Z</time>
      </trkpt>
      <trkpt lat="42.19916" lon="0.9741">
        <ele>481.24</ele>
        <time>2021-08-01T12:15:51Z</time>
      </trkpt>
      <trkpt lat="42.19873" lon="0.97339">
        <ele>482.64</ele>
        <time>2021-08-01T12:15:59Z</time>
      </trkpt>
      <trkpt lat="42.19845" lon="0.9727">
        <ele>484.04</ele>
        <time>2021-08-01T12:16:07Z</time>
      </trkpt>
      <trkpt lat="42.19837" lon="0.97264">
        <ele>484.35</ele>
        <time>2021-08-01T12:16:08Z</time>
      </trkpt>
      <trkpt lat="42.19765" lon="0.97171">
        <ele>486.8</ele>
        <time>2021-08-01T12:16:18Z</time>
      </trkpt>
      <trkpt lat="42.19752" lon="0.97148">
        <ele>486.85</ele>
        <time>2021-08-01T12:16:20Z</time>
      </trkpt>
      <trkpt lat="42.19697" lon="0.97083">
        <ele>486.23</ele>
        <time>2021-08-01T12:16:26Z</time>
      </trkpt>
      <trkpt lat="42.19655" lon="0.97061">
        <ele>485.84</ele>
        <time>2021-08-01T12:16:31Z</time>
      </trkpt>
      <trkpt lat="42.19622" lon="0.97034">
        <ele>485.45</ele>
        <time>2021-08-01T12:16:37Z</time>
      </trkpt>
      <trkpt lat="42.19606" lon="0.96978">
        <ele>485.07</ele>
        <time>2021-08-01T12:16:43Z</time>
      </trkpt>
      <trkpt lat="42.19601" lon="0.96919">
        <ele>486.37</ele>
        <time>2021-08-01T12:16:49Z</time>
      </trkpt>
      <trkpt lat="42.1961" lon="0.96832">
        <ele>489.65</ele>
        <time>2021-08-01T12:16:59Z</time>
      </trkpt>
      <trkpt lat="42.19609" lon="0.96787">
        <ele>491.03</ele>
        <time>2021-08-01T12:17:03Z</time>
      </trkpt>
      <trkpt lat="42.19603" lon="0.96726">
        <ele>492.12</ele>
        <time>2021-08-01T12:17:08Z</time>
      </trkpt>
      <trkpt lat="42.19592" lon="0.9668">
        <ele>492.02</ele>
        <time>2021-08-01T12:17:12Z</time>
      </trkpt>
      <trkpt lat="42.19552" lon="0.96592">
        <ele>490.73</ele>
        <time>2021-08-01T12:17:20Z</time>
      </trkpt>
      <trkpt lat="42.19527" lon="0.96565">
        <ele>489.8</ele>
        <time>2021-08-01T12:17:24Z</time>
      </trkpt>
      <trkpt lat="42.19443" lon="0.96543">
        <ele>488.7</ele>
        <time>2021-08-01T12:17:33Z</time>
      </trkpt>
      <trkpt lat="42.19409" lon="0.96541">
        <ele>488.22</ele>
        <time>2021-08-01T12:17:37Z</time>
      </trkpt>
      <trkpt lat="42.19402" lon="0.96537">
        <ele>488.14</ele>
        <time>2021-08-01T12:17:38Z</time>
      </trkpt>
      <trkpt lat="42.19372" lon="0.96489">
        <ele>488.13</ele>
        <time>2021-08-01T12:17:44Z</time>
      </trkpt>
      <trkpt lat="42.19332" lon="0.96446">
        <ele>491.04</ele>
        <time>2021-08-01T12:17:50Z</time>
      </trkpt>
      <trkpt lat="42.19302" lon="0.96428">
        <ele>494.05</ele>
        <time>2021-08-01T12:17:55Z</time>
      </trkpt>
      <trkpt lat="42.19277" lon="0.96415">
        <ele>497.04</ele>
        <time>2021-08-01T12:18:00Z</time>
      </trkpt>
      <trkpt lat="42.19243" lon="0.96384">
        <ele>500.7</ele>
        <time>2021-08-01T12:18:07Z</time>
      </trkpt>
      <trkpt lat="42.19208" lon="0.9635">
        <ele>504.08</ele>
        <time>2021-08-01T12:18:13Z</time>
      </trkpt>
      <trkpt lat="42.19201" lon="0.96301">
        <ele>507.84</ele>
        <time>2021-08-01T12:18:19Z</time>
      </trkpt>
      <trkpt lat="42.19212" lon="0.96284">
        <ele>508.88</ele>
        <time>2021-08-01T12:18:21Z</time>
      </trkpt>
      <trkpt lat="42.19243" lon="0.96239">
        <ele>511.75</ele>
        <time>2021-08-01T12:18:27Z</time>
      </trkpt>
      <trkpt lat="42.19255" lon="0.962">
        <ele>513.57</ele>
        <time>2021-08-01T12:18:32Z</time>
      </trkpt>
      <trkpt lat="42.19255" lon="0.96096">
        <ele>515.74</ele>
        <time>2021-08-01T12:18:42Z</time>
      </trkpt>
      <trkpt lat="42.19258" lon="0.96032">
        <ele>516.41</ele>
        <time>2021-08-01T12:18:48Z</time>
      </trkpt>
      <trkpt lat="42.19238" lon="0.96009">
        <ele>516.46</ele>
        <time>2021-08-01T12:18:55Z</time>
      </trkpt>
      <trkpt lat="42.19201" lon="0.96018">
        <ele>514.86</ele>
        <time>2021-08-01T12:19:00Z</time>
      </trkpt>
      <trkpt lat="42.19187" lon="0.9601">
        <ele>513.96</ele>
        <time>2021-08-01T12:19:02Z</time>
      </trkpt>
      <trkpt lat="42.19153" lon="0.96006">
        <ele>512.22</ele>
        <time>2021-08-01T12:19:06Z</time>
      </trkpt>
      <trkpt lat="42.19112" lon="0.95997">
        <ele>507.51</ele>
        <time>2021-08-01T12:19:12Z</time>
      </trkpt>
      <trkpt lat="42.19107" lon="0.95978">
        <ele>504.23</ele>
        <time>2021-08-01T12:19:16Z</time>
      </trkpt>
      <trkpt lat="42.1913" lon="0.95968">
        <ele>501.13</ele>
        <time>2021-08-01T12:19:21Z</time>
      </trkpt>
      <trkpt lat="42.19158" lon="0.95957">
        <ele>498.56</ele>
        <time>2021-08-01T12:19:25Z</time>
      </trkpt>
      <trkpt lat="42.19169" lon="0.9595">
        <ele>497.23</ele>
        <time>2021-08-01T12:19:27Z</time>
      </trkpt>
      <trkpt lat="42.19163" lon="0.95925">
        <ele>493.18</ele>
        <time>2021-08-01T12:19:33Z</time>
      </trkpt>
      <trkpt lat="42.19155" lon="0.95924">
        <ele>492.62</ele>
        <time>2021-08-01T12:19:34Z</time>
      </trkpt>
      <trkpt lat="42.19137" lon="0.95923">
        <ele>491.66</ele>
        <time>2021-08-01T12:19:36Z</time>
      </trkpt>
      <trkpt lat="42.1911" lon="0.95927">
        <ele>489.95</ele>
        <time>2021-08-01T12:19:39Z</time>
      </trkpt>
      <trkpt lat="42.19053" lon="0.95921">
        <ele>485.83</ele>
        <time>2021-08-01T12:19:45Z</time>
      </trkpt>
      <trkpt lat="42.19011" lon="0.95916">
        <ele>482.51</ele>
        <time>2021-08-01T12:19:49Z</time>
      </trkpt>
      <trkpt lat="42.18967" lon="0.95908">
        <ele>479</ele>
        <time>2021-08-01T12:19:54Z</time>
      </trkpt>
      <trkpt lat="42.18941" lon="0.95875">
        <ele>476.98</ele>
        <time>2021-08-01T12:20:01Z</time>
      </trkpt>
      <trkpt lat="42.18939" lon="0.95863">
        <ele>511.8</ele>
      </trkpt>
    </trkseg>
  </trk>
</gpx>